<?xml version="1.0" encoding="UTF-8" standalone="no" ?>
<gpx xmlns="http://www.topografix.com/GPX/1/1" xmlns:xsi="http://www.w3.org/2001/XMLSchema-instance" xsi:schemaLocation="http://www.topografix.com/GPX/1/1 http://www.topografix.com/GPX/1/1/gpx.xsd" version="1.1" creator="VisuGPX - https://www.visugpx.com">
  <metadata>
    <name>Enduro des Monts 2015</name>
    <desc><![CDATA[Trace de l\'enduro des Monts 2015
Rider Hervé Pardo.
EnjoY !]]></desc>
  </metadata>
  <trk>
    <name><![CDATA[2015-03-01 14:26:21]]></name>
    <trkseg>
      <trkpt lat="43.78698" lon="7.27564">
        <ele>423.62</ele>
        <time>2015-03-01T08:33:31Z</time>
      </trkpt>
      <trkpt lat="43.787" lon="7.27567">
        <ele>417.36</ele>
        <time>2015-03-01T08:33:32Z</time>
      </trkpt>
      <trkpt lat="43.78705" lon="7.27574">
        <ele>408.07</ele>
        <time>2015-03-01T08:33:35Z</time>
      </trkpt>
      <trkpt lat="43.78705" lon="7.27575">
        <ele>407.3</ele>
        <time>2015-03-01T08:33:37Z</time>
      </trkpt>
      <trkpt lat="43.78708" lon="7.27576">
        <ele>407.24</ele>
        <time>2015-03-01T08:33:40Z</time>
      </trkpt>
      <trkpt lat="43.78725" lon="7.27595">
        <ele>409.41</ele>
        <time>2015-03-01T08:33:50Z</time>
      </trkpt>
      <trkpt lat="43.78776" lon="7.2759">
        <ele>407.85</ele>
        <time>2015-03-01T08:34:02Z</time>
      </trkpt>
      <trkpt lat="43.78836" lon="7.27542">
        <ele>405.48</ele>
        <time>2015-03-01T08:34:14Z</time>
      </trkpt>
      <trkpt lat="43.78877" lon="7.27485">
        <ele>402.78</ele>
        <time>2015-03-01T08:34:23Z</time>
      </trkpt>
      <trkpt lat="43.78917" lon="7.2747">
        <ele>399.19</ele>
        <time>2015-03-01T08:34:29Z</time>
      </trkpt>
      <trkpt lat="43.78956" lon="7.27475">
        <ele>396.73</ele>
        <time>2015-03-01T08:34:34Z</time>
      </trkpt>
      <trkpt lat="43.79023" lon="7.27453">
        <ele>393.2</ele>
        <time>2015-03-01T08:34:43Z</time>
      </trkpt>
      <trkpt lat="43.79038" lon="7.27443">
        <ele>392.78</ele>
        <time>2015-03-01T08:34:45Z</time>
      </trkpt>
      <trkpt lat="43.7905" lon="7.27432">
        <ele>391.55</ele>
        <time>2015-03-01T08:34:47Z</time>
      </trkpt>
      <trkpt lat="43.7911" lon="7.27386">
        <ele>388.37</ele>
        <time>2015-03-01T08:34:56Z</time>
      </trkpt>
      <trkpt lat="43.79117" lon="7.27353">
        <ele>386.93</ele>
        <time>2015-03-01T08:35:01Z</time>
      </trkpt>
      <trkpt lat="43.79131" lon="7.27298">
        <ele>387.1</ele>
        <time>2015-03-01T08:35:09Z</time>
      </trkpt>
      <trkpt lat="43.79163" lon="7.27258">
        <ele>390.79</ele>
        <time>2015-03-01T08:35:20Z</time>
      </trkpt>
      <trkpt lat="43.792" lon="7.2723">
        <ele>393.88</ele>
        <time>2015-03-01T08:35:34Z</time>
      </trkpt>
      <trkpt lat="43.7924" lon="7.27213">
        <ele>396.69</ele>
        <time>2015-03-01T08:35:48Z</time>
      </trkpt>
      <trkpt lat="43.79265" lon="7.27171">
        <ele>399</ele>
        <time>2015-03-01T08:36:01Z</time>
      </trkpt>
      <trkpt lat="43.79273" lon="7.27122">
        <ele>401.25</ele>
        <time>2015-03-01T08:36:14Z</time>
      </trkpt>
      <trkpt lat="43.79269" lon="7.27065">
        <ele>404.05</ele>
        <time>2015-03-01T08:36:29Z</time>
      </trkpt>
      <trkpt lat="43.79265" lon="7.27009">
        <ele>406.6</ele>
        <time>2015-03-01T08:36:45Z</time>
      </trkpt>
      <trkpt lat="43.79251" lon="7.2696">
        <ele>408.91</ele>
        <time>2015-03-01T08:37:00Z</time>
      </trkpt>
      <trkpt lat="43.7924" lon="7.26907">
        <ele>411.16</ele>
        <time>2015-03-01T08:37:17Z</time>
      </trkpt>
      <trkpt lat="43.79246" lon="7.26853">
        <ele>413.5</ele>
        <time>2015-03-01T08:37:33Z</time>
      </trkpt>
      <trkpt lat="43.79251" lon="7.26807">
        <ele>415.68</ele>
        <time>2015-03-01T08:37:47Z</time>
      </trkpt>
      <trkpt lat="43.79264" lon="7.26759">
        <ele>417.93</ele>
        <time>2015-03-01T08:38:02Z</time>
      </trkpt>
      <trkpt lat="43.79298" lon="7.26722">
        <ele>420.77</ele>
        <time>2015-03-01T08:38:20Z</time>
      </trkpt>
      <trkpt lat="43.79324" lon="7.26689">
        <ele>422.53</ele>
        <time>2015-03-01T08:38:34Z</time>
      </trkpt>
      <trkpt lat="43.79356" lon="7.26696">
        <ele>424.51</ele>
        <time>2015-03-01T08:38:48Z</time>
      </trkpt>
      <trkpt lat="43.79397" lon="7.26699">
        <ele>426.76</ele>
        <time>2015-03-01T08:39:05Z</time>
      </trkpt>
      <trkpt lat="43.79429" lon="7.26701">
        <ele>428.32</ele>
        <time>2015-03-01T08:39:17Z</time>
      </trkpt>
      <trkpt lat="43.79443" lon="7.26669">
        <ele>429.81</ele>
        <time>2015-03-01T08:39:27Z</time>
      </trkpt>
      <trkpt lat="43.79422" lon="7.26641">
        <ele>431</ele>
        <time>2015-03-01T08:39:38Z</time>
      </trkpt>
      <trkpt lat="43.79393" lon="7.26618">
        <ele>432.92</ele>
        <time>2015-03-01T08:39:50Z</time>
      </trkpt>
      <trkpt lat="43.79382" lon="7.2658">
        <ele>434.53</ele>
        <time>2015-03-01T08:40:02Z</time>
      </trkpt>
      <trkpt lat="43.79387" lon="7.26533">
        <ele>436.98</ele>
        <time>2015-03-01T08:40:16Z</time>
      </trkpt>
      <trkpt lat="43.79395" lon="7.26492">
        <ele>438.86</ele>
        <time>2015-03-01T08:40:28Z</time>
      </trkpt>
      <trkpt lat="43.7942" lon="7.26462">
        <ele>440.69</ele>
        <time>2015-03-01T08:40:41Z</time>
      </trkpt>
      <trkpt lat="43.79458" lon="7.26452">
        <ele>442.98</ele>
        <time>2015-03-01T08:40:57Z</time>
      </trkpt>
      <trkpt lat="43.79463" lon="7.26453">
        <ele>443.21</ele>
        <time>2015-03-01T08:40:59Z</time>
      </trkpt>
      <trkpt lat="43.79496" lon="7.26447">
        <ele>445.47</ele>
        <time>2015-03-01T08:41:14Z</time>
      </trkpt>
      <trkpt lat="43.79533" lon="7.26443">
        <ele>448.03</ele>
        <time>2015-03-01T08:41:29Z</time>
      </trkpt>
      <trkpt lat="43.79567" lon="7.26446">
        <ele>450.23</ele>
        <time>2015-03-01T08:41:43Z</time>
      </trkpt>
      <trkpt lat="43.79608" lon="7.26433">
        <ele>452.56</ele>
        <time>2015-03-01T08:42:01Z</time>
      </trkpt>
      <trkpt lat="43.79646" lon="7.26419">
        <ele>454.95</ele>
        <time>2015-03-01T08:42:17Z</time>
      </trkpt>
      <trkpt lat="43.79686" lon="7.26395">
        <ele>456.74</ele>
        <time>2015-03-01T08:42:33Z</time>
      </trkpt>
      <trkpt lat="43.79717" lon="7.26361">
        <ele>457.59</ele>
        <time>2015-03-01T08:42:46Z</time>
      </trkpt>
      <trkpt lat="43.79747" lon="7.26314">
        <ele>460.11</ele>
        <time>2015-03-01T08:43:01Z</time>
      </trkpt>
      <trkpt lat="43.79777" lon="7.26272">
        <ele>462.41</ele>
        <time>2015-03-01T08:43:17Z</time>
      </trkpt>
      <trkpt lat="43.79799" lon="7.26232">
        <ele>465.47</ele>
        <time>2015-03-01T08:43:32Z</time>
      </trkpt>
      <trkpt lat="43.79804" lon="7.26178">
        <ele>467.38</ele>
        <time>2015-03-01T08:43:47Z</time>
      </trkpt>
      <trkpt lat="43.79782" lon="7.26122">
        <ele>469.46</ele>
        <time>2015-03-01T08:44:03Z</time>
      </trkpt>
      <trkpt lat="43.7976" lon="7.26067">
        <ele>470.16</ele>
        <time>2015-03-01T08:44:18Z</time>
      </trkpt>
      <trkpt lat="43.7973" lon="7.2599">
        <ele>471.18</ele>
        <time>2015-03-01T08:44:37Z</time>
      </trkpt>
      <trkpt lat="43.79704" lon="7.25918">
        <ele>473.09</ele>
        <time>2015-03-01T08:44:55Z</time>
      </trkpt>
      <trkpt lat="43.79704" lon="7.25855">
        <ele>475.31</ele>
        <time>2015-03-01T08:45:10Z</time>
      </trkpt>
      <trkpt lat="43.79718" lon="7.25784">
        <ele>477.57</ele>
        <time>2015-03-01T08:45:28Z</time>
      </trkpt>
      <trkpt lat="43.79737" lon="7.25727">
        <ele>478.56</ele>
        <time>2015-03-01T08:45:43Z</time>
      </trkpt>
      <trkpt lat="43.79745" lon="7.25668">
        <ele>479.69</ele>
        <time>2015-03-01T08:45:56Z</time>
      </trkpt>
      <trkpt lat="43.79725" lon="7.25619">
        <ele>479.15</ele>
        <time>2015-03-01T08:46:08Z</time>
      </trkpt>
      <trkpt lat="43.79693" lon="7.25607">
        <ele>481.86</ele>
        <time>2015-03-01T08:46:20Z</time>
      </trkpt>
      <trkpt lat="43.79663" lon="7.25632">
        <ele>482.9</ele>
        <time>2015-03-01T08:46:32Z</time>
      </trkpt>
      <trkpt lat="43.7962" lon="7.25666">
        <ele>483.75</ele>
        <time>2015-03-01T08:46:46Z</time>
      </trkpt>
      <trkpt lat="43.79576" lon="7.25657">
        <ele>484.74</ele>
        <time>2015-03-01T08:47:00Z</time>
      </trkpt>
      <trkpt lat="43.79556" lon="7.25613">
        <ele>486.32</ele>
        <time>2015-03-01T08:47:12Z</time>
      </trkpt>
      <trkpt lat="43.79538" lon="7.25553">
        <ele>487.44</ele>
        <time>2015-03-01T08:47:27Z</time>
      </trkpt>
      <trkpt lat="43.79508" lon="7.25521">
        <ele>487.94</ele>
        <time>2015-03-01T08:47:39Z</time>
      </trkpt>
      <trkpt lat="43.79475" lon="7.25536">
        <ele>488.97</ele>
        <time>2015-03-01T08:47:51Z</time>
      </trkpt>
      <trkpt lat="43.79422" lon="7.25549">
        <ele>490.8</ele>
        <time>2015-03-01T08:48:07Z</time>
      </trkpt>
      <trkpt lat="43.7938" lon="7.25522">
        <ele>492.24</ele>
        <time>2015-03-01T08:48:22Z</time>
      </trkpt>
      <trkpt lat="43.79342" lon="7.25495">
        <ele>493.6</ele>
        <time>2015-03-01T08:48:36Z</time>
      </trkpt>
      <trkpt lat="43.79312" lon="7.25449">
        <ele>495.13</ele>
        <time>2015-03-01T08:48:51Z</time>
      </trkpt>
      <trkpt lat="43.793" lon="7.25382">
        <ele>497.25</ele>
        <time>2015-03-01T08:49:07Z</time>
      </trkpt>
      <trkpt lat="43.79296" lon="7.25327">
        <ele>498.31</ele>
        <time>2015-03-01T08:49:20Z</time>
      </trkpt>
      <trkpt lat="43.79265" lon="7.25301">
        <ele>499.35</ele>
        <time>2015-03-01T08:49:32Z</time>
      </trkpt>
      <trkpt lat="43.79224" lon="7.25317">
        <ele>501.39</ele>
        <time>2015-03-01T08:49:47Z</time>
      </trkpt>
      <trkpt lat="43.79181" lon="7.25339">
        <ele>502.77</ele>
        <time>2015-03-01T08:50:01Z</time>
      </trkpt>
      <trkpt lat="43.79143" lon="7.25359">
        <ele>504.03</ele>
        <time>2015-03-01T08:50:14Z</time>
      </trkpt>
      <trkpt lat="43.79102" lon="7.25369">
        <ele>505.59</ele>
        <time>2015-03-01T08:50:27Z</time>
      </trkpt>
      <trkpt lat="43.79045" lon="7.25368">
        <ele>507.55</ele>
        <time>2015-03-01T08:50:44Z</time>
      </trkpt>
      <trkpt lat="43.79015" lon="7.25362">
        <ele>508.68</ele>
        <time>2015-03-01T08:50:54Z</time>
      </trkpt>
      <trkpt lat="43.78983" lon="7.25355">
        <ele>510.16</ele>
        <time>2015-03-01T08:51:05Z</time>
      </trkpt>
      <trkpt lat="43.78949" lon="7.25336">
        <ele>511.63</ele>
        <time>2015-03-01T08:51:17Z</time>
      </trkpt>
      <trkpt lat="43.78924" lon="7.25286">
        <ele>513.52</ele>
        <time>2015-03-01T08:51:31Z</time>
      </trkpt>
      <trkpt lat="43.78894" lon="7.25243">
        <ele>514.85</ele>
        <time>2015-03-01T08:51:45Z</time>
      </trkpt>
      <trkpt lat="43.78856" lon="7.25238">
        <ele>515.82</ele>
        <time>2015-03-01T08:51:57Z</time>
      </trkpt>
      <trkpt lat="43.7882" lon="7.25223">
        <ele>517.53</ele>
        <time>2015-03-01T08:52:11Z</time>
      </trkpt>
      <trkpt lat="43.78777" lon="7.25204">
        <ele>519.05</ele>
        <time>2015-03-01T08:52:26Z</time>
      </trkpt>
      <trkpt lat="43.78742" lon="7.25227">
        <ele>520</ele>
        <time>2015-03-01T08:52:39Z</time>
      </trkpt>
      <trkpt lat="43.787" lon="7.25255">
        <ele>521.48</ele>
        <time>2015-03-01T08:52:54Z</time>
      </trkpt>
      <trkpt lat="43.78654" lon="7.25249">
        <ele>523.31</ele>
        <time>2015-03-01T08:53:08Z</time>
      </trkpt>
      <trkpt lat="43.78603" lon="7.25248">
        <ele>524.46</ele>
        <time>2015-03-01T08:53:24Z</time>
      </trkpt>
      <trkpt lat="43.78562" lon="7.25254">
        <ele>525.76</ele>
        <time>2015-03-01T08:53:37Z</time>
      </trkpt>
      <trkpt lat="43.78517" lon="7.2526">
        <ele>527.05</ele>
        <time>2015-03-01T08:53:50Z</time>
      </trkpt>
      <trkpt lat="43.78468" lon="7.25274">
        <ele>528.48</ele>
        <time>2015-03-01T08:54:05Z</time>
      </trkpt>
      <trkpt lat="43.78424" lon="7.2529">
        <ele>530.29</ele>
        <time>2015-03-01T08:54:19Z</time>
      </trkpt>
      <trkpt lat="43.78373" lon="7.25315">
        <ele>532.2</ele>
        <time>2015-03-01T08:54:35Z</time>
      </trkpt>
      <trkpt lat="43.78331" lon="7.2534">
        <ele>533.72</ele>
        <time>2015-03-01T08:54:49Z</time>
      </trkpt>
      <trkpt lat="43.7828" lon="7.25386">
        <ele>535.77</ele>
        <time>2015-03-01T08:55:08Z</time>
      </trkpt>
      <trkpt lat="43.78237" lon="7.25398">
        <ele>537.16</ele>
        <time>2015-03-01T08:55:22Z</time>
      </trkpt>
      <trkpt lat="43.78212" lon="7.25357">
        <ele>538.23</ele>
        <time>2015-03-01T08:55:34Z</time>
      </trkpt>
      <trkpt lat="43.78194" lon="7.25285">
        <ele>540.3</ele>
        <time>2015-03-01T08:55:51Z</time>
      </trkpt>
      <trkpt lat="43.78187" lon="7.25276">
        <ele>540.55</ele>
        <time>2015-03-01T08:55:55Z</time>
      </trkpt>
      <trkpt lat="43.78156" lon="7.2525">
        <ele>542.91</ele>
        <time>2015-03-01T08:56:08Z</time>
      </trkpt>
      <trkpt lat="43.7815" lon="7.25237">
        <ele>545.32</ele>
        <time>2015-03-01T08:56:15Z</time>
      </trkpt>
      <trkpt lat="43.78148" lon="7.25234">
        <ele>545.96</ele>
        <time>2015-03-01T08:56:17Z</time>
      </trkpt>
      <trkpt lat="43.78135" lon="7.25245">
        <ele>549.11</ele>
        <time>2015-03-01T08:56:29Z</time>
      </trkpt>
      <trkpt lat="43.78135" lon="7.25248">
        <ele>549.53</ele>
        <time>2015-03-01T08:56:31Z</time>
      </trkpt>
      <trkpt lat="43.78131" lon="7.25263">
        <ele>552.83</ele>
        <time>2015-03-01T08:56:44Z</time>
      </trkpt>
      <trkpt lat="43.78117" lon="7.25275">
        <ele>555.4</ele>
        <time>2015-03-01T08:56:56Z</time>
      </trkpt>
      <trkpt lat="43.78096" lon="7.25292">
        <ele>557.76</ele>
        <time>2015-03-01T08:57:10Z</time>
      </trkpt>
      <trkpt lat="43.78085" lon="7.25307">
        <ele>560.02</ele>
        <time>2015-03-01T08:57:24Z</time>
      </trkpt>
      <trkpt lat="43.78074" lon="7.25315">
        <ele>563.09</ele>
        <time>2015-03-01T08:57:35Z</time>
      </trkpt>
      <trkpt lat="43.78066" lon="7.25323">
        <ele>565.58</ele>
        <time>2015-03-01T08:57:44Z</time>
      </trkpt>
      <trkpt lat="43.7806" lon="7.25327">
        <ele>566.91</ele>
        <time>2015-03-01T08:57:49Z</time>
      </trkpt>
      <trkpt lat="43.78049" lon="7.25331">
        <ele>568.42</ele>
        <time>2015-03-01T08:57:55Z</time>
      </trkpt>
      <trkpt lat="43.78036" lon="7.25343">
        <ele>571.96</ele>
        <time>2015-03-01T08:58:07Z</time>
      </trkpt>
      <trkpt lat="43.78031" lon="7.25354">
        <ele>573.76</ele>
        <time>2015-03-01T08:58:15Z</time>
      </trkpt>
      <trkpt lat="43.78023" lon="7.25361">
        <ele>574.45</ele>
        <time>2015-03-01T08:58:21Z</time>
      </trkpt>
      <trkpt lat="43.78" lon="7.2539">
        <ele>575.7</ele>
        <time>2015-03-01T08:58:36Z</time>
      </trkpt>
      <trkpt lat="43.77983" lon="7.25406">
        <ele>576.54</ele>
        <time>2015-03-01T08:58:47Z</time>
      </trkpt>
      <trkpt lat="43.77962" lon="7.2542">
        <ele>578.84</ele>
        <time>2015-03-01T08:58:59Z</time>
      </trkpt>
      <trkpt lat="43.77954" lon="7.25424">
        <ele>580.09</ele>
        <time>2015-03-01T08:59:04Z</time>
      </trkpt>
      <trkpt lat="43.77944" lon="7.25454">
        <ele>581.94</ele>
        <time>2015-03-01T08:59:18Z</time>
      </trkpt>
      <trkpt lat="43.77945" lon="7.25475">
        <ele>583.92</ele>
        <time>2015-03-01T08:59:28Z</time>
      </trkpt>
      <trkpt lat="43.77945" lon="7.25479">
        <ele>584.87</ele>
        <time>2015-03-01T08:59:31Z</time>
      </trkpt>
      <trkpt lat="43.7794" lon="7.25502">
        <ele>588.24</ele>
        <time>2015-03-01T08:59:43Z</time>
      </trkpt>
      <trkpt lat="43.77926" lon="7.25517">
        <ele>591.15</ele>
        <time>2015-03-01T08:59:55Z</time>
      </trkpt>
      <trkpt lat="43.77924" lon="7.25522">
        <ele>592</ele>
        <time>2015-03-01T08:59:58Z</time>
      </trkpt>
      <trkpt lat="43.77917" lon="7.25526">
        <ele>593.49</ele>
        <time>2015-03-01T09:00:03Z</time>
      </trkpt>
      <trkpt lat="43.77908" lon="7.25538">
        <ele>596.32</ele>
        <time>2015-03-01T09:00:13Z</time>
      </trkpt>
      <trkpt lat="43.77909" lon="7.25549">
        <ele>598.05</ele>
        <time>2015-03-01T09:00:27Z</time>
      </trkpt>
      <trkpt lat="43.77909" lon="7.25555">
        <ele>599.61</ele>
        <time>2015-03-01T09:00:37Z</time>
      </trkpt>
      <trkpt lat="43.77907" lon="7.25565">
        <ele>601.69</ele>
        <time>2015-03-01T09:00:51Z</time>
      </trkpt>
      <trkpt lat="43.77904" lon="7.25565">
        <ele>602.02</ele>
        <time>2015-03-01T09:00:57Z</time>
      </trkpt>
      <trkpt lat="43.77895" lon="7.25585">
        <ele>610.13</ele>
        <time>2015-03-01T09:01:48Z</time>
      </trkpt>
      <trkpt lat="43.77896" lon="7.25585">
        <ele>610.48</ele>
        <time>2015-03-01T09:01:50Z</time>
      </trkpt>
      <trkpt lat="43.77895" lon="7.25589">
        <ele>611.75</ele>
        <time>2015-03-01T09:01:58Z</time>
      </trkpt>
      <trkpt lat="43.77894" lon="7.25595">
        <ele>612.58</ele>
        <time>2015-03-01T09:02:03Z</time>
      </trkpt>
      <trkpt lat="43.77886" lon="7.25596">
        <ele>614.01</ele>
        <time>2015-03-01T09:02:13Z</time>
      </trkpt>
      <trkpt lat="43.77876" lon="7.25592">
        <ele>616.23</ele>
        <time>2015-03-01T09:02:27Z</time>
      </trkpt>
      <trkpt lat="43.77871" lon="7.25597">
        <ele>618.87</ele>
        <time>2015-03-01T09:02:37Z</time>
      </trkpt>
      <trkpt lat="43.77868" lon="7.25605">
        <ele>620.48</ele>
        <time>2015-03-01T09:02:48Z</time>
      </trkpt>
      <trkpt lat="43.77868" lon="7.25614">
        <ele>622.52</ele>
        <time>2015-03-01T09:03:00Z</time>
      </trkpt>
      <trkpt lat="43.77867" lon="7.25615">
        <ele>622.65</ele>
        <time>2015-03-01T09:03:01Z</time>
      </trkpt>
      <trkpt lat="43.77866" lon="7.25626">
        <ele>623.85</ele>
        <time>2015-03-01T09:03:14Z</time>
      </trkpt>
      <trkpt lat="43.77872" lon="7.25629">
        <ele>624.59</ele>
        <time>2015-03-01T09:03:18Z</time>
      </trkpt>
      <trkpt lat="43.77863" lon="7.2563">
        <ele>626.72</ele>
        <time>2015-03-01T09:03:26Z</time>
      </trkpt>
      <trkpt lat="43.77855" lon="7.25629">
        <ele>628.9</ele>
        <time>2015-03-01T09:03:38Z</time>
      </trkpt>
      <trkpt lat="43.77852" lon="7.25623">
        <ele>629.31</ele>
        <time>2015-03-01T09:03:44Z</time>
      </trkpt>
      <trkpt lat="43.77849" lon="7.25621">
        <ele>631.56</ele>
        <time>2015-03-01T09:03:57Z</time>
      </trkpt>
      <trkpt lat="43.77822" lon="7.25629">
        <ele>642.82</ele>
        <time>2015-03-01T09:05:11Z</time>
      </trkpt>
      <trkpt lat="43.77817" lon="7.2563">
        <ele>643.59</ele>
        <time>2015-03-01T09:05:21Z</time>
      </trkpt>
      <trkpt lat="43.77813" lon="7.25628">
        <ele>643.54</ele>
        <time>2015-03-01T09:05:27Z</time>
      </trkpt>
      <trkpt lat="43.77811" lon="7.25621">
        <ele>644.16</ele>
        <time>2015-03-01T09:05:37Z</time>
      </trkpt>
      <trkpt lat="43.77811" lon="7.2562">
        <ele>644.93</ele>
        <time>2015-03-01T09:05:39Z</time>
      </trkpt>
      <trkpt lat="43.77805" lon="7.25615">
        <ele>646.25</ele>
        <time>2015-03-01T09:05:44Z</time>
      </trkpt>
      <trkpt lat="43.77804" lon="7.25612">
        <ele>646.82</ele>
        <time>2015-03-01T09:05:47Z</time>
      </trkpt>
      <trkpt lat="43.77807" lon="7.25607">
        <ele>647.91</ele>
        <time>2015-03-01T09:05:54Z</time>
      </trkpt>
      <trkpt lat="43.77804" lon="7.25614">
        <ele>648.77</ele>
        <time>2015-03-01T09:06:04Z</time>
      </trkpt>
      <trkpt lat="43.77805" lon="7.25615">
        <ele>649.34</ele>
        <time>2015-03-01T09:06:07Z</time>
      </trkpt>
      <trkpt lat="43.77799" lon="7.25619">
        <ele>650.74</ele>
        <time>2015-03-01T09:06:17Z</time>
      </trkpt>
      <trkpt lat="43.77795" lon="7.25629">
        <ele>652.6</ele>
        <time>2015-03-01T09:06:30Z</time>
      </trkpt>
      <trkpt lat="43.77791" lon="7.25632">
        <ele>653.89</ele>
        <time>2015-03-01T09:06:37Z</time>
      </trkpt>
      <trkpt lat="43.77784" lon="7.25623">
        <ele>656.51</ele>
        <time>2015-03-01T09:06:52Z</time>
      </trkpt>
      <trkpt lat="43.77783" lon="7.25625">
        <ele>656.98</ele>
        <time>2015-03-01T09:06:55Z</time>
      </trkpt>
      <trkpt lat="43.77776" lon="7.25632">
        <ele>658.92</ele>
        <time>2015-03-01T09:07:06Z</time>
      </trkpt>
      <trkpt lat="43.77768" lon="7.25649">
        <ele>664.9</ele>
        <time>2015-03-01T09:07:41Z</time>
      </trkpt>
      <trkpt lat="43.77759" lon="7.25655">
        <ele>667</ele>
        <time>2015-03-01T09:07:53Z</time>
      </trkpt>
      <trkpt lat="43.77758" lon="7.25656">
        <ele>667.61</ele>
        <time>2015-03-01T09:07:57Z</time>
      </trkpt>
      <trkpt lat="43.7773" lon="7.25715">
        <ele>678.54</ele>
        <time>2015-03-01T09:09:26Z</time>
      </trkpt>
      <trkpt lat="43.77729" lon="7.25721">
        <ele>679.34</ele>
        <time>2015-03-01T09:09:29Z</time>
      </trkpt>
      <trkpt lat="43.77725" lon="7.25744">
        <ele>682.62</ele>
        <time>2015-03-01T09:09:39Z</time>
      </trkpt>
      <trkpt lat="43.77726" lon="7.25751">
        <ele>683.56</ele>
        <time>2015-03-01T09:09:42Z</time>
      </trkpt>
      <trkpt lat="43.77725" lon="7.25759">
        <ele>684.24</ele>
        <time>2015-03-01T09:09:46Z</time>
      </trkpt>
      <trkpt lat="43.77722" lon="7.25779">
        <ele>686.19</ele>
        <time>2015-03-01T09:09:57Z</time>
      </trkpt>
      <trkpt lat="43.77716" lon="7.25794">
        <ele>688.47</ele>
        <time>2015-03-01T09:10:07Z</time>
      </trkpt>
      <trkpt lat="43.77708" lon="7.25809">
        <ele>690.17</ele>
        <time>2015-03-01T09:10:17Z</time>
      </trkpt>
      <trkpt lat="43.77707" lon="7.25814">
        <ele>690.81</ele>
        <time>2015-03-01T09:10:20Z</time>
      </trkpt>
      <trkpt lat="43.77704" lon="7.25822">
        <ele>691.35</ele>
        <time>2015-03-01T09:10:26Z</time>
      </trkpt>
      <trkpt lat="43.77695" lon="7.25834">
        <ele>692.6</ele>
        <time>2015-03-01T09:10:36Z</time>
      </trkpt>
      <trkpt lat="43.7768" lon="7.25848">
        <ele>694.99</ele>
        <time>2015-03-01T09:10:50Z</time>
      </trkpt>
      <trkpt lat="43.77669" lon="7.25865">
        <ele>697.05</ele>
        <time>2015-03-01T09:11:04Z</time>
      </trkpt>
      <trkpt lat="43.7766" lon="7.25879">
        <ele>700.17</ele>
        <time>2015-03-01T09:11:17Z</time>
      </trkpt>
      <trkpt lat="43.77658" lon="7.25882">
        <ele>700.67</ele>
        <time>2015-03-01T09:11:19Z</time>
      </trkpt>
      <trkpt lat="43.77654" lon="7.25887">
        <ele>701.64</ele>
        <time>2015-03-01T09:11:23Z</time>
      </trkpt>
      <trkpt lat="43.77643" lon="7.25903">
        <ele>704.47</ele>
        <time>2015-03-01T09:11:36Z</time>
      </trkpt>
      <trkpt lat="43.77635" lon="7.25918">
        <ele>707.14</ele>
        <time>2015-03-01T09:11:49Z</time>
      </trkpt>
      <trkpt lat="43.77623" lon="7.25934">
        <ele>710.05</ele>
        <time>2015-03-01T09:12:03Z</time>
      </trkpt>
      <trkpt lat="43.77619" lon="7.25937">
        <ele>710.87</ele>
        <time>2015-03-01T09:12:07Z</time>
      </trkpt>
      <trkpt lat="43.77607" lon="7.25949">
        <ele>713.7</ele>
        <time>2015-03-01T09:12:20Z</time>
      </trkpt>
      <trkpt lat="43.77597" lon="7.25966">
        <ele>716.84</ele>
        <time>2015-03-01T09:12:33Z</time>
      </trkpt>
      <trkpt lat="43.77594" lon="7.25967">
        <ele>717.47</ele>
        <time>2015-03-01T09:12:35Z</time>
      </trkpt>
      <trkpt lat="43.77591" lon="7.25969">
        <ele>718.11</ele>
        <time>2015-03-01T09:12:38Z</time>
      </trkpt>
      <trkpt lat="43.77587" lon="7.25975">
        <ele>719.06</ele>
        <time>2015-03-01T09:12:43Z</time>
      </trkpt>
      <trkpt lat="43.77582" lon="7.25979">
        <ele>720.18</ele>
        <time>2015-03-01T09:12:48Z</time>
      </trkpt>
      <trkpt lat="43.7757" lon="7.25993">
        <ele>722.26</ele>
        <time>2015-03-01T09:13:00Z</time>
      </trkpt>
      <trkpt lat="43.77552" lon="7.26007">
        <ele>723.52</ele>
        <time>2015-03-01T09:13:14Z</time>
      </trkpt>
      <trkpt lat="43.77536" lon="7.26025">
        <ele>726.53</ele>
        <time>2015-03-01T09:13:28Z</time>
      </trkpt>
      <trkpt lat="43.77535" lon="7.2603">
        <ele>726.87</ele>
        <time>2015-03-01T09:13:30Z</time>
      </trkpt>
      <trkpt lat="43.77529" lon="7.26033">
        <ele>727.41</ele>
        <time>2015-03-01T09:13:34Z</time>
      </trkpt>
      <trkpt lat="43.7752" lon="7.26061">
        <ele>728.85</ele>
        <time>2015-03-01T09:13:48Z</time>
      </trkpt>
      <trkpt lat="43.77518" lon="7.26074">
        <ele>728.63</ele>
        <time>2015-03-01T09:13:52Z</time>
      </trkpt>
      <trkpt lat="43.77503" lon="7.26101">
        <ele>725.71</ele>
        <time>2015-03-01T09:13:57Z</time>
      </trkpt>
      <trkpt lat="43.77481" lon="7.2612">
        <ele>724.95</ele>
        <time>2015-03-01T09:14:02Z</time>
      </trkpt>
      <trkpt lat="43.77464" lon="7.26136">
        <ele>723.41</ele>
        <time>2015-03-01T09:14:06Z</time>
      </trkpt>
      <trkpt lat="43.7745" lon="7.26154">
        <ele>723.12</ele>
        <time>2015-03-01T09:14:10Z</time>
      </trkpt>
      <trkpt lat="43.77403" lon="7.26191">
        <ele>724.02</ele>
        <time>2015-03-01T09:14:24Z</time>
      </trkpt>
      <trkpt lat="43.77376" lon="7.26223">
        <ele>724.23</ele>
        <time>2015-03-01T09:14:35Z</time>
      </trkpt>
      <trkpt lat="43.7736" lon="7.26239">
        <ele>723.49</ele>
        <time>2015-03-01T09:14:41Z</time>
      </trkpt>
      <trkpt lat="43.77337" lon="7.26253">
        <ele>721.76</ele>
        <time>2015-03-01T09:14:46Z</time>
      </trkpt>
      <trkpt lat="43.77313" lon="7.26267">
        <ele>721.63</ele>
        <time>2015-03-01T09:14:51Z</time>
      </trkpt>
      <trkpt lat="43.77291" lon="7.26283">
        <ele>721.05</ele>
        <time>2015-03-01T09:14:56Z</time>
      </trkpt>
      <trkpt lat="43.77278" lon="7.26289">
        <ele>720.95</ele>
        <time>2015-03-01T09:14:59Z</time>
      </trkpt>
      <trkpt lat="43.77214" lon="7.26296">
        <ele>719.62</ele>
        <time>2015-03-01T09:15:13Z</time>
      </trkpt>
      <trkpt lat="43.77197" lon="7.2628">
        <ele>719.37</ele>
        <time>2015-03-01T09:15:18Z</time>
      </trkpt>
      <trkpt lat="43.77195" lon="7.26243">
        <ele>719.01</ele>
        <time>2015-03-01T09:15:30Z</time>
      </trkpt>
      <trkpt lat="43.77198" lon="7.26213">
        <ele>717.06</ele>
        <time>2015-03-01T09:15:42Z</time>
      </trkpt>
      <trkpt lat="43.77203" lon="7.26167">
        <ele>714.06</ele>
        <time>2015-03-01T09:15:50Z</time>
      </trkpt>
      <trkpt lat="43.77207" lon="7.26127">
        <ele>710.91</ele>
        <time>2015-03-01T09:15:54Z</time>
      </trkpt>
      <trkpt lat="43.77215" lon="7.2607">
        <ele>707.85</ele>
        <time>2015-03-01T09:16:01Z</time>
      </trkpt>
      <trkpt lat="43.77236" lon="7.26021">
        <ele>708.2</ele>
        <time>2015-03-01T09:16:12Z</time>
      </trkpt>
      <trkpt lat="43.77246" lon="7.25988">
        <ele>711.23</ele>
        <time>2015-03-01T09:16:22Z</time>
      </trkpt>
      <trkpt lat="43.7723" lon="7.25956">
        <ele>713.51</ele>
        <time>2015-03-01T09:16:35Z</time>
      </trkpt>
      <trkpt lat="43.77227" lon="7.25953">
        <ele>713.84</ele>
        <time>2015-03-01T09:16:38Z</time>
      </trkpt>
      <trkpt lat="43.77192" lon="7.25934">
        <ele>714.78</ele>
        <time>2015-03-01T09:16:52Z</time>
      </trkpt>
      <trkpt lat="43.77157" lon="7.25913">
        <ele>717.51</ele>
        <time>2015-03-01T09:17:06Z</time>
      </trkpt>
      <trkpt lat="43.77122" lon="7.25916">
        <ele>719.82</ele>
        <time>2015-03-01T09:17:21Z</time>
      </trkpt>
      <trkpt lat="43.77086" lon="7.25922">
        <ele>722.89</ele>
        <time>2015-03-01T09:17:36Z</time>
      </trkpt>
      <trkpt lat="43.77045" lon="7.25931">
        <ele>725.13</ele>
        <time>2015-03-01T09:17:53Z</time>
      </trkpt>
      <trkpt lat="43.77005" lon="7.25927">
        <ele>727.27</ele>
        <time>2015-03-01T09:18:08Z</time>
      </trkpt>
      <trkpt lat="43.76977" lon="7.259">
        <ele>729.82</ele>
        <time>2015-03-01T09:18:22Z</time>
      </trkpt>
      <trkpt lat="43.76963" lon="7.25859">
        <ele>732.12</ele>
        <time>2015-03-01T09:18:36Z</time>
      </trkpt>
      <trkpt lat="43.76937" lon="7.25827">
        <ele>735.26</ele>
        <time>2015-03-01T09:18:51Z</time>
      </trkpt>
      <trkpt lat="43.76919" lon="7.25795">
        <ele>738.18</ele>
        <time>2015-03-01T09:19:06Z</time>
      </trkpt>
      <trkpt lat="43.76906" lon="7.25769">
        <ele>740.78</ele>
        <time>2015-03-01T09:19:20Z</time>
      </trkpt>
      <trkpt lat="43.76885" lon="7.25739">
        <ele>743.91</ele>
        <time>2015-03-01T09:19:37Z</time>
      </trkpt>
      <trkpt lat="43.76871" lon="7.25705">
        <ele>747.02</ele>
        <time>2015-03-01T09:19:53Z</time>
      </trkpt>
      <trkpt lat="43.76861" lon="7.25675">
        <ele>749.82</ele>
        <time>2015-03-01T09:20:08Z</time>
      </trkpt>
      <trkpt lat="43.76852" lon="7.25645">
        <ele>752.88</ele>
        <time>2015-03-01T09:20:22Z</time>
      </trkpt>
      <trkpt lat="43.76843" lon="7.25606">
        <ele>756.13</ele>
        <time>2015-03-01T09:20:39Z</time>
      </trkpt>
      <trkpt lat="43.76844" lon="7.25572">
        <ele>758.91</ele>
        <time>2015-03-01T09:20:53Z</time>
      </trkpt>
      <trkpt lat="43.76851" lon="7.25544">
        <ele>761.67</ele>
        <time>2015-03-01T09:21:06Z</time>
      </trkpt>
      <trkpt lat="43.76855" lon="7.2553">
        <ele>763.05</ele>
        <time>2015-03-01T09:21:12Z</time>
      </trkpt>
      <trkpt lat="43.7686" lon="7.25542">
        <ele>764.32</ele>
        <time>2015-03-01T09:21:20Z</time>
      </trkpt>
      <trkpt lat="43.76859" lon="7.25547">
        <ele>764.44</ele>
        <time>2015-03-01T09:21:22Z</time>
      </trkpt>
      <trkpt lat="43.76856" lon="7.25579">
        <ele>766.94</ele>
        <time>2015-03-01T09:21:37Z</time>
      </trkpt>
      <trkpt lat="43.76869" lon="7.2561">
        <ele>769.95</ele>
        <time>2015-03-01T09:21:52Z</time>
      </trkpt>
      <trkpt lat="43.76888" lon="7.25635">
        <ele>772.81</ele>
        <time>2015-03-01T09:22:07Z</time>
      </trkpt>
      <trkpt lat="43.76908" lon="7.25661">
        <ele>775.89</ele>
        <time>2015-03-01T09:22:23Z</time>
      </trkpt>
      <trkpt lat="43.76923" lon="7.25685">
        <ele>778.93</ele>
        <time>2015-03-01T09:22:36Z</time>
      </trkpt>
      <trkpt lat="43.76934" lon="7.25704">
        <ele>780.71</ele>
        <time>2015-03-01T09:22:45Z</time>
      </trkpt>
      <trkpt lat="43.76939" lon="7.25698">
        <ele>781.43</ele>
        <time>2015-03-01T09:22:51Z</time>
      </trkpt>
      <trkpt lat="43.76928" lon="7.25667">
        <ele>783.86</ele>
        <time>2015-03-01T09:23:06Z</time>
      </trkpt>
      <trkpt lat="43.76916" lon="7.25634">
        <ele>786.72</ele>
        <time>2015-03-01T09:23:21Z</time>
      </trkpt>
      <trkpt lat="43.76903" lon="7.25602">
        <ele>789.46</ele>
        <time>2015-03-01T09:23:35Z</time>
      </trkpt>
      <trkpt lat="43.76895" lon="7.25576">
        <ele>791.62</ele>
        <time>2015-03-01T09:23:46Z</time>
      </trkpt>
      <trkpt lat="43.76904" lon="7.25578">
        <ele>792.54</ele>
        <time>2015-03-01T09:23:54Z</time>
      </trkpt>
      <trkpt lat="43.7692" lon="7.25602">
        <ele>794.79</ele>
        <time>2015-03-01T09:24:07Z</time>
      </trkpt>
      <trkpt lat="43.76943" lon="7.25627">
        <ele>797.81</ele>
        <time>2015-03-01T09:24:23Z</time>
      </trkpt>
      <trkpt lat="43.7696" lon="7.25652">
        <ele>800.42</ele>
        <time>2015-03-01T09:24:37Z</time>
      </trkpt>
      <trkpt lat="43.76969" lon="7.2567">
        <ele>802.31</ele>
        <time>2015-03-01T09:24:47Z</time>
      </trkpt>
      <trkpt lat="43.7697" lon="7.25663">
        <ele>803.35</ele>
        <time>2015-03-01T09:24:56Z</time>
      </trkpt>
      <trkpt lat="43.76955" lon="7.25626">
        <ele>806.11</ele>
        <time>2015-03-01T09:25:13Z</time>
      </trkpt>
      <trkpt lat="43.76943" lon="7.25595">
        <ele>808.3</ele>
        <time>2015-03-01T09:25:27Z</time>
      </trkpt>
      <trkpt lat="43.76933" lon="7.25557">
        <ele>810.71</ele>
        <time>2015-03-01T09:25:42Z</time>
      </trkpt>
      <trkpt lat="43.76944" lon="7.25568">
        <ele>811.59</ele>
        <time>2015-03-01T09:25:50Z</time>
      </trkpt>
      <trkpt lat="43.76965" lon="7.25594">
        <ele>814.82</ele>
        <time>2015-03-01T09:26:05Z</time>
      </trkpt>
      <trkpt lat="43.76985" lon="7.25623">
        <ele>817.74</ele>
        <time>2015-03-01T09:26:21Z</time>
      </trkpt>
      <trkpt lat="43.76989" lon="7.2563">
        <ele>818.45</ele>
        <time>2015-03-01T09:26:25Z</time>
      </trkpt>
      <trkpt lat="43.76985" lon="7.25616">
        <ele>819.8</ele>
        <time>2015-03-01T09:26:35Z</time>
      </trkpt>
      <trkpt lat="43.76969" lon="7.25581">
        <ele>822.7</ele>
        <time>2015-03-01T09:26:51Z</time>
      </trkpt>
      <trkpt lat="43.76962" lon="7.25544">
        <ele>825.61</ele>
        <time>2015-03-01T09:27:07Z</time>
      </trkpt>
      <trkpt lat="43.76965" lon="7.255">
        <ele>826.86</ele>
        <time>2015-03-01T09:27:21Z</time>
      </trkpt>
      <trkpt lat="43.76982" lon="7.25442">
        <ele>829.7</ele>
        <time>2015-03-01T09:27:41Z</time>
      </trkpt>
      <trkpt lat="43.76998" lon="7.25415">
        <ele>832.86</ele>
        <time>2015-03-01T09:27:56Z</time>
      </trkpt>
      <trkpt lat="43.7702" lon="7.25381">
        <ele>836.05</ele>
        <time>2015-03-01T09:28:13Z</time>
      </trkpt>
      <trkpt lat="43.77023" lon="7.25378">
        <ele>836.56</ele>
        <time>2015-03-01T09:28:15Z</time>
      </trkpt>
      <trkpt lat="43.77023" lon="7.25385">
        <ele>837.25</ele>
        <time>2015-03-01T09:28:20Z</time>
      </trkpt>
      <trkpt lat="43.77005" lon="7.25421">
        <ele>839.67</ele>
        <time>2015-03-01T09:28:36Z</time>
      </trkpt>
      <trkpt lat="43.76989" lon="7.25459">
        <ele>842.54</ele>
        <time>2015-03-01T09:28:53Z</time>
      </trkpt>
      <trkpt lat="43.76987" lon="7.25491">
        <ele>844.88</ele>
        <time>2015-03-01T09:29:06Z</time>
      </trkpt>
      <trkpt lat="43.76989" lon="7.25497">
        <ele>845.78</ele>
        <time>2015-03-01T09:29:15Z</time>
      </trkpt>
      <trkpt lat="43.77005" lon="7.25535">
        <ele>849.87</ele>
        <time>2015-03-01T09:30:52Z</time>
      </trkpt>
      <trkpt lat="43.77002" lon="7.25553">
        <ele>846.19</ele>
        <time>2015-03-01T09:30:56Z</time>
      </trkpt>
      <trkpt lat="43.77" lon="7.25569">
        <ele>841.68</ele>
        <time>2015-03-01T09:30:59Z</time>
      </trkpt>
      <trkpt lat="43.77012" lon="7.2558">
        <ele>838.53</ele>
        <time>2015-03-01T09:31:03Z</time>
      </trkpt>
      <trkpt lat="43.77028" lon="7.25576">
        <ele>835.77</ele>
        <time>2015-03-01T09:31:06Z</time>
      </trkpt>
      <trkpt lat="43.77054" lon="7.25566">
        <ele>835.2</ele>
        <time>2015-03-01T09:31:11Z</time>
      </trkpt>
      <trkpt lat="43.77077" lon="7.25567">
        <ele>831.55</ele>
        <time>2015-03-01T09:31:15Z</time>
      </trkpt>
      <trkpt lat="43.77093" lon="7.25568">
        <ele>829.9</ele>
        <time>2015-03-01T09:31:17Z</time>
      </trkpt>
      <trkpt lat="43.77116" lon="7.25564">
        <ele>825.91</ele>
        <time>2015-03-01T09:31:20Z</time>
      </trkpt>
      <trkpt lat="43.77126" lon="7.25559">
        <ele>825.26</ele>
        <time>2015-03-01T09:31:22Z</time>
      </trkpt>
      <trkpt lat="43.7713" lon="7.25556">
        <ele>825.52</ele>
        <time>2015-03-01T09:31:23Z</time>
      </trkpt>
      <trkpt lat="43.77148" lon="7.25552">
        <ele>824.75</ele>
        <time>2015-03-01T09:31:27Z</time>
      </trkpt>
      <trkpt lat="43.77185" lon="7.25541">
        <ele>823.14</ele>
        <time>2015-03-01T09:31:36Z</time>
      </trkpt>
      <trkpt lat="43.7719" lon="7.2554">
        <ele>821.65</ele>
        <time>2015-03-01T09:31:38Z</time>
      </trkpt>
      <trkpt lat="43.77213" lon="7.25534">
        <ele>819.74</ele>
        <time>2015-03-01T09:31:50Z</time>
      </trkpt>
      <trkpt lat="43.77215" lon="7.25525">
        <ele>820.79</ele>
        <time>2015-03-01T09:32:05Z</time>
      </trkpt>
      <trkpt lat="43.77219" lon="7.25518">
        <ele>821.56</ele>
        <time>2015-03-01T09:32:13Z</time>
      </trkpt>
      <trkpt lat="43.77228" lon="7.25498">
        <ele>824.74</ele>
        <time>2015-03-01T09:32:32Z</time>
      </trkpt>
      <trkpt lat="43.77237" lon="7.25474">
        <ele>827.85</ele>
        <time>2015-03-01T09:32:53Z</time>
      </trkpt>
      <trkpt lat="43.77236" lon="7.25471">
        <ele>828.49</ele>
        <time>2015-03-01T09:32:57Z</time>
      </trkpt>
      <trkpt lat="43.77233" lon="7.25459">
        <ele>831.9</ele>
        <time>2015-03-01T09:33:13Z</time>
      </trkpt>
      <trkpt lat="43.77234" lon="7.25456">
        <ele>832.71</ele>
        <time>2015-03-01T09:33:20Z</time>
      </trkpt>
      <trkpt lat="43.77221" lon="7.25434">
        <ele>837.68</ele>
        <time>2015-03-01T09:33:55Z</time>
      </trkpt>
      <trkpt lat="43.77211" lon="7.25437">
        <ele>839.78</ele>
        <time>2015-03-01T09:34:09Z</time>
      </trkpt>
      <trkpt lat="43.77206" lon="7.25442">
        <ele>840.05</ele>
        <time>2015-03-01T09:34:15Z</time>
      </trkpt>
      <trkpt lat="43.77191" lon="7.2545">
        <ele>841.85</ele>
        <time>2015-03-01T09:34:38Z</time>
      </trkpt>
      <trkpt lat="43.77191" lon="7.25452">
        <ele>842.66</ele>
        <time>2015-03-01T09:34:43Z</time>
      </trkpt>
      <trkpt lat="43.77192" lon="7.25455">
        <ele>840.88</ele>
        <time>2015-03-01T09:37:39Z</time>
      </trkpt>
      <trkpt lat="43.772" lon="7.25449">
        <ele>839.15</ele>
        <time>2015-03-01T09:37:50Z</time>
      </trkpt>
      <trkpt lat="43.772" lon="7.2544">
        <ele>838.9</ele>
        <time>2015-03-01T09:38:00Z</time>
      </trkpt>
      <trkpt lat="43.77202" lon="7.2545">
        <ele>838.28</ele>
        <time>2015-03-01T09:38:31Z</time>
      </trkpt>
      <trkpt lat="43.77191" lon="7.25454">
        <ele>839.9</ele>
        <time>2015-03-01T09:38:49Z</time>
      </trkpt>
      <trkpt lat="43.7719" lon="7.25456">
        <ele>839.95</ele>
        <time>2015-03-01T09:38:52Z</time>
      </trkpt>
      <trkpt lat="43.77184" lon="7.25443">
        <ele>840.8</ele>
        <time>2015-03-01T09:40:02Z</time>
      </trkpt>
      <trkpt lat="43.77179" lon="7.25414">
        <ele>841.61</ele>
        <time>2015-03-01T09:40:24Z</time>
      </trkpt>
      <trkpt lat="43.77176" lon="7.25405">
        <ele>840.53</ele>
        <time>2015-03-01T09:40:39Z</time>
      </trkpt>
      <trkpt lat="43.77183" lon="7.2542">
        <ele>841.86</ele>
        <time>2015-03-01T09:41:01Z</time>
      </trkpt>
      <trkpt lat="43.77187" lon="7.25449">
        <ele>841.11</ele>
        <time>2015-03-01T09:41:22Z</time>
      </trkpt>
      <trkpt lat="43.77191" lon="7.25458">
        <ele>840.14</ele>
        <time>2015-03-01T09:41:34Z</time>
      </trkpt>
      <trkpt lat="43.77187" lon="7.25458">
        <ele>840.57</ele>
        <time>2015-03-01T09:42:26Z</time>
      </trkpt>
      <trkpt lat="43.77183" lon="7.25456">
        <ele>841.42</ele>
        <time>2015-03-01T09:42:35Z</time>
      </trkpt>
      <trkpt lat="43.77173" lon="7.25482">
        <ele>843.34</ele>
        <time>2015-03-01T10:01:31Z</time>
      </trkpt>
      <trkpt lat="43.77173" lon="7.25482">
        <ele>843.28</ele>
        <time>2015-03-01T10:01:34Z</time>
      </trkpt>
      <trkpt lat="43.77175" lon="7.2546">
        <ele>844.21</ele>
        <time>2015-03-01T10:02:39Z</time>
      </trkpt>
      <trkpt lat="43.77174" lon="7.25444">
        <ele>845.12</ele>
        <time>2015-03-01T10:02:41Z</time>
      </trkpt>
      <trkpt lat="43.77175" lon="7.25427">
        <ele>844.3</ele>
        <time>2015-03-01T10:02:43Z</time>
      </trkpt>
      <trkpt lat="43.77173" lon="7.25404">
        <ele>843.97</ele>
        <time>2015-03-01T10:02:46Z</time>
      </trkpt>
      <trkpt lat="43.77182" lon="7.25379">
        <ele>838.89</ele>
        <time>2015-03-01T10:02:50Z</time>
      </trkpt>
      <trkpt lat="43.77194" lon="7.25365">
        <ele>832.97</ele>
        <time>2015-03-01T10:02:54Z</time>
      </trkpt>
      <trkpt lat="43.77201" lon="7.25357">
        <ele>829.8</ele>
        <time>2015-03-01T10:02:59Z</time>
      </trkpt>
      <trkpt lat="43.77201" lon="7.25356">
        <ele>829.45</ele>
        <time>2015-03-01T10:03:00Z</time>
      </trkpt>
      <trkpt lat="43.77202" lon="7.2534">
        <ele>826.06</ele>
        <time>2015-03-01T10:03:05Z</time>
      </trkpt>
      <trkpt lat="43.77203" lon="7.25336">
        <ele>823.79</ele>
        <time>2015-03-01T10:03:07Z</time>
      </trkpt>
      <trkpt lat="43.77189" lon="7.25318">
        <ele>820.2</ele>
        <time>2015-03-01T10:03:15Z</time>
      </trkpt>
      <trkpt lat="43.77195" lon="7.2531">
        <ele>816.33</ele>
        <time>2015-03-01T10:03:20Z</time>
      </trkpt>
      <trkpt lat="43.77197" lon="7.253">
        <ele>813.33</ele>
        <time>2015-03-01T10:03:24Z</time>
      </trkpt>
      <trkpt lat="43.77207" lon="7.25299">
        <ele>810.23</ele>
        <time>2015-03-01T10:03:28Z</time>
      </trkpt>
      <trkpt lat="43.7721" lon="7.25297">
        <ele>809.28</ele>
        <time>2015-03-01T10:03:29Z</time>
      </trkpt>
      <trkpt lat="43.77227" lon="7.25296">
        <ele>804.63</ele>
        <time>2015-03-01T10:03:34Z</time>
      </trkpt>
      <trkpt lat="43.77238" lon="7.25291">
        <ele>801.24</ele>
        <time>2015-03-01T10:03:37Z</time>
      </trkpt>
      <trkpt lat="43.7724" lon="7.25289">
        <ele>800.04</ele>
        <time>2015-03-01T10:03:38Z</time>
      </trkpt>
      <trkpt lat="43.77252" lon="7.25281">
        <ele>796.03</ele>
        <time>2015-03-01T10:03:42Z</time>
      </trkpt>
      <trkpt lat="43.77254" lon="7.2528">
        <ele>795.21</ele>
        <time>2015-03-01T10:03:43Z</time>
      </trkpt>
      <trkpt lat="43.77255" lon="7.25276">
        <ele>794.27</ele>
        <time>2015-03-01T10:03:45Z</time>
      </trkpt>
      <trkpt lat="43.77254" lon="7.25262">
        <ele>790.38</ele>
        <time>2015-03-01T10:03:50Z</time>
      </trkpt>
      <trkpt lat="43.7725" lon="7.25255">
        <ele>786.86</ele>
        <time>2015-03-01T10:03:54Z</time>
      </trkpt>
      <trkpt lat="43.7725" lon="7.25247">
        <ele>783.68</ele>
        <time>2015-03-01T10:03:58Z</time>
      </trkpt>
      <trkpt lat="43.77254" lon="7.25239">
        <ele>780.2</ele>
        <time>2015-03-01T10:04:03Z</time>
      </trkpt>
      <trkpt lat="43.77251" lon="7.2523">
        <ele>776.98</ele>
        <time>2015-03-01T10:04:07Z</time>
      </trkpt>
      <trkpt lat="43.77244" lon="7.25225">
        <ele>775.17</ele>
        <time>2015-03-01T10:04:09Z</time>
      </trkpt>
      <trkpt lat="43.77244" lon="7.25213">
        <ele>770.47</ele>
        <time>2015-03-01T10:04:16Z</time>
      </trkpt>
      <trkpt lat="43.77252" lon="7.252">
        <ele>766.97</ele>
        <time>2015-03-01T10:04:21Z</time>
      </trkpt>
      <trkpt lat="43.77257" lon="7.25192">
        <ele>763.44</ele>
        <time>2015-03-01T10:04:24Z</time>
      </trkpt>
      <trkpt lat="43.77252" lon="7.25183">
        <ele>759.9</ele>
        <time>2015-03-01T10:04:30Z</time>
      </trkpt>
      <trkpt lat="43.77261" lon="7.25175">
        <ele>756.43</ele>
        <time>2015-03-01T10:04:34Z</time>
      </trkpt>
      <trkpt lat="43.77269" lon="7.25165">
        <ele>752.65</ele>
        <time>2015-03-01T10:04:37Z</time>
      </trkpt>
      <trkpt lat="43.77273" lon="7.25163">
        <ele>751.43</ele>
        <time>2015-03-01T10:04:38Z</time>
      </trkpt>
      <trkpt lat="43.77281" lon="7.25159">
        <ele>749.28</ele>
        <time>2015-03-01T10:04:40Z</time>
      </trkpt>
      <trkpt lat="43.77299" lon="7.2515">
        <ele>744.5</ele>
        <time>2015-03-01T10:04:44Z</time>
      </trkpt>
      <trkpt lat="43.77308" lon="7.2514">
        <ele>739.93</ele>
        <time>2015-03-01T10:04:49Z</time>
      </trkpt>
      <trkpt lat="43.77304" lon="7.25138">
        <ele>738.63</ele>
        <time>2015-03-01T10:04:50Z</time>
      </trkpt>
      <trkpt lat="43.7729" lon="7.25128">
        <ele>734.12</ele>
        <time>2015-03-01T10:04:56Z</time>
      </trkpt>
      <trkpt lat="43.77285" lon="7.25124">
        <ele>731.73</ele>
        <time>2015-03-01T10:05:00Z</time>
      </trkpt>
      <trkpt lat="43.77268" lon="7.2512">
        <ele>729</ele>
        <time>2015-03-01T10:05:08Z</time>
      </trkpt>
      <trkpt lat="43.77243" lon="7.25111">
        <ele>726.41</ele>
        <time>2015-03-01T10:05:17Z</time>
      </trkpt>
      <trkpt lat="43.77237" lon="7.2511">
        <ele>725.12</ele>
        <time>2015-03-01T10:05:18Z</time>
      </trkpt>
      <trkpt lat="43.77207" lon="7.25103">
        <ele>720.79</ele>
        <time>2015-03-01T10:05:27Z</time>
      </trkpt>
      <trkpt lat="43.77173" lon="7.25106">
        <ele>720.7</ele>
        <time>2015-03-01T10:05:36Z</time>
      </trkpt>
      <trkpt lat="43.7716" lon="7.25099">
        <ele>719.97</ele>
        <time>2015-03-01T10:05:40Z</time>
      </trkpt>
      <trkpt lat="43.77152" lon="7.25085">
        <ele>716.47</ele>
        <time>2015-03-01T10:05:45Z</time>
      </trkpt>
      <trkpt lat="43.77141" lon="7.25081">
        <ele>714.2</ele>
        <time>2015-03-01T10:05:48Z</time>
      </trkpt>
      <trkpt lat="43.77121" lon="7.25067">
        <ele>710.82</ele>
        <time>2015-03-01T10:05:53Z</time>
      </trkpt>
      <trkpt lat="43.77095" lon="7.25067">
        <ele>708.98</ele>
        <time>2015-03-01T10:05:57Z</time>
      </trkpt>
      <trkpt lat="43.77083" lon="7.25066">
        <ele>708.43</ele>
        <time>2015-03-01T10:05:59Z</time>
      </trkpt>
      <trkpt lat="43.77054" lon="7.25068">
        <ele>709.7</ele>
        <time>2015-03-01T10:06:04Z</time>
      </trkpt>
      <trkpt lat="43.77028" lon="7.2507">
        <ele>710.71</ele>
        <time>2015-03-01T10:06:10Z</time>
      </trkpt>
      <trkpt lat="43.77013" lon="7.25048">
        <ele>709.03</ele>
        <time>2015-03-01T10:06:18Z</time>
      </trkpt>
      <trkpt lat="43.77013" lon="7.25027">
        <ele>708.23</ele>
        <time>2015-03-01T10:06:22Z</time>
      </trkpt>
      <trkpt lat="43.77029" lon="7.25003">
        <ele>702.83</ele>
        <time>2015-03-01T10:06:27Z</time>
      </trkpt>
      <trkpt lat="43.77038" lon="7.24997">
        <ele>701.39</ele>
        <time>2015-03-01T10:06:30Z</time>
      </trkpt>
      <trkpt lat="43.77037" lon="7.24976">
        <ele>697.5</ele>
        <time>2015-03-01T10:06:36Z</time>
      </trkpt>
      <trkpt lat="43.77019" lon="7.24975">
        <ele>697.12</ele>
        <time>2015-03-01T10:06:41Z</time>
      </trkpt>
      <trkpt lat="43.77014" lon="7.2498">
        <ele>697.59</ele>
        <time>2015-03-01T10:06:45Z</time>
      </trkpt>
      <trkpt lat="43.76982" lon="7.24998">
        <ele>695.66</ele>
        <time>2015-03-01T10:06:57Z</time>
      </trkpt>
      <trkpt lat="43.76977" lon="7.25">
        <ele>695.37</ele>
        <time>2015-03-01T10:06:58Z</time>
      </trkpt>
      <trkpt lat="43.76936" lon="7.25014">
        <ele>693.76</ele>
        <time>2015-03-01T10:07:08Z</time>
      </trkpt>
      <trkpt lat="43.76926" lon="7.25019">
        <ele>692.5</ele>
        <time>2015-03-01T10:07:11Z</time>
      </trkpt>
      <trkpt lat="43.76906" lon="7.25033">
        <ele>687.12</ele>
        <time>2015-03-01T10:07:15Z</time>
      </trkpt>
      <trkpt lat="43.76901" lon="7.25036">
        <ele>687.07</ele>
        <time>2015-03-01T10:07:16Z</time>
      </trkpt>
      <trkpt lat="43.76895" lon="7.25039">
        <ele>686.72</ele>
        <time>2015-03-01T10:07:17Z</time>
      </trkpt>
      <trkpt lat="43.76883" lon="7.25043">
        <ele>685.24</ele>
        <time>2015-03-01T10:07:19Z</time>
      </trkpt>
      <trkpt lat="43.7686" lon="7.25045">
        <ele>681.74</ele>
        <time>2015-03-01T10:07:22Z</time>
      </trkpt>
      <trkpt lat="43.76852" lon="7.25046">
        <ele>680.77</ele>
        <time>2015-03-01T10:07:23Z</time>
      </trkpt>
      <trkpt lat="43.76816" lon="7.25058">
        <ele>677.4</ele>
        <time>2015-03-01T10:07:28Z</time>
      </trkpt>
      <trkpt lat="43.76824" lon="7.25018">
        <ele>676.76</ele>
        <time>2015-03-01T10:07:31Z</time>
      </trkpt>
      <trkpt lat="43.76797" lon="7.25028">
        <ele>673.83</ele>
        <time>2015-03-01T10:07:39Z</time>
      </trkpt>
      <trkpt lat="43.76797" lon="7.25038">
        <ele>671.18</ele>
        <time>2015-03-01T10:07:41Z</time>
      </trkpt>
      <trkpt lat="43.76795" lon="7.25048">
        <ele>669.61</ele>
        <time>2015-03-01T10:07:43Z</time>
      </trkpt>
      <trkpt lat="43.76787" lon="7.2506">
        <ele>664.52</ele>
        <time>2015-03-01T10:07:46Z</time>
      </trkpt>
      <trkpt lat="43.76779" lon="7.25071">
        <ele>663.05</ele>
        <time>2015-03-01T10:07:48Z</time>
      </trkpt>
      <trkpt lat="43.76773" lon="7.25082">
        <ele>661.71</ele>
        <time>2015-03-01T10:07:50Z</time>
      </trkpt>
      <trkpt lat="43.76768" lon="7.25108">
        <ele>658.6</ele>
        <time>2015-03-01T10:07:54Z</time>
      </trkpt>
      <trkpt lat="43.7676" lon="7.25118">
        <ele>655.29</ele>
        <time>2015-03-01T10:07:56Z</time>
      </trkpt>
      <trkpt lat="43.76756" lon="7.25124">
        <ele>653.67</ele>
        <time>2015-03-01T10:07:57Z</time>
      </trkpt>
      <trkpt lat="43.76735" lon="7.25154">
        <ele>647.16</ele>
        <time>2015-03-01T10:08:02Z</time>
      </trkpt>
      <trkpt lat="43.76723" lon="7.25165">
        <ele>643.16</ele>
        <time>2015-03-01T10:08:04Z</time>
      </trkpt>
      <trkpt lat="43.7669" lon="7.25187">
        <ele>637.94</ele>
        <time>2015-03-01T10:08:09Z</time>
      </trkpt>
      <trkpt lat="43.76679" lon="7.25197">
        <ele>636.2</ele>
        <time>2015-03-01T10:08:11Z</time>
      </trkpt>
      <trkpt lat="43.7667" lon="7.25219">
        <ele>632.17</ele>
        <time>2015-03-01T10:08:15Z</time>
      </trkpt>
      <trkpt lat="43.76669" lon="7.25225">
        <ele>632</ele>
        <time>2015-03-01T10:08:16Z</time>
      </trkpt>
      <trkpt lat="43.76653" lon="7.25253">
        <ele>626.59</ele>
        <time>2015-03-01T10:08:21Z</time>
      </trkpt>
      <trkpt lat="43.76647" lon="7.25259">
        <ele>624.3</ele>
        <time>2015-03-01T10:08:22Z</time>
      </trkpt>
      <trkpt lat="43.7663" lon="7.25277">
        <ele>619.07</ele>
        <time>2015-03-01T10:08:25Z</time>
      </trkpt>
      <trkpt lat="43.76613" lon="7.25298">
        <ele>614.15</ele>
        <time>2015-03-01T10:08:28Z</time>
      </trkpt>
      <trkpt lat="43.76607" lon="7.25311">
        <ele>612.33</ele>
        <time>2015-03-01T10:08:30Z</time>
      </trkpt>
      <trkpt lat="43.76614" lon="7.25333">
        <ele>607.42</ele>
        <time>2015-03-01T10:08:36Z</time>
      </trkpt>
      <trkpt lat="43.76627" lon="7.25327">
        <ele>604.28</ele>
        <time>2015-03-01T10:08:39Z</time>
      </trkpt>
      <trkpt lat="43.76643" lon="7.25327">
        <ele>601.88</ele>
        <time>2015-03-01T10:08:42Z</time>
      </trkpt>
      <trkpt lat="43.76651" lon="7.2533">
        <ele>600.37</ele>
        <time>2015-03-01T10:08:44Z</time>
      </trkpt>
      <trkpt lat="43.7667" lon="7.25342">
        <ele>597.04</ele>
        <time>2015-03-01T10:08:49Z</time>
      </trkpt>
      <trkpt lat="43.76679" lon="7.25346">
        <ele>594.13</ele>
        <time>2015-03-01T10:08:54Z</time>
      </trkpt>
      <trkpt lat="43.76679" lon="7.25346">
        <ele>593.93</ele>
        <time>2015-03-01T10:08:55Z</time>
      </trkpt>
      <trkpt lat="43.76679" lon="7.25361">
        <ele>592.86</ele>
        <time>2015-03-01T10:08:59Z</time>
      </trkpt>
      <trkpt lat="43.76675" lon="7.25382">
        <ele>591.4</ele>
        <time>2015-03-01T10:09:03Z</time>
      </trkpt>
      <trkpt lat="43.76673" lon="7.25401">
        <ele>590.05</ele>
        <time>2015-03-01T10:09:06Z</time>
      </trkpt>
      <trkpt lat="43.76671" lon="7.25435">
        <ele>590.56</ele>
        <time>2015-03-01T10:09:11Z</time>
      </trkpt>
      <trkpt lat="43.76668" lon="7.25466">
        <ele>583.3</ele>
        <time>2015-03-01T10:09:15Z</time>
      </trkpt>
      <trkpt lat="43.76669" lon="7.25472">
        <ele>583.06</ele>
        <time>2015-03-01T10:09:16Z</time>
      </trkpt>
      <trkpt lat="43.76669" lon="7.25476">
        <ele>583.47</ele>
        <time>2015-03-01T10:09:19Z</time>
      </trkpt>
      <trkpt lat="43.76656" lon="7.25483">
        <ele>580.17</ele>
        <time>2015-03-01T10:09:25Z</time>
      </trkpt>
      <trkpt lat="43.76652" lon="7.25487">
        <ele>579.27</ele>
        <time>2015-03-01T10:09:26Z</time>
      </trkpt>
      <trkpt lat="43.76642" lon="7.25475">
        <ele>576.52</ele>
        <time>2015-03-01T10:09:30Z</time>
      </trkpt>
      <trkpt lat="43.76632" lon="7.25457">
        <ele>575.22</ele>
        <time>2015-03-01T10:09:35Z</time>
      </trkpt>
      <trkpt lat="43.76616" lon="7.25471">
        <ele>571.16</ele>
        <time>2015-03-01T10:09:40Z</time>
      </trkpt>
      <trkpt lat="43.76612" lon="7.25495">
        <ele>567.33</ele>
        <time>2015-03-01T10:09:45Z</time>
      </trkpt>
      <trkpt lat="43.76608" lon="7.25508">
        <ele>563.53</ele>
        <time>2015-03-01T10:09:48Z</time>
      </trkpt>
      <trkpt lat="43.76607" lon="7.2553">
        <ele>558.96</ele>
        <time>2015-03-01T10:09:53Z</time>
      </trkpt>
      <trkpt lat="43.76606" lon="7.25538">
        <ele>557.37</ele>
        <time>2015-03-01T10:09:55Z</time>
      </trkpt>
      <trkpt lat="43.76597" lon="7.2555">
        <ele>553.33</ele>
        <time>2015-03-01T10:09:59Z</time>
      </trkpt>
      <trkpt lat="43.76597" lon="7.25555">
        <ele>552.06</ele>
        <time>2015-03-01T10:10:01Z</time>
      </trkpt>
      <trkpt lat="43.76599" lon="7.25565">
        <ele>550.35</ele>
        <time>2015-03-01T10:10:04Z</time>
      </trkpt>
      <trkpt lat="43.76592" lon="7.25562">
        <ele>548.38</ele>
        <time>2015-03-01T10:10:07Z</time>
      </trkpt>
      <trkpt lat="43.76585" lon="7.25565">
        <ele>547.22</ele>
        <time>2015-03-01T10:10:14Z</time>
      </trkpt>
      <trkpt lat="43.76569" lon="7.25585">
        <ele>543.19</ele>
        <time>2015-03-01T10:10:21Z</time>
      </trkpt>
      <trkpt lat="43.76567" lon="7.25589">
        <ele>542.37</ele>
        <time>2015-03-01T10:10:22Z</time>
      </trkpt>
      <trkpt lat="43.76548" lon="7.25598">
        <ele>538.99</ele>
        <time>2015-03-01T10:10:27Z</time>
      </trkpt>
      <trkpt lat="43.76542" lon="7.25601">
        <ele>536.79</ele>
        <time>2015-03-01T10:10:29Z</time>
      </trkpt>
      <trkpt lat="43.76537" lon="7.25621">
        <ele>535.02</ele>
        <time>2015-03-01T10:10:33Z</time>
      </trkpt>
      <trkpt lat="43.76536" lon="7.25633">
        <ele>533.71</ele>
        <time>2015-03-01T10:10:35Z</time>
      </trkpt>
      <trkpt lat="43.76516" lon="7.25652">
        <ele>529.8</ele>
        <time>2015-03-01T10:10:43Z</time>
      </trkpt>
      <trkpt lat="43.76511" lon="7.25658">
        <ele>527.53</ele>
        <time>2015-03-01T10:10:45Z</time>
      </trkpt>
      <trkpt lat="43.76502" lon="7.25669">
        <ele>522.96</ele>
        <time>2015-03-01T10:10:48Z</time>
      </trkpt>
      <trkpt lat="43.76491" lon="7.25685">
        <ele>517.93</ele>
        <time>2015-03-01T10:10:52Z</time>
      </trkpt>
      <trkpt lat="43.76485" lon="7.25697">
        <ele>515.08</ele>
        <time>2015-03-01T10:10:55Z</time>
      </trkpt>
      <trkpt lat="43.76501" lon="7.25713">
        <ele>514.18</ele>
        <time>2015-03-01T10:10:59Z</time>
      </trkpt>
      <trkpt lat="43.76518" lon="7.2578">
        <ele>513.85</ele>
        <time>2015-03-01T10:11:09Z</time>
      </trkpt>
      <trkpt lat="43.76534" lon="7.25826">
        <ele>516.32</ele>
        <time>2015-03-01T10:11:21Z</time>
      </trkpt>
      <trkpt lat="43.76545" lon="7.25844">
        <ele>519.51</ele>
        <time>2015-03-01T10:11:34Z</time>
      </trkpt>
      <trkpt lat="43.76559" lon="7.25874">
        <ele>522.29</ele>
        <time>2015-03-01T10:11:48Z</time>
      </trkpt>
      <trkpt lat="43.76583" lon="7.25914">
        <ele>522.69</ele>
        <time>2015-03-01T10:12:00Z</time>
      </trkpt>
      <trkpt lat="43.76597" lon="7.25951">
        <ele>524.93</ele>
        <time>2015-03-01T10:12:13Z</time>
      </trkpt>
      <trkpt lat="43.76602" lon="7.25977">
        <ele>528</ele>
        <time>2015-03-01T10:12:27Z</time>
      </trkpt>
      <trkpt lat="43.76607" lon="7.26005">
        <ele>530.91</ele>
        <time>2015-03-01T10:12:41Z</time>
      </trkpt>
      <trkpt lat="43.76599" lon="7.26019">
        <ele>527.45</ele>
        <time>2015-03-01T10:12:46Z</time>
      </trkpt>
      <trkpt lat="43.766" lon="7.26023">
        <ele>526.45</ele>
        <time>2015-03-01T10:12:48Z</time>
      </trkpt>
      <trkpt lat="43.76601" lon="7.26029">
        <ele>526.01</ele>
        <time>2015-03-01T10:12:50Z</time>
      </trkpt>
      <trkpt lat="43.76593" lon="7.26032">
        <ele>522.33</ele>
        <time>2015-03-01T10:12:54Z</time>
      </trkpt>
      <trkpt lat="43.76582" lon="7.26023">
        <ele>519.07</ele>
        <time>2015-03-01T10:12:58Z</time>
      </trkpt>
      <trkpt lat="43.76577" lon="7.26026">
        <ele>517.22</ele>
        <time>2015-03-01T10:13:00Z</time>
      </trkpt>
      <trkpt lat="43.76559" lon="7.26023">
        <ele>512.55</ele>
        <time>2015-03-01T10:13:05Z</time>
      </trkpt>
      <trkpt lat="43.76553" lon="7.26019">
        <ele>511.44</ele>
        <time>2015-03-01T10:13:07Z</time>
      </trkpt>
      <trkpt lat="43.76534" lon="7.26016">
        <ele>507.77</ele>
        <time>2015-03-01T10:13:14Z</time>
      </trkpt>
      <trkpt lat="43.76521" lon="7.26025">
        <ele>504.45</ele>
        <time>2015-03-01T10:13:18Z</time>
      </trkpt>
      <trkpt lat="43.76517" lon="7.26024">
        <ele>503.67</ele>
        <time>2015-03-01T10:13:19Z</time>
      </trkpt>
      <trkpt lat="43.76496" lon="7.26022">
        <ele>498.12</ele>
        <time>2015-03-01T10:13:25Z</time>
      </trkpt>
      <trkpt lat="43.76492" lon="7.26029">
        <ele>494.97</ele>
        <time>2015-03-01T10:13:29Z</time>
      </trkpt>
      <trkpt lat="43.76483" lon="7.26028">
        <ele>492.99</ele>
        <time>2015-03-01T10:13:33Z</time>
      </trkpt>
      <trkpt lat="43.7647" lon="7.26029">
        <ele>490.39</ele>
        <time>2015-03-01T10:13:41Z</time>
      </trkpt>
      <trkpt lat="43.76463" lon="7.26035">
        <ele>488.14</ele>
        <time>2015-03-01T10:13:44Z</time>
      </trkpt>
      <trkpt lat="43.76454" lon="7.26038">
        <ele>485.66</ele>
        <time>2015-03-01T10:13:48Z</time>
      </trkpt>
      <trkpt lat="43.76451" lon="7.26051">
        <ele>482.48</ele>
        <time>2015-03-01T10:13:52Z</time>
      </trkpt>
      <trkpt lat="43.76449" lon="7.26055">
        <ele>479.95</ele>
        <time>2015-03-01T10:13:55Z</time>
      </trkpt>
      <trkpt lat="43.76449" lon="7.26063">
        <ele>478.69</ele>
        <time>2015-03-01T10:13:58Z</time>
      </trkpt>
      <trkpt lat="43.76441" lon="7.26075">
        <ele>475.51</ele>
        <time>2015-03-01T10:14:03Z</time>
      </trkpt>
      <trkpt lat="43.76441" lon="7.26085">
        <ele>471.76</ele>
        <time>2015-03-01T10:14:07Z</time>
      </trkpt>
      <trkpt lat="43.76461" lon="7.261">
        <ele>468.7</ele>
        <time>2015-03-01T10:14:13Z</time>
      </trkpt>
      <trkpt lat="43.76477" lon="7.26117">
        <ele>467.51</ele>
        <time>2015-03-01T10:14:21Z</time>
      </trkpt>
      <trkpt lat="43.7648" lon="7.26114">
        <ele>466.99</ele>
        <time>2015-03-01T10:14:31Z</time>
      </trkpt>
      <trkpt lat="43.76491" lon="7.26113">
        <ele>464.42</ele>
        <time>2015-03-01T10:25:01Z</time>
      </trkpt>
      <trkpt lat="43.76498" lon="7.26119">
        <ele>465.59</ele>
        <time>2015-03-01T10:25:11Z</time>
      </trkpt>
      <trkpt lat="43.76497" lon="7.26118">
        <ele>465.67</ele>
        <time>2015-03-01T10:25:13Z</time>
      </trkpt>
      <trkpt lat="43.76507" lon="7.26131">
        <ele>466.35</ele>
        <time>2015-03-01T10:25:34Z</time>
      </trkpt>
      <trkpt lat="43.76508" lon="7.26133">
        <ele>466.4</ele>
        <time>2015-03-01T10:25:35Z</time>
      </trkpt>
      <trkpt lat="43.76533" lon="7.26144">
        <ele>468.83</ele>
        <time>2015-03-01T10:25:49Z</time>
      </trkpt>
      <trkpt lat="43.76566" lon="7.26158">
        <ele>471.63</ele>
        <time>2015-03-01T10:26:05Z</time>
      </trkpt>
      <trkpt lat="43.7659" lon="7.26176">
        <ele>474.36</ele>
        <time>2015-03-01T10:26:18Z</time>
      </trkpt>
      <trkpt lat="43.76613" lon="7.26202">
        <ele>477.2</ele>
        <time>2015-03-01T10:26:33Z</time>
      </trkpt>
      <trkpt lat="43.76634" lon="7.26229">
        <ele>479.81</ele>
        <time>2015-03-01T10:26:47Z</time>
      </trkpt>
      <trkpt lat="43.76631" lon="7.26266">
        <ele>482.61</ele>
        <time>2015-03-01T10:27:01Z</time>
      </trkpt>
      <trkpt lat="43.76617" lon="7.26289">
        <ele>484.7</ele>
        <time>2015-03-01T10:27:14Z</time>
      </trkpt>
      <trkpt lat="43.76599" lon="7.26316">
        <ele>487.18</ele>
        <time>2015-03-01T10:27:29Z</time>
      </trkpt>
      <trkpt lat="43.76579" lon="7.26345">
        <ele>489.95</ele>
        <time>2015-03-01T10:27:46Z</time>
      </trkpt>
      <trkpt lat="43.76562" lon="7.2637">
        <ele>492.7</ele>
        <time>2015-03-01T10:28:01Z</time>
      </trkpt>
      <trkpt lat="43.76546" lon="7.26397">
        <ele>494.94</ele>
        <time>2015-03-01T10:28:16Z</time>
      </trkpt>
      <trkpt lat="43.76527" lon="7.26427">
        <ele>497.62</ele>
        <time>2015-03-01T10:28:32Z</time>
      </trkpt>
      <trkpt lat="43.76509" lon="7.2646">
        <ele>499.03</ele>
        <time>2015-03-01T10:28:46Z</time>
      </trkpt>
      <trkpt lat="43.76507" lon="7.26502">
        <ele>499.94</ele>
        <time>2015-03-01T10:28:59Z</time>
      </trkpt>
      <trkpt lat="43.76536" lon="7.26569">
        <ele>500.05</ele>
        <time>2015-03-01T10:29:15Z</time>
      </trkpt>
      <trkpt lat="43.76557" lon="7.2663">
        <ele>500.29</ele>
        <time>2015-03-01T10:29:28Z</time>
      </trkpt>
      <trkpt lat="43.76553" lon="7.26705">
        <ele>502.04</ele>
        <time>2015-03-01T10:29:44Z</time>
      </trkpt>
      <trkpt lat="43.76552" lon="7.26746">
        <ele>503.75</ele>
        <time>2015-03-01T10:29:54Z</time>
      </trkpt>
      <trkpt lat="43.76572" lon="7.26787">
        <ele>505.84</ele>
        <time>2015-03-01T10:30:07Z</time>
      </trkpt>
      <trkpt lat="43.76578" lon="7.26846">
        <ele>506.71</ele>
        <time>2015-03-01T10:30:20Z</time>
      </trkpt>
      <trkpt lat="43.76571" lon="7.26917">
        <ele>507.09</ele>
        <time>2015-03-01T10:30:34Z</time>
      </trkpt>
      <trkpt lat="43.76588" lon="7.26968">
        <ele>505.05</ele>
        <time>2015-03-01T10:30:42Z</time>
      </trkpt>
      <trkpt lat="43.76629" lon="7.27022">
        <ele>503.01</ele>
        <time>2015-03-01T10:30:51Z</time>
      </trkpt>
      <trkpt lat="43.76628" lon="7.27055">
        <ele>502.89</ele>
        <time>2015-03-01T10:30:56Z</time>
      </trkpt>
      <trkpt lat="43.7662" lon="7.27074">
        <ele>502.96</ele>
        <time>2015-03-01T10:30:59Z</time>
      </trkpt>
      <trkpt lat="43.76582" lon="7.27128">
        <ele>502.58</ele>
        <time>2015-03-01T10:31:09Z</time>
      </trkpt>
      <trkpt lat="43.7655" lon="7.27189">
        <ele>504.98</ele>
        <time>2015-03-01T10:31:23Z</time>
      </trkpt>
      <trkpt lat="43.76552" lon="7.27212">
        <ele>508.14</ele>
        <time>2015-03-01T10:31:32Z</time>
      </trkpt>
      <trkpt lat="43.76566" lon="7.27248">
        <ele>510.01</ele>
        <time>2015-03-01T10:31:45Z</time>
      </trkpt>
      <trkpt lat="43.76568" lon="7.27272">
        <ele>508.5</ele>
        <time>2015-03-01T10:31:49Z</time>
      </trkpt>
      <trkpt lat="43.76594" lon="7.27279">
        <ele>504.73</ele>
        <time>2015-03-01T10:31:56Z</time>
      </trkpt>
      <trkpt lat="43.76628" lon="7.27271">
        <ele>501.38</ele>
        <time>2015-03-01T10:32:01Z</time>
      </trkpt>
      <trkpt lat="43.76645" lon="7.27277">
        <ele>499.33</ele>
        <time>2015-03-01T10:32:03Z</time>
      </trkpt>
      <trkpt lat="43.76661" lon="7.27281">
        <ele>498.4</ele>
        <time>2015-03-01T10:32:05Z</time>
      </trkpt>
      <trkpt lat="43.76668" lon="7.27283">
        <ele>498.42</ele>
        <time>2015-03-01T10:32:06Z</time>
      </trkpt>
      <trkpt lat="43.76687" lon="7.273">
        <ele>497.64</ele>
        <time>2015-03-01T10:32:10Z</time>
      </trkpt>
      <trkpt lat="43.76712" lon="7.27324">
        <ele>495</ele>
        <time>2015-03-01T10:32:15Z</time>
      </trkpt>
      <trkpt lat="43.76752" lon="7.27333">
        <ele>489.67</ele>
        <time>2015-03-01T10:32:20Z</time>
      </trkpt>
      <trkpt lat="43.76771" lon="7.27334">
        <ele>486.29</ele>
        <time>2015-03-01T10:32:23Z</time>
      </trkpt>
      <trkpt lat="43.76824" lon="7.27334">
        <ele>481.99</ele>
        <time>2015-03-01T10:32:31Z</time>
      </trkpt>
      <trkpt lat="43.7686" lon="7.2733">
        <ele>478.19</ele>
        <time>2015-03-01T10:32:35Z</time>
      </trkpt>
      <trkpt lat="43.76879" lon="7.27323">
        <ele>475.05</ele>
        <time>2015-03-01T10:32:37Z</time>
      </trkpt>
      <trkpt lat="43.769" lon="7.27316">
        <ele>471.78</ele>
        <time>2015-03-01T10:32:39Z</time>
      </trkpt>
      <trkpt lat="43.76932" lon="7.27306">
        <ele>468.62</ele>
        <time>2015-03-01T10:32:42Z</time>
      </trkpt>
      <trkpt lat="43.76965" lon="7.27298">
        <ele>465.16</ele>
        <time>2015-03-01T10:32:45Z</time>
      </trkpt>
      <trkpt lat="43.76986" lon="7.27298">
        <ele>462.07</ele>
        <time>2015-03-01T10:32:47Z</time>
      </trkpt>
      <trkpt lat="43.77036" lon="7.27277">
        <ele>457.75</ele>
        <time>2015-03-01T10:32:52Z</time>
      </trkpt>
      <trkpt lat="43.77071" lon="7.27277">
        <ele>453.14</ele>
        <time>2015-03-01T10:32:56Z</time>
      </trkpt>
      <trkpt lat="43.77079" lon="7.27283">
        <ele>452.43</ele>
        <time>2015-03-01T10:32:57Z</time>
      </trkpt>
      <trkpt lat="43.77097" lon="7.27301">
        <ele>451.21</ele>
        <time>2015-03-01T10:33:01Z</time>
      </trkpt>
      <trkpt lat="43.77073" lon="7.27307">
        <ele>447.27</ele>
        <time>2015-03-01T10:33:07Z</time>
      </trkpt>
      <trkpt lat="43.77063" lon="7.27305">
        <ele>446.08</ele>
        <time>2015-03-01T10:33:09Z</time>
      </trkpt>
      <trkpt lat="43.77057" lon="7.27307">
        <ele>445.72</ele>
        <time>2015-03-01T10:33:11Z</time>
      </trkpt>
      <trkpt lat="43.77093" lon="7.27326">
        <ele>442.48</ele>
        <time>2015-03-01T10:33:18Z</time>
      </trkpt>
      <trkpt lat="43.77122" lon="7.27342">
        <ele>438.44</ele>
        <time>2015-03-01T10:33:22Z</time>
      </trkpt>
      <trkpt lat="43.77129" lon="7.27346">
        <ele>437.84</ele>
        <time>2015-03-01T10:33:23Z</time>
      </trkpt>
      <trkpt lat="43.77153" lon="7.27351">
        <ele>436.42</ele>
        <time>2015-03-01T10:33:26Z</time>
      </trkpt>
      <trkpt lat="43.77202" lon="7.27364">
        <ele>432.2</ele>
        <time>2015-03-01T10:33:32Z</time>
      </trkpt>
      <trkpt lat="43.77237" lon="7.27382">
        <ele>429.7</ele>
        <time>2015-03-01T10:33:37Z</time>
      </trkpt>
      <trkpt lat="43.77263" lon="7.27374">
        <ele>427.29</ele>
        <time>2015-03-01T10:33:43Z</time>
      </trkpt>
      <trkpt lat="43.77269" lon="7.27353">
        <ele>427.16</ele>
        <time>2015-03-01T10:33:47Z</time>
      </trkpt>
      <trkpt lat="43.77271" lon="7.27335">
        <ele>426.51</ele>
        <time>2015-03-01T10:33:49Z</time>
      </trkpt>
      <trkpt lat="43.77283" lon="7.27297">
        <ele>423.82</ele>
        <time>2015-03-01T10:33:53Z</time>
      </trkpt>
      <trkpt lat="43.7729" lon="7.27272">
        <ele>423.43</ele>
        <time>2015-03-01T10:33:56Z</time>
      </trkpt>
      <trkpt lat="43.77331" lon="7.27237">
        <ele>419.92</ele>
        <time>2015-03-01T10:34:04Z</time>
      </trkpt>
      <trkpt lat="43.77347" lon="7.27235">
        <ele>416.91</ele>
        <time>2015-03-01T10:34:06Z</time>
      </trkpt>
      <trkpt lat="43.77392" lon="7.27245">
        <ele>412.86</ele>
        <time>2015-03-01T10:34:11Z</time>
      </trkpt>
      <trkpt lat="43.77406" lon="7.27253">
        <ele>411.71</ele>
        <time>2015-03-01T10:34:13Z</time>
      </trkpt>
      <trkpt lat="43.77444" lon="7.27265">
        <ele>408.26</ele>
        <time>2015-03-01T10:34:19Z</time>
      </trkpt>
      <trkpt lat="43.77473" lon="7.27272">
        <ele>403.96</ele>
        <time>2015-03-01T10:34:22Z</time>
      </trkpt>
      <trkpt lat="43.77495" lon="7.27277">
        <ele>399.79</ele>
        <time>2015-03-01T10:34:24Z</time>
      </trkpt>
      <trkpt lat="43.77518" lon="7.2728">
        <ele>395.41</ele>
        <time>2015-03-01T10:34:26Z</time>
      </trkpt>
      <trkpt lat="43.77554" lon="7.27278">
        <ele>391.09</ele>
        <time>2015-03-01T10:34:29Z</time>
      </trkpt>
      <trkpt lat="43.77586" lon="7.2728">
        <ele>388</ele>
        <time>2015-03-01T10:34:32Z</time>
      </trkpt>
      <trkpt lat="43.77618" lon="7.27282">
        <ele>384.79</ele>
        <time>2015-03-01T10:34:35Z</time>
      </trkpt>
      <trkpt lat="43.7765" lon="7.2728">
        <ele>381.05</ele>
        <time>2015-03-01T10:34:38Z</time>
      </trkpt>
      <trkpt lat="43.77682" lon="7.27281">
        <ele>380.13</ele>
        <time>2015-03-01T10:34:41Z</time>
      </trkpt>
      <trkpt lat="43.77703" lon="7.27277">
        <ele>379.28</ele>
        <time>2015-03-01T10:34:43Z</time>
      </trkpt>
      <trkpt lat="43.77741" lon="7.27263">
        <ele>380.53</ele>
        <time>2015-03-01T10:34:48Z</time>
      </trkpt>
      <trkpt lat="43.77757" lon="7.27246">
        <ele>382.7</ele>
        <time>2015-03-01T10:34:52Z</time>
      </trkpt>
      <trkpt lat="43.77782" lon="7.27233">
        <ele>382.82</ele>
        <time>2015-03-01T10:34:58Z</time>
      </trkpt>
      <trkpt lat="43.77863" lon="7.27204">
        <ele>380.39</ele>
        <time>2015-03-01T10:35:12Z</time>
      </trkpt>
      <trkpt lat="43.77887" lon="7.27201">
        <ele>383.48</ele>
        <time>2015-03-01T10:35:19Z</time>
      </trkpt>
      <trkpt lat="43.77903" lon="7.2721">
        <ele>386.74</ele>
        <time>2015-03-01T10:35:31Z</time>
      </trkpt>
      <trkpt lat="43.77919" lon="7.27224">
        <ele>389.74</ele>
        <time>2015-03-01T10:35:44Z</time>
      </trkpt>
      <trkpt lat="43.77926" lon="7.2723">
        <ele>390.86</ele>
        <time>2015-03-01T10:35:50Z</time>
      </trkpt>
      <trkpt lat="43.77945" lon="7.27244">
        <ele>394.1</ele>
        <time>2015-03-01T10:36:05Z</time>
      </trkpt>
      <trkpt lat="43.77959" lon="7.27258">
        <ele>396.83</ele>
        <time>2015-03-01T10:36:18Z</time>
      </trkpt>
      <trkpt lat="43.7796" lon="7.27259">
        <ele>396.96</ele>
        <time>2015-03-01T10:36:19Z</time>
      </trkpt>
      <trkpt lat="43.77974" lon="7.27266">
        <ele>399.08</ele>
        <time>2015-03-01T10:36:31Z</time>
      </trkpt>
      <trkpt lat="43.77994" lon="7.27268">
        <ele>401.98</ele>
        <time>2015-03-01T10:36:45Z</time>
      </trkpt>
      <trkpt lat="43.78014" lon="7.27258">
        <ele>405.05</ele>
        <time>2015-03-01T10:36:59Z</time>
      </trkpt>
      <trkpt lat="43.78036" lon="7.27236">
        <ele>407.42</ele>
        <time>2015-03-01T10:37:15Z</time>
      </trkpt>
      <trkpt lat="43.78057" lon="7.27217">
        <ele>409.33</ele>
        <time>2015-03-01T10:37:29Z</time>
      </trkpt>
      <trkpt lat="43.78077" lon="7.27195">
        <ele>411.16</ele>
        <time>2015-03-01T10:37:42Z</time>
      </trkpt>
      <trkpt lat="43.78088" lon="7.27159">
        <ele>413.97</ele>
        <time>2015-03-01T10:37:57Z</time>
      </trkpt>
      <trkpt lat="43.78072" lon="7.27136">
        <ele>416.2</ele>
        <time>2015-03-01T10:38:10Z</time>
      </trkpt>
      <trkpt lat="43.7805" lon="7.27128">
        <ele>419.21</ele>
        <time>2015-03-01T10:38:23Z</time>
      </trkpt>
      <trkpt lat="43.78026" lon="7.27125">
        <ele>421.92</ele>
        <time>2015-03-01T10:38:37Z</time>
      </trkpt>
      <trkpt lat="43.78004" lon="7.27111">
        <ele>423.55</ele>
        <time>2015-03-01T10:38:51Z</time>
      </trkpt>
      <trkpt lat="43.77991" lon="7.27083">
        <ele>425.58</ele>
        <time>2015-03-01T10:39:04Z</time>
      </trkpt>
      <trkpt lat="43.77984" lon="7.27053">
        <ele>426.5</ele>
        <time>2015-03-01T10:39:16Z</time>
      </trkpt>
      <trkpt lat="43.77981" lon="7.27013">
        <ele>426.81</ele>
        <time>2015-03-01T10:39:29Z</time>
      </trkpt>
      <trkpt lat="43.77989" lon="7.26969">
        <ele>425.4</ele>
        <time>2015-03-01T10:39:38Z</time>
      </trkpt>
      <trkpt lat="43.77998" lon="7.26947">
        <ele>425.18</ele>
        <time>2015-03-01T10:39:42Z</time>
      </trkpt>
      <trkpt lat="43.78018" lon="7.26918">
        <ele>424.41</ele>
        <time>2015-03-01T10:39:48Z</time>
      </trkpt>
      <trkpt lat="43.78033" lon="7.26905">
        <ele>424</ele>
        <time>2015-03-01T10:39:51Z</time>
      </trkpt>
      <trkpt lat="43.78101" lon="7.26884">
        <ele>422.33</ele>
        <time>2015-03-01T10:40:03Z</time>
      </trkpt>
      <trkpt lat="43.7814" lon="7.26867">
        <ele>423.72</ele>
        <time>2015-03-01T10:40:14Z</time>
      </trkpt>
      <trkpt lat="43.78161" lon="7.26848">
        <ele>426.96</ele>
        <time>2015-03-01T10:40:26Z</time>
      </trkpt>
      <trkpt lat="43.7818" lon="7.26836">
        <ele>430.04</ele>
        <time>2015-03-01T10:40:38Z</time>
      </trkpt>
      <trkpt lat="43.78203" lon="7.26812">
        <ele>432.87</ele>
        <time>2015-03-01T10:40:52Z</time>
      </trkpt>
      <trkpt lat="43.7822" lon="7.26779">
        <ele>435.2</ele>
        <time>2015-03-01T10:41:08Z</time>
      </trkpt>
      <trkpt lat="43.78222" lon="7.2675">
        <ele>437.89</ele>
        <time>2015-03-01T10:41:23Z</time>
      </trkpt>
      <trkpt lat="43.7822" lon="7.26727">
        <ele>439.77</ele>
        <time>2015-03-01T10:41:36Z</time>
      </trkpt>
      <trkpt lat="43.7822" lon="7.26724">
        <ele>440.2</ele>
        <time>2015-03-01T10:41:38Z</time>
      </trkpt>
      <trkpt lat="43.7822" lon="7.26691">
        <ele>442.25</ele>
        <time>2015-03-01T10:41:52Z</time>
      </trkpt>
      <trkpt lat="43.78226" lon="7.26667">
        <ele>443.79</ele>
        <time>2015-03-01T10:41:58Z</time>
      </trkpt>
      <trkpt lat="43.78235" lon="7.26615">
        <ele>446.86</ele>
        <time>2015-03-01T10:42:15Z</time>
      </trkpt>
      <trkpt lat="43.78234" lon="7.26583">
        <ele>448.89</ele>
        <time>2015-03-01T10:42:30Z</time>
      </trkpt>
      <trkpt lat="43.78232" lon="7.26535">
        <ele>448.71</ele>
        <time>2015-03-01T10:42:42Z</time>
      </trkpt>
      <trkpt lat="43.78236" lon="7.26474">
        <ele>448.41</ele>
        <time>2015-03-01T10:42:54Z</time>
      </trkpt>
      <trkpt lat="43.78239" lon="7.26431">
        <ele>448.52</ele>
        <time>2015-03-01T10:43:08Z</time>
      </trkpt>
      <trkpt lat="43.7825" lon="7.26372">
        <ele>448.89</ele>
        <time>2015-03-01T10:43:21Z</time>
      </trkpt>
      <trkpt lat="43.78265" lon="7.26295">
        <ele>449.2</ele>
        <time>2015-03-01T10:43:36Z</time>
      </trkpt>
      <trkpt lat="43.78273" lon="7.26241">
        <ele>450.56</ele>
        <time>2015-03-01T10:43:50Z</time>
      </trkpt>
      <trkpt lat="43.78276" lon="7.26212">
        <ele>453.73</ele>
        <time>2015-03-01T10:44:03Z</time>
      </trkpt>
      <trkpt lat="43.78281" lon="7.26187">
        <ele>456.85</ele>
        <time>2015-03-01T10:44:16Z</time>
      </trkpt>
      <trkpt lat="43.78288" lon="7.26157">
        <ele>459.85</ele>
        <time>2015-03-01T10:44:30Z</time>
      </trkpt>
      <trkpt lat="43.7829" lon="7.26121">
        <ele>462.76</ele>
        <time>2015-03-01T10:44:47Z</time>
      </trkpt>
      <trkpt lat="43.78283" lon="7.26088">
        <ele>464.69</ele>
        <time>2015-03-01T10:45:02Z</time>
      </trkpt>
      <trkpt lat="43.78277" lon="7.2607">
        <ele>466.11</ele>
        <time>2015-03-01T10:45:11Z</time>
      </trkpt>
      <trkpt lat="43.78269" lon="7.26053">
        <ele>467.49</ele>
        <time>2015-03-01T10:45:20Z</time>
      </trkpt>
      <trkpt lat="43.78262" lon="7.26042">
        <ele>469.04</ele>
        <time>2015-03-01T10:45:28Z</time>
      </trkpt>
      <trkpt lat="43.78261" lon="7.26036">
        <ele>469.86</ele>
        <time>2015-03-01T10:45:32Z</time>
      </trkpt>
      <trkpt lat="43.78248" lon="7.26015">
        <ele>473.1</ele>
        <time>2015-03-01T10:45:48Z</time>
      </trkpt>
      <trkpt lat="43.78243" lon="7.26009">
        <ele>474.35</ele>
        <time>2015-03-01T10:45:53Z</time>
      </trkpt>
      <trkpt lat="43.78232" lon="7.25987">
        <ele>477.62</ele>
        <time>2015-03-01T10:46:08Z</time>
      </trkpt>
      <trkpt lat="43.78231" lon="7.25986">
        <ele>477.82</ele>
        <time>2015-03-01T10:46:09Z</time>
      </trkpt>
      <trkpt lat="43.78229" lon="7.2598">
        <ele>478.76</ele>
        <time>2015-03-01T10:46:13Z</time>
      </trkpt>
      <trkpt lat="43.7823" lon="7.2595">
        <ele>482.11</ele>
        <time>2015-03-01T10:46:29Z</time>
      </trkpt>
      <trkpt lat="43.78243" lon="7.25921">
        <ele>483.54</ele>
        <time>2015-03-01T10:46:43Z</time>
      </trkpt>
      <trkpt lat="43.78252" lon="7.2588">
        <ele>483.48</ele>
        <time>2015-03-01T10:46:57Z</time>
      </trkpt>
      <trkpt lat="43.78238" lon="7.25829">
        <ele>484.49</ele>
        <time>2015-03-01T10:47:11Z</time>
      </trkpt>
      <trkpt lat="43.78216" lon="7.25774">
        <ele>486.45</ele>
        <time>2015-03-01T10:47:28Z</time>
      </trkpt>
      <trkpt lat="43.78192" lon="7.25721">
        <ele>487.09</ele>
        <time>2015-03-01T10:47:44Z</time>
      </trkpt>
      <trkpt lat="43.78182" lon="7.25685">
        <ele>487.9</ele>
        <time>2015-03-01T10:47:55Z</time>
      </trkpt>
      <trkpt lat="43.78179" lon="7.25642">
        <ele>490.2</ele>
        <time>2015-03-01T10:48:08Z</time>
      </trkpt>
      <trkpt lat="43.78164" lon="7.25591">
        <ele>491.37</ele>
        <time>2015-03-01T10:48:24Z</time>
      </trkpt>
      <trkpt lat="43.78167" lon="7.25552">
        <ele>492.82</ele>
        <time>2015-03-01T10:48:37Z</time>
      </trkpt>
      <trkpt lat="43.78178" lon="7.25522">
        <ele>495.28</ele>
        <time>2015-03-01T10:48:52Z</time>
      </trkpt>
      <trkpt lat="43.78192" lon="7.25492">
        <ele>498.05</ele>
        <time>2015-03-01T10:49:07Z</time>
      </trkpt>
      <trkpt lat="43.78206" lon="7.25475">
        <ele>499.71</ele>
        <time>2015-03-01T10:49:19Z</time>
      </trkpt>
      <trkpt lat="43.78222" lon="7.25467">
        <ele>502.24</ele>
        <time>2015-03-01T10:49:33Z</time>
      </trkpt>
      <trkpt lat="43.78223" lon="7.25465">
        <ele>502.69</ele>
        <time>2015-03-01T10:49:39Z</time>
      </trkpt>
      <trkpt lat="43.78211" lon="7.25462">
        <ele>504.25</ele>
        <time>2015-03-01T10:50:01Z</time>
      </trkpt>
      <trkpt lat="43.78211" lon="7.25462">
        <ele>505.21</ele>
        <time>2015-03-01T10:50:06Z</time>
      </trkpt>
      <trkpt lat="43.78229" lon="7.25447">
        <ele>510.95</ele>
        <time>2015-03-01T10:50:44Z</time>
      </trkpt>
      <trkpt lat="43.78232" lon="7.25439">
        <ele>513.02</ele>
        <time>2015-03-01T10:50:59Z</time>
      </trkpt>
      <trkpt lat="43.78228" lon="7.25433">
        <ele>514.7</ele>
        <time>2015-03-01T10:51:14Z</time>
      </trkpt>
      <trkpt lat="43.78229" lon="7.25431">
        <ele>514.85</ele>
        <time>2015-03-01T10:51:15Z</time>
      </trkpt>
      <trkpt lat="43.78231" lon="7.25418">
        <ele>516.92</ele>
        <time>2015-03-01T10:51:29Z</time>
      </trkpt>
      <trkpt lat="43.78226" lon="7.25409">
        <ele>519.38</ele>
        <time>2015-03-01T10:51:44Z</time>
      </trkpt>
      <trkpt lat="43.78222" lon="7.25395">
        <ele>521.6</ele>
        <time>2015-03-01T10:51:58Z</time>
      </trkpt>
      <trkpt lat="43.78217" lon="7.25396">
        <ele>524.15</ele>
        <time>2015-03-01T10:52:12Z</time>
      </trkpt>
      <trkpt lat="43.78216" lon="7.2539">
        <ele>525.49</ele>
        <time>2015-03-01T10:52:19Z</time>
      </trkpt>
      <trkpt lat="43.78215" lon="7.25385">
        <ele>525.75</ele>
        <time>2015-03-01T10:52:23Z</time>
      </trkpt>
      <trkpt lat="43.78216" lon="7.25371">
        <ele>528.2</ele>
        <time>2015-03-01T10:52:37Z</time>
      </trkpt>
      <trkpt lat="43.78215" lon="7.25363">
        <ele>528.84</ele>
        <time>2015-03-01T10:52:45Z</time>
      </trkpt>
      <trkpt lat="43.78212" lon="7.25332">
        <ele>530.94</ele>
        <time>2015-03-01T10:53:03Z</time>
      </trkpt>
      <trkpt lat="43.78205" lon="7.25304">
        <ele>531.88</ele>
        <time>2015-03-01T10:53:17Z</time>
      </trkpt>
      <trkpt lat="43.78212" lon="7.25262">
        <ele>532.84</ele>
        <time>2015-03-01T10:53:33Z</time>
      </trkpt>
      <trkpt lat="43.78212" lon="7.25249">
        <ele>531.49</ele>
        <time>2015-03-01T10:53:44Z</time>
      </trkpt>
      <trkpt lat="43.78217" lon="7.2524">
        <ele>531.63</ele>
        <time>2015-03-01T10:53:59Z</time>
      </trkpt>
      <trkpt lat="43.78217" lon="7.25238">
        <ele>531.15</ele>
        <time>2015-03-01T10:54:03Z</time>
      </trkpt>
      <trkpt lat="43.78211" lon="7.25249">
        <ele>532.37</ele>
        <time>2015-03-01T10:57:26Z</time>
      </trkpt>
      <trkpt lat="43.78209" lon="7.25249">
        <ele>532.37</ele>
        <time>2015-03-01T10:57:32Z</time>
      </trkpt>
      <trkpt lat="43.78209" lon="7.25259">
        <ele>531.74</ele>
        <time>2015-03-01T10:59:48Z</time>
      </trkpt>
      <trkpt lat="43.7822" lon="7.25259">
        <ele>532.9</ele>
        <time>2015-03-01T10:59:54Z</time>
      </trkpt>
      <trkpt lat="43.78245" lon="7.25241">
        <ele>535.62</ele>
        <time>2015-03-01T11:00:10Z</time>
      </trkpt>
      <trkpt lat="43.78252" lon="7.25234">
        <ele>536.68</ele>
        <time>2015-03-01T11:00:16Z</time>
      </trkpt>
      <trkpt lat="43.78257" lon="7.25229">
        <ele>537.18</ele>
        <time>2015-03-01T11:00:20Z</time>
      </trkpt>
      <trkpt lat="43.7828" lon="7.25215">
        <ele>539.91</ele>
        <time>2015-03-01T11:00:38Z</time>
      </trkpt>
      <trkpt lat="43.78296" lon="7.25202">
        <ele>542.15</ele>
        <time>2015-03-01T11:00:51Z</time>
      </trkpt>
      <trkpt lat="43.78315" lon="7.25188">
        <ele>544.62</ele>
        <time>2015-03-01T11:01:05Z</time>
      </trkpt>
      <trkpt lat="43.78323" lon="7.25181">
        <ele>545.35</ele>
        <time>2015-03-01T11:01:11Z</time>
      </trkpt>
      <trkpt lat="43.7834" lon="7.25171">
        <ele>547.25</ele>
        <time>2015-03-01T11:01:24Z</time>
      </trkpt>
      <trkpt lat="43.78358" lon="7.25158">
        <ele>549.42</ele>
        <time>2015-03-01T11:01:38Z</time>
      </trkpt>
      <trkpt lat="43.7836" lon="7.25156">
        <ele>549.65</ele>
        <time>2015-03-01T11:01:40Z</time>
      </trkpt>
      <trkpt lat="43.78376" lon="7.25146">
        <ele>552.11</ele>
        <time>2015-03-01T11:01:54Z</time>
      </trkpt>
      <trkpt lat="43.78402" lon="7.25139">
        <ele>554.66</ele>
        <time>2015-03-01T11:02:10Z</time>
      </trkpt>
      <trkpt lat="43.78427" lon="7.25121">
        <ele>557.28</ele>
        <time>2015-03-01T11:02:26Z</time>
      </trkpt>
      <trkpt lat="43.78451" lon="7.25098">
        <ele>560.01</ele>
        <time>2015-03-01T11:02:43Z</time>
      </trkpt>
      <trkpt lat="43.78468" lon="7.25076">
        <ele>562.55</ele>
        <time>2015-03-01T11:02:57Z</time>
      </trkpt>
      <trkpt lat="43.78478" lon="7.25065">
        <ele>563.68</ele>
        <time>2015-03-01T11:03:04Z</time>
      </trkpt>
      <trkpt lat="43.78487" lon="7.25051">
        <ele>564.82</ele>
        <time>2015-03-01T11:03:12Z</time>
      </trkpt>
      <trkpt lat="43.78505" lon="7.25018">
        <ele>566.48</ele>
        <time>2015-03-01T11:03:27Z</time>
      </trkpt>
      <trkpt lat="43.78533" lon="7.24986">
        <ele>567.1</ele>
        <time>2015-03-01T11:03:41Z</time>
      </trkpt>
      <trkpt lat="43.78583" lon="7.24945">
        <ele>566.62</ele>
        <time>2015-03-01T11:03:57Z</time>
      </trkpt>
      <trkpt lat="43.78646" lon="7.2492">
        <ele>566.07</ele>
        <time>2015-03-01T11:04:13Z</time>
      </trkpt>
      <trkpt lat="43.78658" lon="7.24917">
        <ele>565.81</ele>
        <time>2015-03-01T11:04:16Z</time>
      </trkpt>
      <trkpt lat="43.78664" lon="7.2489">
        <ele>564.7</ele>
        <time>2015-03-01T11:04:22Z</time>
      </trkpt>
      <trkpt lat="43.78645" lon="7.2481">
        <ele>562.74</ele>
        <time>2015-03-01T11:04:32Z</time>
      </trkpt>
      <trkpt lat="43.78657" lon="7.24774">
        <ele>562.14</ele>
        <time>2015-03-01T11:04:39Z</time>
      </trkpt>
      <trkpt lat="43.78674" lon="7.24756">
        <ele>560.97</ele>
        <time>2015-03-01T11:04:43Z</time>
      </trkpt>
      <trkpt lat="43.78698" lon="7.24753">
        <ele>558.78</ele>
        <time>2015-03-01T11:04:47Z</time>
      </trkpt>
      <trkpt lat="43.78747" lon="7.24757">
        <ele>560.88</ele>
        <time>2015-03-01T11:04:58Z</time>
      </trkpt>
      <trkpt lat="43.78768" lon="7.24723">
        <ele>563.4</ele>
        <time>2015-03-01T11:05:12Z</time>
      </trkpt>
      <trkpt lat="43.78778" lon="7.24693">
        <ele>564.88</ele>
        <time>2015-03-01T11:05:24Z</time>
      </trkpt>
      <trkpt lat="43.78791" lon="7.24646">
        <ele>567.27</ele>
        <time>2015-03-01T11:05:40Z</time>
      </trkpt>
      <trkpt lat="43.78802" lon="7.24611">
        <ele>569.68</ele>
        <time>2015-03-01T11:05:54Z</time>
      </trkpt>
      <trkpt lat="43.78806" lon="7.246">
        <ele>570.46</ele>
        <time>2015-03-01T11:05:59Z</time>
      </trkpt>
      <trkpt lat="43.78812" lon="7.24603">
        <ele>571.11</ele>
        <time>2015-03-01T11:06:04Z</time>
      </trkpt>
      <trkpt lat="43.78829" lon="7.24631">
        <ele>573.06</ele>
        <time>2015-03-01T11:06:19Z</time>
      </trkpt>
      <trkpt lat="43.78852" lon="7.24649">
        <ele>576.1</ele>
        <time>2015-03-01T11:06:34Z</time>
      </trkpt>
      <trkpt lat="43.78872" lon="7.24659">
        <ele>579.14</ele>
        <time>2015-03-01T11:06:46Z</time>
      </trkpt>
      <trkpt lat="43.78874" lon="7.24659">
        <ele>579.41</ele>
        <time>2015-03-01T11:06:47Z</time>
      </trkpt>
      <trkpt lat="43.78897" lon="7.24641">
        <ele>581.01</ele>
        <time>2015-03-01T11:07:01Z</time>
      </trkpt>
      <trkpt lat="43.78922" lon="7.24644">
        <ele>582.85</ele>
        <time>2015-03-01T11:07:16Z</time>
      </trkpt>
      <trkpt lat="43.78946" lon="7.24664">
        <ele>584.23</ele>
        <time>2015-03-01T11:07:31Z</time>
      </trkpt>
      <trkpt lat="43.78966" lon="7.24693">
        <ele>586.05</ele>
        <time>2015-03-01T11:07:45Z</time>
      </trkpt>
      <trkpt lat="43.78997" lon="7.24692">
        <ele>588.39</ele>
        <time>2015-03-01T11:07:59Z</time>
      </trkpt>
      <trkpt lat="43.79027" lon="7.2468">
        <ele>590.69</ele>
        <time>2015-03-01T11:08:13Z</time>
      </trkpt>
      <trkpt lat="43.79062" lon="7.24679">
        <ele>592.9</ele>
        <time>2015-03-01T11:08:29Z</time>
      </trkpt>
      <trkpt lat="43.79095" lon="7.24673">
        <ele>594.29</ele>
        <time>2015-03-01T11:08:44Z</time>
      </trkpt>
      <trkpt lat="43.79127" lon="7.24661">
        <ele>596.04</ele>
        <time>2015-03-01T11:08:58Z</time>
      </trkpt>
      <trkpt lat="43.79159" lon="7.24644">
        <ele>597.5</ele>
        <time>2015-03-01T11:09:12Z</time>
      </trkpt>
      <trkpt lat="43.79194" lon="7.24628">
        <ele>600.08</ele>
        <time>2015-03-01T11:09:27Z</time>
      </trkpt>
      <trkpt lat="43.79215" lon="7.24602">
        <ele>602.85</ele>
        <time>2015-03-01T11:09:41Z</time>
      </trkpt>
      <trkpt lat="43.79227" lon="7.24575">
        <ele>604.48</ele>
        <time>2015-03-01T11:09:52Z</time>
      </trkpt>
      <trkpt lat="43.79246" lon="7.24542">
        <ele>607.01</ele>
        <time>2015-03-01T11:10:07Z</time>
      </trkpt>
      <trkpt lat="43.7927" lon="7.24519">
        <ele>609.39</ele>
        <time>2015-03-01T11:10:22Z</time>
      </trkpt>
      <trkpt lat="43.79293" lon="7.24494">
        <ele>611.61</ele>
        <time>2015-03-01T11:10:36Z</time>
      </trkpt>
      <trkpt lat="43.79317" lon="7.24465">
        <ele>613.96</ele>
        <time>2015-03-01T11:10:52Z</time>
      </trkpt>
      <trkpt lat="43.79338" lon="7.24447">
        <ele>616.18</ele>
        <time>2015-03-01T11:11:06Z</time>
      </trkpt>
      <trkpt lat="43.79365" lon="7.24432">
        <ele>619.32</ele>
        <time>2015-03-01T11:11:21Z</time>
      </trkpt>
      <trkpt lat="43.79391" lon="7.2441">
        <ele>621.31</ele>
        <time>2015-03-01T11:11:36Z</time>
      </trkpt>
      <trkpt lat="43.79417" lon="7.24393">
        <ele>623.5</ele>
        <time>2015-03-01T11:11:50Z</time>
      </trkpt>
      <trkpt lat="43.79439" lon="7.24374">
        <ele>625.72</ele>
        <time>2015-03-01T11:12:03Z</time>
      </trkpt>
      <trkpt lat="43.79459" lon="7.24352">
        <ele>627.96</ele>
        <time>2015-03-01T11:12:16Z</time>
      </trkpt>
      <trkpt lat="43.79477" lon="7.24333">
        <ele>629.87</ele>
        <time>2015-03-01T11:12:29Z</time>
      </trkpt>
      <trkpt lat="43.79494" lon="7.24313">
        <ele>631.99</ele>
        <time>2015-03-01T11:12:42Z</time>
      </trkpt>
      <trkpt lat="43.79514" lon="7.2429">
        <ele>633.96</ele>
        <time>2015-03-01T11:12:56Z</time>
      </trkpt>
      <trkpt lat="43.79539" lon="7.24257">
        <ele>635.9</ele>
        <time>2015-03-01T11:13:13Z</time>
      </trkpt>
      <trkpt lat="43.79558" lon="7.24221">
        <ele>637.83</ele>
        <time>2015-03-01T11:13:29Z</time>
      </trkpt>
      <trkpt lat="43.79571" lon="7.24182">
        <ele>639.64</ele>
        <time>2015-03-01T11:13:43Z</time>
      </trkpt>
      <trkpt lat="43.79583" lon="7.24153">
        <ele>641.9</ele>
        <time>2015-03-01T11:13:55Z</time>
      </trkpt>
      <trkpt lat="43.79591" lon="7.24161">
        <ele>644.01</ele>
        <time>2015-03-01T11:14:05Z</time>
      </trkpt>
      <trkpt lat="43.79581" lon="7.24191">
        <ele>646.77</ele>
        <time>2015-03-01T11:14:20Z</time>
      </trkpt>
      <trkpt lat="43.79577" lon="7.24216">
        <ele>649.22</ele>
        <time>2015-03-01T11:14:33Z</time>
      </trkpt>
      <trkpt lat="43.79573" lon="7.24245">
        <ele>651.11</ele>
        <time>2015-03-01T11:14:47Z</time>
      </trkpt>
      <trkpt lat="43.79564" lon="7.2428">
        <ele>653.92</ele>
        <time>2015-03-01T11:15:03Z</time>
      </trkpt>
      <trkpt lat="43.79551" lon="7.24311">
        <ele>655.71</ele>
        <time>2015-03-01T11:15:18Z</time>
      </trkpt>
      <trkpt lat="43.79532" lon="7.24345">
        <ele>658.16</ele>
        <time>2015-03-01T11:15:34Z</time>
      </trkpt>
      <trkpt lat="43.79517" lon="7.24372">
        <ele>659.92</ele>
        <time>2015-03-01T11:15:47Z</time>
      </trkpt>
      <trkpt lat="43.79498" lon="7.24404">
        <ele>662.1</ele>
        <time>2015-03-01T11:16:03Z</time>
      </trkpt>
      <trkpt lat="43.7948" lon="7.24432">
        <ele>664.11</ele>
        <time>2015-03-01T11:16:18Z</time>
      </trkpt>
      <trkpt lat="43.79462" lon="7.24456">
        <ele>665.72</ele>
        <time>2015-03-01T11:16:31Z</time>
      </trkpt>
      <trkpt lat="43.79442" lon="7.2448">
        <ele>667.4</ele>
        <time>2015-03-01T11:16:46Z</time>
      </trkpt>
      <trkpt lat="43.79422" lon="7.24505">
        <ele>669.63</ele>
        <time>2015-03-01T11:17:01Z</time>
      </trkpt>
      <trkpt lat="43.79401" lon="7.24531">
        <ele>671.91</ele>
        <time>2015-03-01T11:17:16Z</time>
      </trkpt>
      <trkpt lat="43.79383" lon="7.24557">
        <ele>674.44</ele>
        <time>2015-03-01T11:17:32Z</time>
      </trkpt>
      <trkpt lat="43.79369" lon="7.2459">
        <ele>676.98</ele>
        <time>2015-03-01T11:17:48Z</time>
      </trkpt>
      <trkpt lat="43.79359" lon="7.24622">
        <ele>679.54</ele>
        <time>2015-03-01T11:18:03Z</time>
      </trkpt>
      <trkpt lat="43.79345" lon="7.24658">
        <ele>681.66</ele>
        <time>2015-03-01T11:18:19Z</time>
      </trkpt>
      <trkpt lat="43.79334" lon="7.24703">
        <ele>684</ele>
        <time>2015-03-01T11:18:36Z</time>
      </trkpt>
      <trkpt lat="43.79328" lon="7.24741">
        <ele>685.14</ele>
        <time>2015-03-01T11:18:50Z</time>
      </trkpt>
      <trkpt lat="43.79332" lon="7.24786">
        <ele>686.79</ele>
        <time>2015-03-01T11:19:07Z</time>
      </trkpt>
      <trkpt lat="43.7934" lon="7.24809">
        <ele>684.63</ele>
        <time>2015-03-01T11:19:12Z</time>
      </trkpt>
      <trkpt lat="43.79376" lon="7.24839">
        <ele>680.8</ele>
        <time>2015-03-01T11:19:21Z</time>
      </trkpt>
      <trkpt lat="43.79405" lon="7.24848">
        <ele>679.84</ele>
        <time>2015-03-01T11:19:28Z</time>
      </trkpt>
      <trkpt lat="43.79461" lon="7.24877">
        <ele>680.6</ele>
        <time>2015-03-01T11:19:44Z</time>
      </trkpt>
      <trkpt lat="43.79508" lon="7.24896">
        <ele>682.76</ele>
        <time>2015-03-01T11:20:00Z</time>
      </trkpt>
      <trkpt lat="43.79547" lon="7.24901">
        <ele>684.97</ele>
        <time>2015-03-01T11:20:14Z</time>
      </trkpt>
      <trkpt lat="43.79589" lon="7.24903">
        <ele>686.98</ele>
        <time>2015-03-01T11:20:29Z</time>
      </trkpt>
      <trkpt lat="43.79623" lon="7.24901">
        <ele>690.2</ele>
        <time>2015-03-01T11:20:45Z</time>
      </trkpt>
      <trkpt lat="43.79651" lon="7.24889">
        <ele>693.27</ele>
        <time>2015-03-01T11:21:00Z</time>
      </trkpt>
      <trkpt lat="43.79669" lon="7.24874">
        <ele>696.41</ele>
        <time>2015-03-01T11:21:15Z</time>
      </trkpt>
      <trkpt lat="43.79686" lon="7.24856">
        <ele>699.14</ele>
        <time>2015-03-01T11:21:29Z</time>
      </trkpt>
      <trkpt lat="43.79705" lon="7.24836">
        <ele>701.69</ele>
        <time>2015-03-01T11:21:45Z</time>
      </trkpt>
      <trkpt lat="43.79728" lon="7.24814">
        <ele>704.11</ele>
        <time>2015-03-01T11:22:02Z</time>
      </trkpt>
      <trkpt lat="43.79747" lon="7.24796">
        <ele>706.43</ele>
        <time>2015-03-01T11:22:17Z</time>
      </trkpt>
      <trkpt lat="43.79772" lon="7.24784">
        <ele>709.24</ele>
        <time>2015-03-01T11:22:32Z</time>
      </trkpt>
      <trkpt lat="43.79801" lon="7.24764">
        <ele>710.6</ele>
        <time>2015-03-01T11:22:47Z</time>
      </trkpt>
      <trkpt lat="43.79835" lon="7.2473">
        <ele>711.61</ele>
        <time>2015-03-01T11:23:02Z</time>
      </trkpt>
      <trkpt lat="43.79855" lon="7.24701">
        <ele>714.12</ele>
        <time>2015-03-01T11:23:17Z</time>
      </trkpt>
      <trkpt lat="43.79877" lon="7.24682">
        <ele>717.1</ele>
        <time>2015-03-01T11:23:32Z</time>
      </trkpt>
      <trkpt lat="43.79904" lon="7.24661">
        <ele>719.25</ele>
        <time>2015-03-01T11:23:48Z</time>
      </trkpt>
      <trkpt lat="43.79921" lon="7.24638">
        <ele>721.21</ele>
        <time>2015-03-01T11:24:01Z</time>
      </trkpt>
      <trkpt lat="43.79938" lon="7.24607">
        <ele>723.43</ele>
        <time>2015-03-01T11:24:15Z</time>
      </trkpt>
      <trkpt lat="43.79947" lon="7.24569">
        <ele>724.98</ele>
        <time>2015-03-01T11:24:29Z</time>
      </trkpt>
      <trkpt lat="43.79966" lon="7.24537">
        <ele>726.58</ele>
        <time>2015-03-01T11:24:45Z</time>
      </trkpt>
      <trkpt lat="43.79994" lon="7.24534">
        <ele>728.47</ele>
        <time>2015-03-01T11:24:59Z</time>
      </trkpt>
      <trkpt lat="43.80018" lon="7.2454">
        <ele>730.99</ele>
        <time>2015-03-01T11:25:13Z</time>
      </trkpt>
      <trkpt lat="43.8004" lon="7.24548">
        <ele>733.28</ele>
        <time>2015-03-01T11:25:27Z</time>
      </trkpt>
      <trkpt lat="43.80042" lon="7.24545">
        <ele>733.52</ele>
        <time>2015-03-01T11:25:29Z</time>
      </trkpt>
      <trkpt lat="43.80042" lon="7.24534">
        <ele>734.75</ele>
        <time>2015-03-01T11:25:35Z</time>
      </trkpt>
      <trkpt lat="43.80041" lon="7.24528">
        <ele>735.43</ele>
        <time>2015-03-01T11:25:38Z</time>
      </trkpt>
      <trkpt lat="43.80043" lon="7.24521">
        <ele>736.57</ele>
        <time>2015-03-01T11:25:42Z</time>
      </trkpt>
      <trkpt lat="43.80044" lon="7.24518">
        <ele>736.85</ele>
        <time>2015-03-01T11:25:44Z</time>
      </trkpt>
      <trkpt lat="43.80052" lon="7.24496">
        <ele>737.92</ele>
        <time>2015-03-01T11:25:54Z</time>
      </trkpt>
      <trkpt lat="43.80069" lon="7.24468">
        <ele>740.09</ele>
        <time>2015-03-01T11:26:09Z</time>
      </trkpt>
      <trkpt lat="43.8007" lon="7.24467">
        <ele>740.12</ele>
        <time>2015-03-01T11:26:10Z</time>
      </trkpt>
      <trkpt lat="43.80079" lon="7.24471">
        <ele>739.98</ele>
        <time>2015-03-01T11:26:14Z</time>
      </trkpt>
      <trkpt lat="43.80101" lon="7.24488">
        <ele>740.68</ele>
        <time>2015-03-01T11:26:27Z</time>
      </trkpt>
      <trkpt lat="43.80113" lon="7.24509">
        <ele>742.45</ele>
        <time>2015-03-01T11:26:39Z</time>
      </trkpt>
      <trkpt lat="43.80127" lon="7.24538">
        <ele>744.79</ele>
        <time>2015-03-01T11:26:55Z</time>
      </trkpt>
      <trkpt lat="43.80142" lon="7.24559">
        <ele>746.41</ele>
        <time>2015-03-01T11:27:09Z</time>
      </trkpt>
      <trkpt lat="43.80158" lon="7.24577">
        <ele>749.1</ele>
        <time>2015-03-01T11:27:24Z</time>
      </trkpt>
      <trkpt lat="43.80162" lon="7.2458">
        <ele>749.4</ele>
        <time>2015-03-01T11:27:27Z</time>
      </trkpt>
      <trkpt lat="43.80168" lon="7.24582">
        <ele>750.02</ele>
        <time>2015-03-01T11:27:31Z</time>
      </trkpt>
      <trkpt lat="43.80184" lon="7.24581">
        <ele>752.83</ele>
        <time>2015-03-01T11:27:45Z</time>
      </trkpt>
      <trkpt lat="43.80191" lon="7.24578">
        <ele>753.84</ele>
        <time>2015-03-01T11:27:51Z</time>
      </trkpt>
      <trkpt lat="43.8021" lon="7.24571">
        <ele>757.12</ele>
        <time>2015-03-01T11:28:07Z</time>
      </trkpt>
      <trkpt lat="43.80223" lon="7.24566">
        <ele>759.63</ele>
        <time>2015-03-01T11:28:18Z</time>
      </trkpt>
      <trkpt lat="43.80228" lon="7.24565">
        <ele>760.92</ele>
        <time>2015-03-01T11:28:22Z</time>
      </trkpt>
      <trkpt lat="43.80241" lon="7.24555">
        <ele>763.87</ele>
        <time>2015-03-01T11:28:36Z</time>
      </trkpt>
      <trkpt lat="43.80247" lon="7.24545">
        <ele>766.25</ele>
        <time>2015-03-01T11:28:44Z</time>
      </trkpt>
      <trkpt lat="43.80254" lon="7.24537">
        <ele>767.51</ele>
        <time>2015-03-01T11:28:52Z</time>
      </trkpt>
      <trkpt lat="43.80265" lon="7.24533">
        <ele>769.48</ele>
        <time>2015-03-01T11:29:02Z</time>
      </trkpt>
      <trkpt lat="43.80279" lon="7.24535">
        <ele>771.99</ele>
        <time>2015-03-01T11:29:13Z</time>
      </trkpt>
      <trkpt lat="43.80282" lon="7.24532">
        <ele>772.54</ele>
        <time>2015-03-01T11:29:16Z</time>
      </trkpt>
      <trkpt lat="43.80292" lon="7.24529">
        <ele>773.97</ele>
        <time>2015-03-01T11:29:23Z</time>
      </trkpt>
      <trkpt lat="43.80303" lon="7.24527">
        <ele>775.76</ele>
        <time>2015-03-01T11:29:31Z</time>
      </trkpt>
      <trkpt lat="43.80308" lon="7.24524">
        <ele>776.27</ele>
        <time>2015-03-01T11:29:35Z</time>
      </trkpt>
      <trkpt lat="43.80327" lon="7.24519">
        <ele>777.95</ele>
        <time>2015-03-01T11:29:49Z</time>
      </trkpt>
      <trkpt lat="43.80351" lon="7.24517">
        <ele>778.72</ele>
        <time>2015-03-01T11:30:04Z</time>
      </trkpt>
      <trkpt lat="43.80375" lon="7.24515">
        <ele>779.28</ele>
        <time>2015-03-01T11:30:16Z</time>
      </trkpt>
      <trkpt lat="43.80406" lon="7.24512">
        <ele>780.36</ele>
        <time>2015-03-01T11:30:30Z</time>
      </trkpt>
      <trkpt lat="43.80405" lon="7.24512">
        <ele>780.19</ele>
        <time>2015-03-01T11:30:36Z</time>
      </trkpt>
      <trkpt lat="43.80409" lon="7.24517">
        <ele>779.94</ele>
        <time>2015-03-01T11:52:18Z</time>
      </trkpt>
      <trkpt lat="43.8041" lon="7.24518">
        <ele>779.92</ele>
        <time>2015-03-01T11:52:23Z</time>
      </trkpt>
      <trkpt lat="43.80402" lon="7.24514">
        <ele>780.04</ele>
        <time>2015-03-01T11:54:06Z</time>
      </trkpt>
      <trkpt lat="43.80402" lon="7.24513">
        <ele>779.88</ele>
        <time>2015-03-01T11:54:11Z</time>
      </trkpt>
      <trkpt lat="43.80415" lon="7.24511">
        <ele>781.29</ele>
        <time>2015-03-01T11:57:23Z</time>
      </trkpt>
      <trkpt lat="43.80427" lon="7.2451">
        <ele>781.56</ele>
        <time>2015-03-01T11:57:37Z</time>
      </trkpt>
      <trkpt lat="43.80469" lon="7.24502">
        <ele>782.25</ele>
        <time>2015-03-01T12:01:11Z</time>
      </trkpt>
      <trkpt lat="43.80531" lon="7.24503">
        <ele>780.68</ele>
        <time>2015-03-01T12:01:20Z</time>
      </trkpt>
      <trkpt lat="43.80563" lon="7.24506">
        <ele>780.47</ele>
        <time>2015-03-01T12:01:24Z</time>
      </trkpt>
      <trkpt lat="43.80587" lon="7.24504">
        <ele>779.21</ele>
        <time>2015-03-01T12:01:27Z</time>
      </trkpt>
      <trkpt lat="43.80608" lon="7.24499">
        <ele>778.95</ele>
        <time>2015-03-01T12:01:30Z</time>
      </trkpt>
      <trkpt lat="43.80661" lon="7.24493">
        <ele>778.27</ele>
        <time>2015-03-01T12:01:38Z</time>
      </trkpt>
      <trkpt lat="43.80678" lon="7.24491">
        <ele>778.19</ele>
        <time>2015-03-01T12:01:41Z</time>
      </trkpt>
      <trkpt lat="43.80712" lon="7.24485">
        <ele>780.31</ele>
        <time>2015-03-01T12:01:48Z</time>
      </trkpt>
      <trkpt lat="43.8073" lon="7.24481">
        <ele>781.59</ele>
        <time>2015-03-01T12:01:52Z</time>
      </trkpt>
      <trkpt lat="43.80753" lon="7.24478">
        <ele>782.79</ele>
        <time>2015-03-01T12:01:57Z</time>
      </trkpt>
      <trkpt lat="43.80763" lon="7.2448">
        <ele>782.32</ele>
        <time>2015-03-01T12:01:59Z</time>
      </trkpt>
      <trkpt lat="43.80773" lon="7.24482">
        <ele>781.94</ele>
        <time>2015-03-01T12:02:01Z</time>
      </trkpt>
      <trkpt lat="43.80795" lon="7.24489">
        <ele>781.86</ele>
        <time>2015-03-01T12:02:05Z</time>
      </trkpt>
      <trkpt lat="43.8081" lon="7.2452">
        <ele>782.12</ele>
        <time>2015-03-01T12:02:11Z</time>
      </trkpt>
      <trkpt lat="43.80815" lon="7.24539">
        <ele>782.51</ele>
        <time>2015-03-01T12:02:14Z</time>
      </trkpt>
      <trkpt lat="43.80836" lon="7.24552">
        <ele>783.56</ele>
        <time>2015-03-01T12:02:23Z</time>
      </trkpt>
      <trkpt lat="43.80847" lon="7.24547">
        <ele>783.92</ele>
        <time>2015-03-01T12:02:26Z</time>
      </trkpt>
      <trkpt lat="43.80874" lon="7.24531">
        <ele>784.51</ele>
        <time>2015-03-01T12:02:33Z</time>
      </trkpt>
      <trkpt lat="43.80888" lon="7.24521">
        <ele>782.96</ele>
        <time>2015-03-01T12:02:36Z</time>
      </trkpt>
      <trkpt lat="43.80914" lon="7.24516">
        <ele>780.84</ele>
        <time>2015-03-01T12:02:41Z</time>
      </trkpt>
      <trkpt lat="43.80936" lon="7.24516">
        <ele>781.01</ele>
        <time>2015-03-01T12:02:46Z</time>
      </trkpt>
      <trkpt lat="43.80941" lon="7.24498">
        <ele>779.58</ele>
        <time>2015-03-01T12:02:50Z</time>
      </trkpt>
      <trkpt lat="43.80954" lon="7.24477">
        <ele>776.92</ele>
        <time>2015-03-01T12:02:54Z</time>
      </trkpt>
      <trkpt lat="43.80964" lon="7.24458">
        <ele>772.86</ele>
        <time>2015-03-01T12:02:57Z</time>
      </trkpt>
      <trkpt lat="43.80972" lon="7.24434">
        <ele>769.25</ele>
        <time>2015-03-01T12:03:01Z</time>
      </trkpt>
      <trkpt lat="43.80976" lon="7.24407">
        <ele>764.49</ele>
        <time>2015-03-01T12:03:04Z</time>
      </trkpt>
      <trkpt lat="43.80984" lon="7.24376">
        <ele>760.16</ele>
        <time>2015-03-01T12:03:08Z</time>
      </trkpt>
      <trkpt lat="43.80985" lon="7.24369">
        <ele>759.2</ele>
        <time>2015-03-01T12:03:09Z</time>
      </trkpt>
      <trkpt lat="43.80995" lon="7.24345">
        <ele>755.39</ele>
        <time>2015-03-01T12:03:13Z</time>
      </trkpt>
      <trkpt lat="43.81015" lon="7.24315">
        <ele>750.99</ele>
        <time>2015-03-01T12:03:18Z</time>
      </trkpt>
      <trkpt lat="43.81023" lon="7.24305">
        <ele>749.81</ele>
        <time>2015-03-01T12:03:20Z</time>
      </trkpt>
      <trkpt lat="43.81043" lon="7.24277">
        <ele>743.77</ele>
        <time>2015-03-01T12:03:24Z</time>
      </trkpt>
      <trkpt lat="43.81051" lon="7.2426">
        <ele>740.34</ele>
        <time>2015-03-01T12:03:26Z</time>
      </trkpt>
      <trkpt lat="43.81076" lon="7.24225">
        <ele>735</ele>
        <time>2015-03-01T12:03:31Z</time>
      </trkpt>
      <trkpt lat="43.81097" lon="7.24195">
        <ele>730.97</ele>
        <time>2015-03-01T12:03:36Z</time>
      </trkpt>
      <trkpt lat="43.81111" lon="7.24174">
        <ele>727.28</ele>
        <time>2015-03-01T12:03:39Z</time>
      </trkpt>
      <trkpt lat="43.81127" lon="7.24156">
        <ele>723.08</ele>
        <time>2015-03-01T12:03:42Z</time>
      </trkpt>
      <trkpt lat="43.81138" lon="7.24141">
        <ele>721.62</ele>
        <time>2015-03-01T12:03:45Z</time>
      </trkpt>
      <trkpt lat="43.81141" lon="7.24137">
        <ele>721.42</ele>
        <time>2015-03-01T12:03:46Z</time>
      </trkpt>
      <trkpt lat="43.8115" lon="7.24104">
        <ele>717.02</ele>
        <time>2015-03-01T12:03:51Z</time>
      </trkpt>
      <trkpt lat="43.8115" lon="7.24098">
        <ele>716.3</ele>
        <time>2015-03-01T12:03:52Z</time>
      </trkpt>
      <trkpt lat="43.8116" lon="7.2409">
        <ele>711.43</ele>
        <time>2015-03-01T12:03:56Z</time>
      </trkpt>
      <trkpt lat="43.81164" lon="7.24094">
        <ele>709.72</ele>
        <time>2015-03-01T12:03:57Z</time>
      </trkpt>
      <trkpt lat="43.81172" lon="7.24107">
        <ele>705.41</ele>
        <time>2015-03-01T12:04:00Z</time>
      </trkpt>
      <trkpt lat="43.81182" lon="7.24108">
        <ele>700.32</ele>
        <time>2015-03-01T12:04:04Z</time>
      </trkpt>
      <trkpt lat="43.81189" lon="7.24119">
        <ele>695.89</ele>
        <time>2015-03-01T12:04:07Z</time>
      </trkpt>
      <trkpt lat="43.81195" lon="7.24127">
        <ele>693.21</ele>
        <time>2015-03-01T12:04:09Z</time>
      </trkpt>
      <trkpt lat="43.81203" lon="7.24128">
        <ele>686.52</ele>
        <time>2015-03-01T12:04:14Z</time>
      </trkpt>
      <trkpt lat="43.81219" lon="7.24134">
        <ele>680.8</ele>
        <time>2015-03-01T12:04:18Z</time>
      </trkpt>
      <trkpt lat="43.81235" lon="7.24129">
        <ele>676.36</ele>
        <time>2015-03-01T12:04:22Z</time>
      </trkpt>
      <trkpt lat="43.8125" lon="7.2413">
        <ele>671.23</ele>
        <time>2015-03-01T12:04:25Z</time>
      </trkpt>
      <trkpt lat="43.81261" lon="7.24131">
        <ele>667.57</ele>
        <time>2015-03-01T12:04:27Z</time>
      </trkpt>
      <trkpt lat="43.81274" lon="7.24136">
        <ele>664.21</ele>
        <time>2015-03-01T12:04:30Z</time>
      </trkpt>
      <trkpt lat="43.81278" lon="7.24138">
        <ele>663.4</ele>
        <time>2015-03-01T12:04:31Z</time>
      </trkpt>
      <trkpt lat="43.81285" lon="7.2414">
        <ele>661.97</ele>
        <time>2015-03-01T12:04:33Z</time>
      </trkpt>
      <trkpt lat="43.81292" lon="7.24142">
        <ele>658.49</ele>
        <time>2015-03-01T12:04:35Z</time>
      </trkpt>
      <trkpt lat="43.81306" lon="7.24153">
        <ele>653.2</ele>
        <time>2015-03-01T12:04:38Z</time>
      </trkpt>
      <trkpt lat="43.81316" lon="7.24158">
        <ele>649.44</ele>
        <time>2015-03-01T12:04:40Z</time>
      </trkpt>
      <trkpt lat="43.81329" lon="7.24162">
        <ele>645.15</ele>
        <time>2015-03-01T12:04:43Z</time>
      </trkpt>
      <trkpt lat="43.81339" lon="7.24162">
        <ele>641.89</ele>
        <time>2015-03-01T12:04:46Z</time>
      </trkpt>
      <trkpt lat="43.81347" lon="7.24168">
        <ele>637.98</ele>
        <time>2015-03-01T12:04:49Z</time>
      </trkpt>
      <trkpt lat="43.81358" lon="7.24169">
        <ele>633.9</ele>
        <time>2015-03-01T12:04:52Z</time>
      </trkpt>
      <trkpt lat="43.81367" lon="7.24183">
        <ele>629.04</ele>
        <time>2015-03-01T12:04:55Z</time>
      </trkpt>
      <trkpt lat="43.81375" lon="7.24193">
        <ele>624.26</ele>
        <time>2015-03-01T12:04:58Z</time>
      </trkpt>
      <trkpt lat="43.81379" lon="7.24208">
        <ele>620.25</ele>
        <time>2015-03-01T12:05:01Z</time>
      </trkpt>
      <trkpt lat="43.81381" lon="7.24213">
        <ele>619.05</ele>
        <time>2015-03-01T12:05:02Z</time>
      </trkpt>
      <trkpt lat="43.81387" lon="7.24224">
        <ele>615.38</ele>
        <time>2015-03-01T12:05:04Z</time>
      </trkpt>
      <trkpt lat="43.81394" lon="7.24238">
        <ele>610.1</ele>
        <time>2015-03-01T12:05:07Z</time>
      </trkpt>
      <trkpt lat="43.81398" lon="7.24245">
        <ele>608.06</ele>
        <time>2015-03-01T12:05:09Z</time>
      </trkpt>
      <trkpt lat="43.81403" lon="7.24249">
        <ele>603.57</ele>
        <time>2015-03-01T12:05:14Z</time>
      </trkpt>
      <trkpt lat="43.81404" lon="7.24251">
        <ele>601.51</ele>
        <time>2015-03-01T12:05:16Z</time>
      </trkpt>
      <trkpt lat="43.8142" lon="7.24241">
        <ele>597.27</ele>
        <time>2015-03-01T12:05:24Z</time>
      </trkpt>
      <trkpt lat="43.81424" lon="7.24258">
        <ele>593.27</ele>
        <time>2015-03-01T12:05:28Z</time>
      </trkpt>
      <trkpt lat="43.81421" lon="7.24273">
        <ele>589.18</ele>
        <time>2015-03-01T12:05:32Z</time>
      </trkpt>
      <trkpt lat="43.81418" lon="7.24279">
        <ele>587.45</ele>
        <time>2015-03-01T12:05:35Z</time>
      </trkpt>
      <trkpt lat="43.81413" lon="7.24289">
        <ele>583.13</ele>
        <time>2015-03-01T12:05:38Z</time>
      </trkpt>
      <trkpt lat="43.81411" lon="7.24294">
        <ele>581.57</ele>
        <time>2015-03-01T12:05:39Z</time>
      </trkpt>
      <trkpt lat="43.81417" lon="7.24305">
        <ele>576.52</ele>
        <time>2015-03-01T12:05:42Z</time>
      </trkpt>
      <trkpt lat="43.8143" lon="7.24309">
        <ele>572.11</ele>
        <time>2015-03-01T12:05:45Z</time>
      </trkpt>
      <trkpt lat="43.81436" lon="7.24308">
        <ele>570.48</ele>
        <time>2015-03-01T12:05:46Z</time>
      </trkpt>
      <trkpt lat="43.81453" lon="7.24305">
        <ele>565.97</ele>
        <time>2015-03-01T12:05:49Z</time>
      </trkpt>
      <trkpt lat="43.81474" lon="7.24308">
        <ele>562.34</ele>
        <time>2015-03-01T12:05:56Z</time>
      </trkpt>
      <trkpt lat="43.81476" lon="7.24285">
        <ele>559.4</ele>
        <time>2015-03-01T12:06:00Z</time>
      </trkpt>
      <trkpt lat="43.81474" lon="7.24266">
        <ele>557.88</ele>
        <time>2015-03-01T12:06:02Z</time>
      </trkpt>
      <trkpt lat="43.81476" lon="7.24212">
        <ele>553.95</ele>
        <time>2015-03-01T12:06:07Z</time>
      </trkpt>
      <trkpt lat="43.81474" lon="7.24157">
        <ele>549.76</ele>
        <time>2015-03-01T12:06:11Z</time>
      </trkpt>
      <trkpt lat="43.81477" lon="7.24114">
        <ele>545.4</ele>
        <time>2015-03-01T12:06:14Z</time>
      </trkpt>
      <trkpt lat="43.8149" lon="7.24062">
        <ele>542.23</ele>
        <time>2015-03-01T12:06:18Z</time>
      </trkpt>
      <trkpt lat="43.81471" lon="7.23998">
        <ele>539.85</ele>
        <time>2015-03-01T12:06:25Z</time>
      </trkpt>
      <trkpt lat="43.81441" lon="7.23964">
        <ele>535.54</ele>
        <time>2015-03-01T12:06:29Z</time>
      </trkpt>
      <trkpt lat="43.81433" lon="7.23956">
        <ele>534.8</ele>
        <time>2015-03-01T12:06:30Z</time>
      </trkpt>
      <trkpt lat="43.81412" lon="7.23927">
        <ele>531.36</ele>
        <time>2015-03-01T12:06:33Z</time>
      </trkpt>
      <trkpt lat="43.81388" lon="7.23874">
        <ele>528.92</ele>
        <time>2015-03-01T12:06:40Z</time>
      </trkpt>
      <trkpt lat="43.81432" lon="7.2384">
        <ele>525.13</ele>
        <time>2015-03-01T12:06:46Z</time>
      </trkpt>
      <trkpt lat="43.81469" lon="7.23818">
        <ele>520.23</ele>
        <time>2015-03-01T12:06:50Z</time>
      </trkpt>
      <trkpt lat="43.81491" lon="7.238">
        <ele>517.45</ele>
        <time>2015-03-01T12:06:53Z</time>
      </trkpt>
      <trkpt lat="43.815" lon="7.2379">
        <ele>517.97</ele>
        <time>2015-03-01T12:06:55Z</time>
      </trkpt>
      <trkpt lat="43.815" lon="7.23803">
        <ele>517.8</ele>
        <time>2015-03-01T12:06:59Z</time>
      </trkpt>
      <trkpt lat="43.81496" lon="7.23813">
        <ele>513.65</ele>
        <time>2015-03-01T12:07:05Z</time>
      </trkpt>
      <trkpt lat="43.81495" lon="7.23813">
        <ele>512.97</ele>
        <time>2015-03-01T12:07:07Z</time>
      </trkpt>
      <trkpt lat="43.81492" lon="7.2381">
        <ele>514.4</ele>
        <time>2015-03-01T12:07:13Z</time>
      </trkpt>
      <trkpt lat="43.81506" lon="7.23801">
        <ele>510.76</ele>
        <time>2015-03-01T12:07:19Z</time>
      </trkpt>
      <trkpt lat="43.8149" lon="7.23823">
        <ele>506.59</ele>
        <time>2015-03-01T12:07:24Z</time>
      </trkpt>
      <trkpt lat="43.81486" lon="7.2383">
        <ele>505.54</ele>
        <time>2015-03-01T12:07:25Z</time>
      </trkpt>
      <trkpt lat="43.81468" lon="7.23856">
        <ele>502.96</ele>
        <time>2015-03-01T12:07:29Z</time>
      </trkpt>
      <trkpt lat="43.8144" lon="7.23888">
        <ele>500.29</ele>
        <time>2015-03-01T12:07:38Z</time>
      </trkpt>
      <trkpt lat="43.81441" lon="7.23891">
        <ele>500.21</ele>
        <time>2015-03-01T12:07:39Z</time>
      </trkpt>
      <trkpt lat="43.81454" lon="7.23912">
        <ele>501.49</ele>
        <time>2015-03-01T12:07:48Z</time>
      </trkpt>
      <trkpt lat="43.81456" lon="7.23913">
        <ele>501.69</ele>
        <time>2015-03-01T12:07:50Z</time>
      </trkpt>
      <trkpt lat="43.81472" lon="7.23934">
        <ele>503.84</ele>
        <time>2015-03-01T12:08:02Z</time>
      </trkpt>
      <trkpt lat="43.81502" lon="7.23964">
        <ele>503.38</ele>
        <time>2015-03-01T12:08:14Z</time>
      </trkpt>
      <trkpt lat="43.81527" lon="7.2399">
        <ele>502.51</ele>
        <time>2015-03-01T12:08:23Z</time>
      </trkpt>
      <trkpt lat="43.81541" lon="7.24014">
        <ele>503.36</ele>
        <time>2015-03-01T12:08:29Z</time>
      </trkpt>
      <trkpt lat="43.81552" lon="7.24061">
        <ele>503.92</ele>
        <time>2015-03-01T12:08:40Z</time>
      </trkpt>
      <trkpt lat="43.81553" lon="7.24077">
        <ele>505.81</ele>
        <time>2015-03-01T12:08:46Z</time>
      </trkpt>
      <trkpt lat="43.81548" lon="7.24112">
        <ele>506.58</ele>
        <time>2015-03-01T12:08:58Z</time>
      </trkpt>
      <trkpt lat="43.81543" lon="7.24136">
        <ele>508.41</ele>
        <time>2015-03-01T12:09:09Z</time>
      </trkpt>
      <trkpt lat="43.81554" lon="7.24168">
        <ele>509.69</ele>
        <time>2015-03-01T12:09:23Z</time>
      </trkpt>
      <trkpt lat="43.81575" lon="7.24179">
        <ele>512.63</ele>
        <time>2015-03-01T12:09:36Z</time>
      </trkpt>
      <trkpt lat="43.81612" lon="7.24182">
        <ele>510.72</ele>
        <time>2015-03-01T12:09:45Z</time>
      </trkpt>
      <trkpt lat="43.81626" lon="7.24181">
        <ele>510.03</ele>
        <time>2015-03-01T12:09:47Z</time>
      </trkpt>
      <trkpt lat="43.81644" lon="7.24182">
        <ele>508.75</ele>
        <time>2015-03-01T12:09:50Z</time>
      </trkpt>
      <trkpt lat="43.81661" lon="7.24215">
        <ele>508.16</ele>
        <time>2015-03-01T12:09:56Z</time>
      </trkpt>
      <trkpt lat="43.81671" lon="7.24246">
        <ele>507.42</ele>
        <time>2015-03-01T12:10:01Z</time>
      </trkpt>
      <trkpt lat="43.81689" lon="7.2426">
        <ele>506.18</ele>
        <time>2015-03-01T12:10:05Z</time>
      </trkpt>
      <trkpt lat="43.81709" lon="7.24274">
        <ele>507.95</ele>
        <time>2015-03-01T12:10:11Z</time>
      </trkpt>
      <trkpt lat="43.81714" lon="7.24279">
        <ele>508.07</ele>
        <time>2015-03-01T12:10:14Z</time>
      </trkpt>
      <trkpt lat="43.81725" lon="7.24281">
        <ele>504.29</ele>
        <time>2015-03-01T12:10:20Z</time>
      </trkpt>
      <trkpt lat="43.8172" lon="7.243">
        <ele>502.08</ele>
        <time>2015-03-01T12:10:24Z</time>
      </trkpt>
      <trkpt lat="43.81709" lon="7.24313">
        <ele>498.66</ele>
        <time>2015-03-01T12:10:27Z</time>
      </trkpt>
      <trkpt lat="43.81701" lon="7.24318">
        <ele>497.76</ele>
        <time>2015-03-01T12:10:29Z</time>
      </trkpt>
      <trkpt lat="43.81698" lon="7.24322">
        <ele>497.71</ele>
        <time>2015-03-01T12:10:30Z</time>
      </trkpt>
      <trkpt lat="43.81679" lon="7.24342">
        <ele>497.48</ele>
        <time>2015-03-01T12:10:35Z</time>
      </trkpt>
      <trkpt lat="43.81663" lon="7.24354">
        <ele>497.79</ele>
        <time>2015-03-01T12:10:39Z</time>
      </trkpt>
      <trkpt lat="43.81612" lon="7.24396">
        <ele>499.43</ele>
        <time>2015-03-01T12:10:53Z</time>
      </trkpt>
      <trkpt lat="43.81603" lon="7.24404">
        <ele>499.49</ele>
        <time>2015-03-01T12:10:56Z</time>
      </trkpt>
      <trkpt lat="43.81595" lon="7.24411">
        <ele>498.68</ele>
        <time>2015-03-01T12:10:58Z</time>
      </trkpt>
      <trkpt lat="43.81574" lon="7.24423">
        <ele>496.09</ele>
        <time>2015-03-01T12:11:02Z</time>
      </trkpt>
      <trkpt lat="43.81545" lon="7.24435">
        <ele>495.11</ele>
        <time>2015-03-01T12:11:09Z</time>
      </trkpt>
      <trkpt lat="43.81553" lon="7.24442">
        <ele>491.34</ele>
        <time>2015-03-01T12:11:13Z</time>
      </trkpt>
      <trkpt lat="43.81552" lon="7.24447">
        <ele>489.15</ele>
        <time>2015-03-01T12:11:16Z</time>
      </trkpt>
      <trkpt lat="43.81563" lon="7.24454">
        <ele>483.69</ele>
        <time>2015-03-01T12:11:20Z</time>
      </trkpt>
      <trkpt lat="43.81564" lon="7.24457">
        <ele>482.6</ele>
        <time>2015-03-01T12:11:21Z</time>
      </trkpt>
      <trkpt lat="43.81567" lon="7.24449">
        <ele>480.54</ele>
        <time>2015-03-01T12:11:26Z</time>
      </trkpt>
      <trkpt lat="43.81563" lon="7.24447">
        <ele>480.34</ele>
        <time>2015-03-01T12:11:33Z</time>
      </trkpt>
      <trkpt lat="43.81563" lon="7.24449">
        <ele>479.14</ele>
        <time>2015-03-01T12:11:35Z</time>
      </trkpt>
      <trkpt lat="43.81568" lon="7.24458">
        <ele>474.87</ele>
        <time>2015-03-01T12:11:41Z</time>
      </trkpt>
      <trkpt lat="43.81573" lon="7.24467">
        <ele>470.56</ele>
        <time>2015-03-01T12:11:46Z</time>
      </trkpt>
      <trkpt lat="43.81575" lon="7.24468">
        <ele>469.56</ele>
        <time>2015-03-01T12:11:47Z</time>
      </trkpt>
      <trkpt lat="43.8158" lon="7.24478">
        <ele>464.71</ele>
        <time>2015-03-01T12:11:53Z</time>
      </trkpt>
      <trkpt lat="43.81581" lon="7.24482">
        <ele>463.04</ele>
        <time>2015-03-01T12:11:57Z</time>
      </trkpt>
      <trkpt lat="43.81578" lon="7.24497">
        <ele>459.56</ele>
        <time>2015-03-01T12:12:04Z</time>
      </trkpt>
      <trkpt lat="43.81588" lon="7.24502">
        <ele>455.3</ele>
        <time>2015-03-01T12:12:08Z</time>
      </trkpt>
      <trkpt lat="43.81607" lon="7.24504">
        <ele>451.02</ele>
        <time>2015-03-01T12:12:12Z</time>
      </trkpt>
      <trkpt lat="43.81624" lon="7.24506">
        <ele>446.26</ele>
        <time>2015-03-01T12:12:17Z</time>
      </trkpt>
      <trkpt lat="43.81639" lon="7.24505">
        <ele>442.52</ele>
        <time>2015-03-01T12:12:20Z</time>
      </trkpt>
      <trkpt lat="43.81643" lon="7.24505">
        <ele>441.65</ele>
        <time>2015-03-01T12:12:21Z</time>
      </trkpt>
      <trkpt lat="43.8167" lon="7.24498">
        <ele>435.88</ele>
        <time>2015-03-01T12:12:26Z</time>
      </trkpt>
      <trkpt lat="43.81682" lon="7.24496">
        <ele>432.13</ele>
        <time>2015-03-01T12:12:30Z</time>
      </trkpt>
      <trkpt lat="43.81672" lon="7.24509">
        <ele>429.15</ele>
        <time>2015-03-01T12:12:35Z</time>
      </trkpt>
      <trkpt lat="43.81631" lon="7.2454">
        <ele>430.54</ele>
        <time>2015-03-01T12:12:47Z</time>
      </trkpt>
      <trkpt lat="43.81612" lon="7.24548">
        <ele>428.68</ele>
        <time>2015-03-01T12:12:52Z</time>
      </trkpt>
      <trkpt lat="43.81605" lon="7.24562">
        <ele>429.88</ele>
        <time>2015-03-01T12:12:55Z</time>
      </trkpt>
      <trkpt lat="43.81599" lon="7.24584">
        <ele>429.23</ele>
        <time>2015-03-01T12:13:04Z</time>
      </trkpt>
      <trkpt lat="43.81599" lon="7.24583">
        <ele>428.84</ele>
        <time>2015-03-01T12:13:06Z</time>
      </trkpt>
      <trkpt lat="43.81595" lon="7.24605">
        <ele>429.17</ele>
        <time>2015-03-01T12:15:57Z</time>
      </trkpt>
      <trkpt lat="43.81592" lon="7.24603">
        <ele>428.91</ele>
        <time>2015-03-01T12:16:04Z</time>
      </trkpt>
      <trkpt lat="43.81571" lon="7.24634">
        <ele>427.63</ele>
        <time>2015-03-01T12:18:10Z</time>
      </trkpt>
      <trkpt lat="43.81577" lon="7.24644">
        <ele>424.44</ele>
        <time>2015-03-01T12:18:13Z</time>
      </trkpt>
      <trkpt lat="43.81579" lon="7.24654">
        <ele>422.14</ele>
        <time>2015-03-01T12:18:18Z</time>
      </trkpt>
      <trkpt lat="43.81575" lon="7.24663">
        <ele>422.18</ele>
        <time>2015-03-01T12:18:24Z</time>
      </trkpt>
      <trkpt lat="43.81549" lon="7.24681">
        <ele>420.61</ele>
        <time>2015-03-01T12:18:34Z</time>
      </trkpt>
      <trkpt lat="43.81542" lon="7.24684">
        <ele>419.13</ele>
        <time>2015-03-01T12:18:41Z</time>
      </trkpt>
      <trkpt lat="43.81543" lon="7.24695">
        <ele>420.07</ele>
        <time>2015-03-01T12:18:56Z</time>
      </trkpt>
      <trkpt lat="43.81542" lon="7.24698">
        <ele>420.59</ele>
        <time>2015-03-01T12:19:00Z</time>
      </trkpt>
      <trkpt lat="43.81534" lon="7.24705">
        <ele>423.14</ele>
        <time>2015-03-01T12:19:17Z</time>
      </trkpt>
      <trkpt lat="43.81541" lon="7.24738">
        <ele>428.33</ele>
        <time>2015-03-01T12:19:50Z</time>
      </trkpt>
      <trkpt lat="43.81538" lon="7.24743">
        <ele>430.81</ele>
        <time>2015-03-01T12:20:04Z</time>
      </trkpt>
      <trkpt lat="43.8149" lon="7.24869">
        <ele>474.75</ele>
        <time>2015-03-01T12:25:22Z</time>
      </trkpt>
      <trkpt lat="43.81488" lon="7.24869">
        <ele>475.99</ele>
        <time>2015-03-01T12:25:26Z</time>
      </trkpt>
      <trkpt lat="43.8149" lon="7.24872">
        <ele>475.54</ele>
        <time>2015-03-01T12:25:32Z</time>
      </trkpt>
      <trkpt lat="43.81494" lon="7.2487">
        <ele>474.98</ele>
        <time>2015-03-01T12:25:38Z</time>
      </trkpt>
      <trkpt lat="43.81495" lon="7.24869">
        <ele>474.77</ele>
        <time>2015-03-01T12:25:44Z</time>
      </trkpt>
      <trkpt lat="43.81488" lon="7.24867">
        <ele>473.54</ele>
        <time>2015-03-01T12:36:47Z</time>
      </trkpt>
      <trkpt lat="43.81484" lon="7.24866">
        <ele>473.68</ele>
        <time>2015-03-01T12:37:00Z</time>
      </trkpt>
      <trkpt lat="43.81478" lon="7.24871">
        <ele>474.23</ele>
        <time>2015-03-01T12:38:02Z</time>
      </trkpt>
      <trkpt lat="43.81467" lon="7.24897">
        <ele>476.39</ele>
        <time>2015-03-01T12:38:18Z</time>
      </trkpt>
      <trkpt lat="43.81468" lon="7.24914">
        <ele>477.2</ele>
        <time>2015-03-01T12:38:25Z</time>
      </trkpt>
      <trkpt lat="43.81469" lon="7.24924">
        <ele>477.68</ele>
        <time>2015-03-01T12:38:29Z</time>
      </trkpt>
      <trkpt lat="43.81452" lon="7.24935">
        <ele>480.36</ele>
        <time>2015-03-01T12:38:42Z</time>
      </trkpt>
      <trkpt lat="43.81444" lon="7.24942">
        <ele>481.64</ele>
        <time>2015-03-01T12:38:50Z</time>
      </trkpt>
      <trkpt lat="43.81442" lon="7.24969">
        <ele>483.69</ele>
        <time>2015-03-01T12:39:05Z</time>
      </trkpt>
      <trkpt lat="43.81434" lon="7.24986">
        <ele>485.59</ele>
        <time>2015-03-01T12:39:16Z</time>
      </trkpt>
      <trkpt lat="43.81419" lon="7.24998">
        <ele>487.87</ele>
        <time>2015-03-01T12:39:30Z</time>
      </trkpt>
      <trkpt lat="43.81417" lon="7.24998">
        <ele>488.23</ele>
        <time>2015-03-01T12:39:32Z</time>
      </trkpt>
      <trkpt lat="43.81403" lon="7.24986">
        <ele>490.17</ele>
        <time>2015-03-01T12:39:42Z</time>
      </trkpt>
      <trkpt lat="43.81382" lon="7.24988">
        <ele>493.02</ele>
        <time>2015-03-01T12:39:59Z</time>
      </trkpt>
      <trkpt lat="43.81376" lon="7.24988">
        <ele>493.53</ele>
        <time>2015-03-01T12:40:03Z</time>
      </trkpt>
      <trkpt lat="43.81368" lon="7.24979">
        <ele>496.03</ele>
        <time>2015-03-01T12:40:11Z</time>
      </trkpt>
      <trkpt lat="43.81353" lon="7.24983">
        <ele>498.56</ele>
        <time>2015-03-01T12:40:26Z</time>
      </trkpt>
      <trkpt lat="43.81336" lon="7.2498">
        <ele>500.49</ele>
        <time>2015-03-01T12:40:40Z</time>
      </trkpt>
      <trkpt lat="43.81324" lon="7.2496">
        <ele>502.39</ele>
        <time>2015-03-01T12:40:55Z</time>
      </trkpt>
      <trkpt lat="43.81315" lon="7.24942">
        <ele>503.51</ele>
        <time>2015-03-01T12:41:04Z</time>
      </trkpt>
      <trkpt lat="43.81326" lon="7.24923">
        <ele>505.1</ele>
        <time>2015-03-01T12:41:15Z</time>
      </trkpt>
      <trkpt lat="43.81329" lon="7.24918">
        <ele>505.43</ele>
        <time>2015-03-01T12:41:19Z</time>
      </trkpt>
      <trkpt lat="43.81335" lon="7.24908">
        <ele>506.86</ele>
        <time>2015-03-01T12:41:27Z</time>
      </trkpt>
      <trkpt lat="43.81338" lon="7.24897">
        <ele>508.14</ele>
        <time>2015-03-01T12:41:34Z</time>
      </trkpt>
      <trkpt lat="43.81337" lon="7.24892">
        <ele>508.5</ele>
        <time>2015-03-01T12:41:36Z</time>
      </trkpt>
      <trkpt lat="43.81331" lon="7.24886">
        <ele>508.96</ele>
        <time>2015-03-01T12:41:40Z</time>
      </trkpt>
      <trkpt lat="43.81308" lon="7.24891">
        <ele>511.41</ele>
        <time>2015-03-01T12:41:55Z</time>
      </trkpt>
      <trkpt lat="43.81287" lon="7.24899">
        <ele>513.63</ele>
        <time>2015-03-01T12:42:10Z</time>
      </trkpt>
      <trkpt lat="43.8128" lon="7.249">
        <ele>514.43</ele>
        <time>2015-03-01T12:42:15Z</time>
      </trkpt>
      <trkpt lat="43.81257" lon="7.24894">
        <ele>516.53</ele>
        <time>2015-03-01T12:42:30Z</time>
      </trkpt>
      <trkpt lat="43.81239" lon="7.24876">
        <ele>517.72</ele>
        <time>2015-03-01T12:42:44Z</time>
      </trkpt>
      <trkpt lat="43.81231" lon="7.24852">
        <ele>520.12</ele>
        <time>2015-03-01T12:42:57Z</time>
      </trkpt>
      <trkpt lat="43.81225" lon="7.24831">
        <ele>521.46</ele>
        <time>2015-03-01T12:43:08Z</time>
      </trkpt>
      <trkpt lat="43.81235" lon="7.24811">
        <ele>523.71</ele>
        <time>2015-03-01T12:43:20Z</time>
      </trkpt>
      <trkpt lat="43.81235" lon="7.24795">
        <ele>525.05</ele>
        <time>2015-03-01T12:43:29Z</time>
      </trkpt>
      <trkpt lat="43.81227" lon="7.24804">
        <ele>526.15</ele>
        <time>2015-03-01T12:43:37Z</time>
      </trkpt>
      <trkpt lat="43.81213" lon="7.2483">
        <ele>527.72</ele>
        <time>2015-03-01T12:43:52Z</time>
      </trkpt>
      <trkpt lat="43.81212" lon="7.24839">
        <ele>528.13</ele>
        <time>2015-03-01T12:43:57Z</time>
      </trkpt>
      <trkpt lat="43.81211" lon="7.2485">
        <ele>529.01</ele>
        <time>2015-03-01T12:44:02Z</time>
      </trkpt>
      <trkpt lat="43.81211" lon="7.24857">
        <ele>529.45</ele>
        <time>2015-03-01T12:44:05Z</time>
      </trkpt>
      <trkpt lat="43.81212" lon="7.24868">
        <ele>530.47</ele>
        <time>2015-03-01T12:44:10Z</time>
      </trkpt>
      <trkpt lat="43.81218" lon="7.2489">
        <ele>531.35</ele>
        <time>2015-03-01T12:44:21Z</time>
      </trkpt>
      <trkpt lat="43.81227" lon="7.24913">
        <ele>532.94</ele>
        <time>2015-03-01T12:44:34Z</time>
      </trkpt>
      <trkpt lat="43.81239" lon="7.24927">
        <ele>534.24</ele>
        <time>2015-03-01T12:44:44Z</time>
      </trkpt>
      <trkpt lat="43.8124" lon="7.24958">
        <ele>536.41</ele>
        <time>2015-03-01T12:44:59Z</time>
      </trkpt>
      <trkpt lat="43.8125" lon="7.24982">
        <ele>538.87</ele>
        <time>2015-03-01T12:45:12Z</time>
      </trkpt>
      <trkpt lat="43.81267" lon="7.24999">
        <ele>540.81</ele>
        <time>2015-03-01T12:45:25Z</time>
      </trkpt>
      <trkpt lat="43.8127" lon="7.25025">
        <ele>543.55</ele>
        <time>2015-03-01T12:45:40Z</time>
      </trkpt>
      <trkpt lat="43.81267" lon="7.25051">
        <ele>545.95</ele>
        <time>2015-03-01T12:45:52Z</time>
      </trkpt>
      <trkpt lat="43.81266" lon="7.25081">
        <ele>548.58</ele>
        <time>2015-03-01T12:46:06Z</time>
      </trkpt>
      <trkpt lat="43.81277" lon="7.25099">
        <ele>550.48</ele>
        <time>2015-03-01T12:46:20Z</time>
      </trkpt>
      <trkpt lat="43.81299" lon="7.25103">
        <ele>553.06</ele>
        <time>2015-03-01T12:46:36Z</time>
      </trkpt>
      <trkpt lat="43.81321" lon="7.25113">
        <ele>555.41</ele>
        <time>2015-03-01T12:46:50Z</time>
      </trkpt>
      <trkpt lat="43.81328" lon="7.25119">
        <ele>555.86</ele>
        <time>2015-03-01T12:46:54Z</time>
      </trkpt>
      <trkpt lat="43.81334" lon="7.25131">
        <ele>557.13</ele>
        <time>2015-03-01T12:47:01Z</time>
      </trkpt>
      <trkpt lat="43.81341" lon="7.25159">
        <ele>559.06</ele>
        <time>2015-03-01T12:47:14Z</time>
      </trkpt>
      <trkpt lat="43.81347" lon="7.2519">
        <ele>561.32</ele>
        <time>2015-03-01T12:47:28Z</time>
      </trkpt>
      <trkpt lat="43.81352" lon="7.25193">
        <ele>562.07</ele>
        <time>2015-03-01T12:47:33Z</time>
      </trkpt>
      <trkpt lat="43.81366" lon="7.25185">
        <ele>564.01</ele>
        <time>2015-03-01T12:47:44Z</time>
      </trkpt>
      <trkpt lat="43.81388" lon="7.25174">
        <ele>566.17</ele>
        <time>2015-03-01T12:47:58Z</time>
      </trkpt>
      <trkpt lat="43.8141" lon="7.25168">
        <ele>568.06</ele>
        <time>2015-03-01T12:48:12Z</time>
      </trkpt>
      <trkpt lat="43.81435" lon="7.25168">
        <ele>569.91</ele>
        <time>2015-03-01T12:48:24Z</time>
      </trkpt>
      <trkpt lat="43.81439" lon="7.25169">
        <ele>570.25</ele>
        <time>2015-03-01T12:48:26Z</time>
      </trkpt>
      <trkpt lat="43.81465" lon="7.25166">
        <ele>572.06</ele>
        <time>2015-03-01T12:48:41Z</time>
      </trkpt>
      <trkpt lat="43.81486" lon="7.25168">
        <ele>574.92</ele>
        <time>2015-03-01T12:48:54Z</time>
      </trkpt>
      <trkpt lat="43.81503" lon="7.25183">
        <ele>576.83</ele>
        <time>2015-03-01T12:49:07Z</time>
      </trkpt>
      <trkpt lat="43.81525" lon="7.25196">
        <ele>579.35</ele>
        <time>2015-03-01T12:49:22Z</time>
      </trkpt>
      <trkpt lat="43.81549" lon="7.25212">
        <ele>581.91</ele>
        <time>2015-03-01T12:49:37Z</time>
      </trkpt>
      <trkpt lat="43.8157" lon="7.25225">
        <ele>584.44</ele>
        <time>2015-03-01T12:49:54Z</time>
      </trkpt>
      <trkpt lat="43.81571" lon="7.25226">
        <ele>584.58</ele>
        <time>2015-03-01T12:49:55Z</time>
      </trkpt>
      <trkpt lat="43.81586" lon="7.25239">
        <ele>585.79</ele>
        <time>2015-03-01T12:50:07Z</time>
      </trkpt>
      <trkpt lat="43.81609" lon="7.25257">
        <ele>587.88</ele>
        <time>2015-03-01T12:50:21Z</time>
      </trkpt>
      <trkpt lat="43.81623" lon="7.25275">
        <ele>589.54</ele>
        <time>2015-03-01T12:50:33Z</time>
      </trkpt>
      <trkpt lat="43.81626" lon="7.25283">
        <ele>589.93</ele>
        <time>2015-03-01T12:50:37Z</time>
      </trkpt>
      <trkpt lat="43.81639" lon="7.25314">
        <ele>592.4</ele>
        <time>2015-03-01T12:50:54Z</time>
      </trkpt>
      <trkpt lat="43.81653" lon="7.2535">
        <ele>594.45</ele>
        <time>2015-03-01T12:51:11Z</time>
      </trkpt>
      <trkpt lat="43.81673" lon="7.25385">
        <ele>597.07</ele>
        <time>2015-03-01T12:51:29Z</time>
      </trkpt>
      <trkpt lat="43.81687" lon="7.25413">
        <ele>599.15</ele>
        <time>2015-03-01T12:51:43Z</time>
      </trkpt>
      <trkpt lat="43.81703" lon="7.25439">
        <ele>601</ele>
        <time>2015-03-01T12:51:58Z</time>
      </trkpt>
      <trkpt lat="43.81713" lon="7.25456">
        <ele>603.8</ele>
        <time>2015-03-01T12:52:08Z</time>
      </trkpt>
      <trkpt lat="43.81694" lon="7.25458">
        <ele>603.43</ele>
        <time>2015-03-01T12:52:19Z</time>
      </trkpt>
      <trkpt lat="43.81661" lon="7.2544">
        <ele>604.31</ele>
        <time>2015-03-01T12:52:34Z</time>
      </trkpt>
      <trkpt lat="43.81627" lon="7.25424">
        <ele>603.99</ele>
        <time>2015-03-01T12:52:48Z</time>
      </trkpt>
      <trkpt lat="43.8159" lon="7.25423">
        <ele>603.71</ele>
        <time>2015-03-01T12:53:00Z</time>
      </trkpt>
      <trkpt lat="43.81561" lon="7.25468">
        <ele>602.86</ele>
        <time>2015-03-01T12:53:11Z</time>
      </trkpt>
      <trkpt lat="43.81552" lon="7.25498">
        <ele>602.83</ele>
        <time>2015-03-01T12:53:17Z</time>
      </trkpt>
      <trkpt lat="43.81534" lon="7.2556">
        <ele>601.96</ele>
        <time>2015-03-01T12:53:28Z</time>
      </trkpt>
      <trkpt lat="43.81485" lon="7.25623">
        <ele>601.34</ele>
        <time>2015-03-01T12:53:45Z</time>
      </trkpt>
      <trkpt lat="43.81466" lon="7.25653">
        <ele>600.65</ele>
        <time>2015-03-01T12:53:52Z</time>
      </trkpt>
      <trkpt lat="43.81431" lon="7.25733">
        <ele>601.84</ele>
        <time>2015-03-01T12:54:11Z</time>
      </trkpt>
      <trkpt lat="43.81402" lon="7.25739">
        <ele>600.67</ele>
        <time>2015-03-01T12:54:21Z</time>
      </trkpt>
      <trkpt lat="43.81373" lon="7.25686">
        <ele>599.11</ele>
        <time>2015-03-01T12:54:34Z</time>
      </trkpt>
      <trkpt lat="43.81368" lon="7.2567">
        <ele>598.45</ele>
        <time>2015-03-01T12:54:37Z</time>
      </trkpt>
      <trkpt lat="43.8136" lon="7.25642">
        <ele>598.16</ele>
        <time>2015-03-01T12:54:42Z</time>
      </trkpt>
      <trkpt lat="43.81352" lon="7.25594">
        <ele>597.68</ele>
        <time>2015-03-01T12:54:50Z</time>
      </trkpt>
      <trkpt lat="43.81346" lon="7.25573">
        <ele>598.13</ele>
        <time>2015-03-01T12:54:54Z</time>
      </trkpt>
      <trkpt lat="43.81322" lon="7.25552">
        <ele>597.04</ele>
        <time>2015-03-01T12:55:00Z</time>
      </trkpt>
      <trkpt lat="43.81309" lon="7.25551">
        <ele>596.09</ele>
        <time>2015-03-01T12:55:02Z</time>
      </trkpt>
      <trkpt lat="43.8129" lon="7.25543">
        <ele>596.19</ele>
        <time>2015-03-01T12:55:05Z</time>
      </trkpt>
      <trkpt lat="43.81266" lon="7.25541">
        <ele>593.64</ele>
        <time>2015-03-01T12:55:09Z</time>
      </trkpt>
      <trkpt lat="43.81248" lon="7.25568">
        <ele>593.05</ele>
        <time>2015-03-01T12:55:14Z</time>
      </trkpt>
      <trkpt lat="43.81236" lon="7.2559">
        <ele>592.97</ele>
        <time>2015-03-01T12:55:18Z</time>
      </trkpt>
      <trkpt lat="43.81194" lon="7.25633">
        <ele>591.5</ele>
        <time>2015-03-01T12:55:28Z</time>
      </trkpt>
      <trkpt lat="43.81154" lon="7.25622">
        <ele>590.56</ele>
        <time>2015-03-01T12:55:37Z</time>
      </trkpt>
      <trkpt lat="43.81145" lon="7.25601">
        <ele>589.48</ele>
        <time>2015-03-01T12:55:40Z</time>
      </trkpt>
      <trkpt lat="43.81137" lon="7.25573">
        <ele>588.93</ele>
        <time>2015-03-01T12:55:44Z</time>
      </trkpt>
      <trkpt lat="43.81107" lon="7.2556">
        <ele>588.32</ele>
        <time>2015-03-01T12:55:51Z</time>
      </trkpt>
      <trkpt lat="43.81057" lon="7.25594">
        <ele>586.7</ele>
        <time>2015-03-01T12:56:02Z</time>
      </trkpt>
      <trkpt lat="43.81023" lon="7.25588">
        <ele>584.94</ele>
        <time>2015-03-01T12:56:09Z</time>
      </trkpt>
      <trkpt lat="43.81012" lon="7.2557">
        <ele>584.72</ele>
        <time>2015-03-01T12:56:12Z</time>
      </trkpt>
      <trkpt lat="43.80979" lon="7.25509">
        <ele>583.54</ele>
        <time>2015-03-01T12:56:22Z</time>
      </trkpt>
      <trkpt lat="43.80962" lon="7.2549">
        <ele>582.52</ele>
        <time>2015-03-01T12:56:26Z</time>
      </trkpt>
      <trkpt lat="43.80942" lon="7.2548">
        <ele>581.89</ele>
        <time>2015-03-01T12:56:30Z</time>
      </trkpt>
      <trkpt lat="43.80908" lon="7.25451">
        <ele>582.62</ele>
        <time>2015-03-01T12:56:38Z</time>
      </trkpt>
      <trkpt lat="43.80885" lon="7.25459">
        <ele>581.11</ele>
        <time>2015-03-01T12:56:44Z</time>
      </trkpt>
      <trkpt lat="43.80882" lon="7.25478">
        <ele>581.82</ele>
        <time>2015-03-01T12:56:47Z</time>
      </trkpt>
      <trkpt lat="43.80885" lon="7.25517">
        <ele>581.68</ele>
        <time>2015-03-01T12:56:53Z</time>
      </trkpt>
      <trkpt lat="43.80883" lon="7.25553">
        <ele>581.28</ele>
        <time>2015-03-01T12:56:58Z</time>
      </trkpt>
      <trkpt lat="43.80877" lon="7.25574">
        <ele>579.87</ele>
        <time>2015-03-01T12:57:01Z</time>
      </trkpt>
      <trkpt lat="43.80874" lon="7.2558">
        <ele>579.65</ele>
        <time>2015-03-01T12:57:02Z</time>
      </trkpt>
      <trkpt lat="43.80826" lon="7.25651">
        <ele>576.9</ele>
        <time>2015-03-01T12:57:15Z</time>
      </trkpt>
      <trkpt lat="43.80798" lon="7.25659">
        <ele>575.24</ele>
        <time>2015-03-01T12:57:21Z</time>
      </trkpt>
      <trkpt lat="43.80789" lon="7.25654">
        <ele>574.58</ele>
        <time>2015-03-01T12:57:23Z</time>
      </trkpt>
      <trkpt lat="43.80763" lon="7.25657">
        <ele>574.16</ele>
        <time>2015-03-01T12:57:28Z</time>
      </trkpt>
      <trkpt lat="43.80736" lon="7.2566">
        <ele>572.54</ele>
        <time>2015-03-01T12:57:33Z</time>
      </trkpt>
      <trkpt lat="43.80699" lon="7.25642">
        <ele>571.62</ele>
        <time>2015-03-01T12:57:40Z</time>
      </trkpt>
      <trkpt lat="43.80678" lon="7.25616">
        <ele>570.52</ele>
        <time>2015-03-01T12:57:45Z</time>
      </trkpt>
      <trkpt lat="43.8067" lon="7.256">
        <ele>570.95</ele>
        <time>2015-03-01T12:57:48Z</time>
      </trkpt>
      <trkpt lat="43.80635" lon="7.25589">
        <ele>570.69</ele>
        <time>2015-03-01T12:57:56Z</time>
      </trkpt>
      <trkpt lat="43.80619" lon="7.25571">
        <ele>570.06</ele>
        <time>2015-03-01T12:58:00Z</time>
      </trkpt>
      <trkpt lat="43.80609" lon="7.25555">
        <ele>569.94</ele>
        <time>2015-03-01T12:58:03Z</time>
      </trkpt>
      <trkpt lat="43.80591" lon="7.25541">
        <ele>570.15</ele>
        <time>2015-03-01T12:58:07Z</time>
      </trkpt>
      <trkpt lat="43.80571" lon="7.25534">
        <ele>569.69</ele>
        <time>2015-03-01T12:58:11Z</time>
      </trkpt>
      <trkpt lat="43.80562" lon="7.25528">
        <ele>568.75</ele>
        <time>2015-03-01T12:58:13Z</time>
      </trkpt>
      <trkpt lat="43.80542" lon="7.25547">
        <ele>567.16</ele>
        <time>2015-03-01T12:58:20Z</time>
      </trkpt>
      <trkpt lat="43.80542" lon="7.25553">
        <ele>567.06</ele>
        <time>2015-03-01T12:58:21Z</time>
      </trkpt>
      <trkpt lat="43.80544" lon="7.25592">
        <ele>567.29</ele>
        <time>2015-03-01T12:58:27Z</time>
      </trkpt>
      <trkpt lat="43.80536" lon="7.25615">
        <ele>567.66</ele>
        <time>2015-03-01T12:58:31Z</time>
      </trkpt>
      <trkpt lat="43.80529" lon="7.25645">
        <ele>566.79</ele>
        <time>2015-03-01T12:58:36Z</time>
      </trkpt>
      <trkpt lat="43.80524" lon="7.25678">
        <ele>566.62</ele>
        <time>2015-03-01T12:58:42Z</time>
      </trkpt>
      <trkpt lat="43.80517" lon="7.25692">
        <ele>566.35</ele>
        <time>2015-03-01T12:58:45Z</time>
      </trkpt>
      <trkpt lat="43.8051" lon="7.25701">
        <ele>566.07</ele>
        <time>2015-03-01T12:58:47Z</time>
      </trkpt>
      <trkpt lat="43.80504" lon="7.25713">
        <ele>565.52</ele>
        <time>2015-03-01T12:58:49Z</time>
      </trkpt>
      <trkpt lat="43.80479" lon="7.25733">
        <ele>563.43</ele>
        <time>2015-03-01T12:58:55Z</time>
      </trkpt>
      <trkpt lat="43.80468" lon="7.25736">
        <ele>563.06</ele>
        <time>2015-03-01T12:58:57Z</time>
      </trkpt>
      <trkpt lat="43.80434" lon="7.25732">
        <ele>560.86</ele>
        <time>2015-03-01T12:59:03Z</time>
      </trkpt>
      <trkpt lat="43.80407" lon="7.25734">
        <ele>561.16</ele>
        <time>2015-03-01T12:59:08Z</time>
      </trkpt>
      <trkpt lat="43.80379" lon="7.25731">
        <ele>557.26</ele>
        <time>2015-03-01T12:59:12Z</time>
      </trkpt>
      <trkpt lat="43.80356" lon="7.25728">
        <ele>555.91</ele>
        <time>2015-03-01T12:59:15Z</time>
      </trkpt>
      <trkpt lat="43.80309" lon="7.25737">
        <ele>552.62</ele>
        <time>2015-03-01T12:59:21Z</time>
      </trkpt>
      <trkpt lat="43.80293" lon="7.25736">
        <ele>551.73</ele>
        <time>2015-03-01T12:59:23Z</time>
      </trkpt>
      <trkpt lat="43.80257" lon="7.25697">
        <ele>548.31</ele>
        <time>2015-03-01T12:59:30Z</time>
      </trkpt>
      <trkpt lat="43.80256" lon="7.25677">
        <ele>548</ele>
        <time>2015-03-01T12:59:32Z</time>
      </trkpt>
      <trkpt lat="43.80257" lon="7.25605">
        <ele>544.44</ele>
        <time>2015-03-01T12:59:39Z</time>
      </trkpt>
      <trkpt lat="43.80254" lon="7.25583">
        <ele>543.46</ele>
        <time>2015-03-01T12:59:41Z</time>
      </trkpt>
      <trkpt lat="43.80253" lon="7.25561">
        <ele>542.29</ele>
        <time>2015-03-01T12:59:43Z</time>
      </trkpt>
      <trkpt lat="43.80251" lon="7.25541">
        <ele>541.17</ele>
        <time>2015-03-01T12:59:45Z</time>
      </trkpt>
      <trkpt lat="43.80225" lon="7.25535">
        <ele>541.43</ele>
        <time>2015-03-01T12:59:50Z</time>
      </trkpt>
      <trkpt lat="43.80199" lon="7.2555">
        <ele>542.65</ele>
        <time>2015-03-01T12:59:56Z</time>
      </trkpt>
      <trkpt lat="43.80178" lon="7.25578">
        <ele>542.04</ele>
        <time>2015-03-01T13:00:02Z</time>
      </trkpt>
      <trkpt lat="43.80161" lon="7.25595">
        <ele>540.55</ele>
        <time>2015-03-01T13:00:06Z</time>
      </trkpt>
      <trkpt lat="43.8014" lon="7.25618">
        <ele>537.96</ele>
        <time>2015-03-01T13:00:10Z</time>
      </trkpt>
      <trkpt lat="43.80108" lon="7.25642">
        <ele>535.33</ele>
        <time>2015-03-01T13:00:15Z</time>
      </trkpt>
      <trkpt lat="43.8008" lon="7.25656">
        <ele>533.76</ele>
        <time>2015-03-01T13:00:19Z</time>
      </trkpt>
      <trkpt lat="43.8004" lon="7.25632">
        <ele>531.1</ele>
        <time>2015-03-01T13:00:26Z</time>
      </trkpt>
      <trkpt lat="43.80022" lon="7.25598">
        <ele>528.82</ele>
        <time>2015-03-01T13:00:30Z</time>
      </trkpt>
      <trkpt lat="43.80008" lon="7.25535">
        <ele>525.8</ele>
        <time>2015-03-01T13:00:37Z</time>
      </trkpt>
      <trkpt lat="43.79994" lon="7.25539">
        <ele>525.21</ele>
        <time>2015-03-01T13:00:41Z</time>
      </trkpt>
      <trkpt lat="43.79981" lon="7.25557">
        <ele>525.46</ele>
        <time>2015-03-01T13:00:44Z</time>
      </trkpt>
      <trkpt lat="43.79956" lon="7.25596">
        <ele>520.86</ele>
        <time>2015-03-01T13:00:49Z</time>
      </trkpt>
      <trkpt lat="43.79951" lon="7.25606">
        <ele>519.29</ele>
        <time>2015-03-01T13:00:50Z</time>
      </trkpt>
      <trkpt lat="43.79938" lon="7.2564">
        <ele>517.58</ele>
        <time>2015-03-01T13:00:53Z</time>
      </trkpt>
      <trkpt lat="43.79924" lon="7.25694">
        <ele>513.51</ele>
        <time>2015-03-01T13:00:57Z</time>
      </trkpt>
      <trkpt lat="43.79915" lon="7.25735">
        <ele>510.26</ele>
        <time>2015-03-01T13:01:00Z</time>
      </trkpt>
      <trkpt lat="43.79886" lon="7.2579">
        <ele>507.35</ele>
        <time>2015-03-01T13:01:05Z</time>
      </trkpt>
      <trkpt lat="43.79856" lon="7.25818">
        <ele>503.42</ele>
        <time>2015-03-01T13:01:09Z</time>
      </trkpt>
      <trkpt lat="43.79824" lon="7.25821">
        <ele>499.3</ele>
        <time>2015-03-01T13:01:13Z</time>
      </trkpt>
      <trkpt lat="43.79787" lon="7.25808">
        <ele>497.28</ele>
        <time>2015-03-01T13:01:21Z</time>
      </trkpt>
      <trkpt lat="43.79799" lon="7.25819">
        <ele>496.06</ele>
        <time>2015-03-01T13:01:25Z</time>
      </trkpt>
      <trkpt lat="43.79847" lon="7.2585">
        <ele>493.3</ele>
        <time>2015-03-01T13:01:34Z</time>
      </trkpt>
      <trkpt lat="43.7986" lon="7.25859">
        <ele>491.99</ele>
        <time>2015-03-01T13:01:36Z</time>
      </trkpt>
      <trkpt lat="43.79892" lon="7.25903">
        <ele>489.83</ele>
        <time>2015-03-01T13:01:42Z</time>
      </trkpt>
      <trkpt lat="43.79923" lon="7.25929">
        <ele>486.27</ele>
        <time>2015-03-01T13:01:49Z</time>
      </trkpt>
      <trkpt lat="43.7993" lon="7.2589">
        <ele>486.33</ele>
        <time>2015-03-01T13:01:55Z</time>
      </trkpt>
      <trkpt lat="43.79931" lon="7.25831">
        <ele>488.32</ele>
        <time>2015-03-01T13:02:06Z</time>
      </trkpt>
      <trkpt lat="43.79935" lon="7.25853">
        <ele>486.73</ele>
        <time>2015-03-01T13:02:13Z</time>
      </trkpt>
      <trkpt lat="43.79938" lon="7.25904">
        <ele>483.21</ele>
        <time>2015-03-01T13:02:19Z</time>
      </trkpt>
      <trkpt lat="43.79941" lon="7.25925">
        <ele>482.09</ele>
        <time>2015-03-01T13:02:21Z</time>
      </trkpt>
      <trkpt lat="43.79951" lon="7.25965">
        <ele>479.63</ele>
        <time>2015-03-01T13:02:25Z</time>
      </trkpt>
      <trkpt lat="43.79954" lon="7.26011">
        <ele>475.45</ele>
        <time>2015-03-01T13:02:29Z</time>
      </trkpt>
      <trkpt lat="43.79971" lon="7.26073">
        <ele>473.58</ele>
        <time>2015-03-01T13:02:35Z</time>
      </trkpt>
      <trkpt lat="43.79976" lon="7.26102">
        <ele>475.73</ele>
        <time>2015-03-01T13:02:40Z</time>
      </trkpt>
      <trkpt lat="43.79979" lon="7.26147">
        <ele>478.84</ele>
        <time>2015-03-01T13:02:52Z</time>
      </trkpt>
      <trkpt lat="43.79972" lon="7.26178">
        <ele>481.92</ele>
        <time>2015-03-01T13:03:02Z</time>
      </trkpt>
      <trkpt lat="43.79968" lon="7.26191">
        <ele>482.85</ele>
        <time>2015-03-01T13:03:16Z</time>
      </trkpt>
      <trkpt lat="43.79965" lon="7.26224">
        <ele>483.69</ele>
        <time>2015-03-01T13:06:59Z</time>
      </trkpt>
      <trkpt lat="43.79963" lon="7.26233">
        <ele>483.37</ele>
        <time>2015-03-01T13:07:00Z</time>
      </trkpt>
      <trkpt lat="43.79955" lon="7.26285">
        <ele>478.92</ele>
        <time>2015-03-01T13:07:06Z</time>
      </trkpt>
      <trkpt lat="43.79951" lon="7.26304">
        <ele>477.8</ele>
        <time>2015-03-01T13:07:08Z</time>
      </trkpt>
      <trkpt lat="43.79944" lon="7.26358">
        <ele>479.8</ele>
        <time>2015-03-01T13:07:15Z</time>
      </trkpt>
      <trkpt lat="43.79938" lon="7.26382">
        <ele>482.14</ele>
        <time>2015-03-01T13:07:20Z</time>
      </trkpt>
      <trkpt lat="43.79939" lon="7.26405">
        <ele>483.09</ele>
        <time>2015-03-01T13:07:24Z</time>
      </trkpt>
      <trkpt lat="43.79941" lon="7.26444">
        <ele>482.05</ele>
        <time>2015-03-01T13:07:29Z</time>
      </trkpt>
      <trkpt lat="43.79952" lon="7.26511">
        <ele>483.33</ele>
        <time>2015-03-01T13:07:39Z</time>
      </trkpt>
      <trkpt lat="43.79968" lon="7.26551">
        <ele>483.43</ele>
        <time>2015-03-01T13:07:46Z</time>
      </trkpt>
      <trkpt lat="43.79981" lon="7.26598">
        <ele>485.49</ele>
        <time>2015-03-01T13:07:56Z</time>
      </trkpt>
      <trkpt lat="43.79982" lon="7.26631">
        <ele>487.21</ele>
        <time>2015-03-01T13:08:06Z</time>
      </trkpt>
      <trkpt lat="43.79989" lon="7.26638">
        <ele>488.32</ele>
        <time>2015-03-01T13:08:11Z</time>
      </trkpt>
      <trkpt lat="43.80014" lon="7.26665">
        <ele>491.9</ele>
        <time>2015-03-01T13:08:26Z</time>
      </trkpt>
      <trkpt lat="43.80027" lon="7.26697">
        <ele>494.16</ele>
        <time>2015-03-01T13:08:38Z</time>
      </trkpt>
      <trkpt lat="43.8004" lon="7.26737">
        <ele>494.86</ele>
        <time>2015-03-01T13:08:49Z</time>
      </trkpt>
      <trkpt lat="43.80039" lon="7.26747">
        <ele>494.5</ele>
        <time>2015-03-01T13:08:51Z</time>
      </trkpt>
      <trkpt lat="43.80035" lon="7.26766">
        <ele>493.6</ele>
        <time>2015-03-01T13:08:54Z</time>
      </trkpt>
      <trkpt lat="43.80009" lon="7.26816">
        <ele>492.29</ele>
        <time>2015-03-01T13:09:02Z</time>
      </trkpt>
      <trkpt lat="43.79993" lon="7.26839">
        <ele>493.67</ele>
        <time>2015-03-01T13:09:08Z</time>
      </trkpt>
      <trkpt lat="43.79979" lon="7.26854">
        <ele>492.1</ele>
        <time>2015-03-01T13:09:13Z</time>
      </trkpt>
      <trkpt lat="43.79965" lon="7.26869">
        <ele>487.83</ele>
        <time>2015-03-01T13:09:16Z</time>
      </trkpt>
      <trkpt lat="43.79957" lon="7.26874">
        <ele>487.16</ele>
        <time>2015-03-01T13:09:18Z</time>
      </trkpt>
      <trkpt lat="43.79939" lon="7.26884">
        <ele>487.03</ele>
        <time>2015-03-01T13:09:23Z</time>
      </trkpt>
      <trkpt lat="43.79949" lon="7.26894">
        <ele>482.88</ele>
        <time>2015-03-01T13:09:29Z</time>
      </trkpt>
      <trkpt lat="43.79956" lon="7.26898">
        <ele>479.64</ele>
        <time>2015-03-01T13:09:31Z</time>
      </trkpt>
      <trkpt lat="43.79964" lon="7.26901">
        <ele>476.25</ele>
        <time>2015-03-01T13:09:33Z</time>
      </trkpt>
      <trkpt lat="43.79975" lon="7.26905">
        <ele>472.5</ele>
        <time>2015-03-01T13:09:37Z</time>
      </trkpt>
      <trkpt lat="43.79966" lon="7.26916">
        <ele>469.21</ele>
        <time>2015-03-01T13:09:40Z</time>
      </trkpt>
      <trkpt lat="43.7996" lon="7.26919">
        <ele>468.67</ele>
        <time>2015-03-01T13:09:42Z</time>
      </trkpt>
      <trkpt lat="43.7995" lon="7.26923">
        <ele>467</ele>
        <time>2015-03-01T13:09:45Z</time>
      </trkpt>
      <trkpt lat="43.7995" lon="7.2693">
        <ele>463.11</ele>
        <time>2015-03-01T13:09:49Z</time>
      </trkpt>
      <trkpt lat="43.79965" lon="7.26934">
        <ele>457.2</ele>
        <time>2015-03-01T13:09:53Z</time>
      </trkpt>
      <trkpt lat="43.79971" lon="7.26932">
        <ele>455.69</ele>
        <time>2015-03-01T13:09:55Z</time>
      </trkpt>
      <trkpt lat="43.79979" lon="7.26931">
        <ele>454.83</ele>
        <time>2015-03-01T13:09:57Z</time>
      </trkpt>
      <trkpt lat="43.79992" lon="7.26928">
        <ele>451</ele>
        <time>2015-03-01T13:10:01Z</time>
      </trkpt>
      <trkpt lat="43.79995" lon="7.26937">
        <ele>446.61</ele>
        <time>2015-03-01T13:10:05Z</time>
      </trkpt>
      <trkpt lat="43.79985" lon="7.26952">
        <ele>442.66</ele>
        <time>2015-03-01T13:10:09Z</time>
      </trkpt>
      <trkpt lat="43.79979" lon="7.26952">
        <ele>440.98</ele>
        <time>2015-03-01T13:10:11Z</time>
      </trkpt>
      <trkpt lat="43.79973" lon="7.26952">
        <ele>440.3</ele>
        <time>2015-03-01T13:10:13Z</time>
      </trkpt>
      <trkpt lat="43.79967" lon="7.26955">
        <ele>439.1</ele>
        <time>2015-03-01T13:10:16Z</time>
      </trkpt>
      <trkpt lat="43.79972" lon="7.26966">
        <ele>435.38</ele>
        <time>2015-03-01T13:10:20Z</time>
      </trkpt>
      <trkpt lat="43.79977" lon="7.26983">
        <ele>428.67</ele>
        <time>2015-03-01T13:10:25Z</time>
      </trkpt>
      <trkpt lat="43.79977" lon="7.26988">
        <ele>425.89</ele>
        <time>2015-03-01T13:10:28Z</time>
      </trkpt>
      <trkpt lat="43.79965" lon="7.26991">
        <ele>426.48</ele>
        <time>2015-03-01T13:10:34Z</time>
      </trkpt>
      <trkpt lat="43.79951" lon="7.27006">
        <ele>426.03</ele>
        <time>2015-03-01T13:10:39Z</time>
      </trkpt>
      <trkpt lat="43.79915" lon="7.27032">
        <ele>426.73</ele>
        <time>2015-03-01T13:10:50Z</time>
      </trkpt>
      <trkpt lat="43.79901" lon="7.27031">
        <ele>429.92</ele>
        <time>2015-03-01T13:10:56Z</time>
      </trkpt>
      <trkpt lat="43.79882" lon="7.2704">
        <ele>432.05</ele>
        <time>2015-03-01T13:11:05Z</time>
      </trkpt>
      <trkpt lat="43.79877" lon="7.27053">
        <ele>430.99</ele>
        <time>2015-03-01T13:11:08Z</time>
      </trkpt>
      <trkpt lat="43.79864" lon="7.27075">
        <ele>430.65</ele>
        <time>2015-03-01T13:11:12Z</time>
      </trkpt>
      <trkpt lat="43.7985" lon="7.27089">
        <ele>429.47</ele>
        <time>2015-03-01T13:11:15Z</time>
      </trkpt>
      <trkpt lat="43.79834" lon="7.27095">
        <ele>428.84</ele>
        <time>2015-03-01T13:11:19Z</time>
      </trkpt>
      <trkpt lat="43.79837" lon="7.2711">
        <ele>425.27</ele>
        <time>2015-03-01T13:11:23Z</time>
      </trkpt>
      <trkpt lat="43.7985" lon="7.27118">
        <ele>419.87</ele>
        <time>2015-03-01T13:11:27Z</time>
      </trkpt>
      <trkpt lat="43.79859" lon="7.27118">
        <ele>416.69</ele>
        <time>2015-03-01T13:11:30Z</time>
      </trkpt>
      <trkpt lat="43.79866" lon="7.27127">
        <ele>411.86</ele>
        <time>2015-03-01T13:11:35Z</time>
      </trkpt>
      <trkpt lat="43.79866" lon="7.27128">
        <ele>411.49</ele>
        <time>2015-03-01T13:11:36Z</time>
      </trkpt>
      <trkpt lat="43.79872" lon="7.27136">
        <ele>407.45</ele>
        <time>2015-03-01T13:11:41Z</time>
      </trkpt>
      <trkpt lat="43.7987" lon="7.27143">
        <ele>404.13</ele>
        <time>2015-03-01T13:11:44Z</time>
      </trkpt>
      <trkpt lat="43.79868" lon="7.27145">
        <ele>402.8</ele>
        <time>2015-03-01T13:11:46Z</time>
      </trkpt>
      <trkpt lat="43.7987" lon="7.27157">
        <ele>400.07</ele>
        <time>2015-03-01T13:11:53Z</time>
      </trkpt>
      <trkpt lat="43.79872" lon="7.27159">
        <ele>397.79</ele>
        <time>2015-03-01T13:11:57Z</time>
      </trkpt>
      <trkpt lat="43.79871" lon="7.2716">
        <ele>397.66</ele>
        <time>2015-03-01T13:11:58Z</time>
      </trkpt>
      <trkpt lat="43.79874" lon="7.27172">
        <ele>394.06</ele>
        <time>2015-03-01T13:12:02Z</time>
      </trkpt>
      <trkpt lat="43.79884" lon="7.27193">
        <ele>389.27</ele>
        <time>2015-03-01T13:12:05Z</time>
      </trkpt>
      <trkpt lat="43.79894" lon="7.27205">
        <ele>383.7</ele>
        <time>2015-03-01T13:12:09Z</time>
      </trkpt>
      <trkpt lat="43.79895" lon="7.27219">
        <ele>382.19</ele>
        <time>2015-03-01T13:12:12Z</time>
      </trkpt>
      <trkpt lat="43.79898" lon="7.2723">
        <ele>380.89</ele>
        <time>2015-03-01T13:12:14Z</time>
      </trkpt>
      <trkpt lat="43.79918" lon="7.27267">
        <ele>381.41</ele>
        <time>2015-03-01T13:12:22Z</time>
      </trkpt>
      <trkpt lat="43.79923" lon="7.27273">
        <ele>381.01</ele>
        <time>2015-03-01T13:12:23Z</time>
      </trkpt>
      <trkpt lat="43.79939" lon="7.27281">
        <ele>378.12</ele>
        <time>2015-03-01T13:12:27Z</time>
      </trkpt>
      <trkpt lat="43.79945" lon="7.27305">
        <ele>377.58</ele>
        <time>2015-03-01T13:12:34Z</time>
      </trkpt>
      <trkpt lat="43.79967" lon="7.2734">
        <ele>375.28</ele>
        <time>2015-03-01T13:12:43Z</time>
      </trkpt>
      <trkpt lat="43.79967" lon="7.27325">
        <ele>373.29</ele>
        <time>2015-03-01T13:12:47Z</time>
      </trkpt>
      <trkpt lat="43.79957" lon="7.27298">
        <ele>374.33</ele>
        <time>2015-03-01T13:12:56Z</time>
      </trkpt>
      <trkpt lat="43.79957" lon="7.27295">
        <ele>374.06</ele>
        <time>2015-03-01T13:13:02Z</time>
      </trkpt>
      <trkpt lat="43.79962" lon="7.27273">
        <ele>371.38</ele>
        <time>2015-03-01T13:21:02Z</time>
      </trkpt>
      <trkpt lat="43.79966" lon="7.27275">
        <ele>371.46</ele>
        <time>2015-03-01T13:21:08Z</time>
      </trkpt>
      <trkpt lat="43.79969" lon="7.27277">
        <ele>371.16</ele>
        <time>2015-03-01T13:21:15Z</time>
      </trkpt>
      <trkpt lat="43.79969" lon="7.27274">
        <ele>371.31</ele>
        <time>2015-03-01T13:21:53Z</time>
      </trkpt>
      <trkpt lat="43.79967" lon="7.27271">
        <ele>371.36</ele>
        <time>2015-03-01T13:21:55Z</time>
      </trkpt>
      <trkpt lat="43.79961" lon="7.27262">
        <ele>372.34</ele>
        <time>2015-03-01T13:22:00Z</time>
      </trkpt>
      <trkpt lat="43.79962" lon="7.27257">
        <ele>373.52</ele>
        <time>2015-03-01T13:22:08Z</time>
      </trkpt>
      <trkpt lat="43.79961" lon="7.2726">
        <ele>373.93</ele>
        <time>2015-03-01T13:25:06Z</time>
      </trkpt>
      <trkpt lat="43.79963" lon="7.27261">
        <ele>374.02</ele>
        <time>2015-03-01T13:25:14Z</time>
      </trkpt>
      <trkpt lat="43.79962" lon="7.27267">
        <ele>373.67</ele>
        <time>2015-03-01T13:25:30Z</time>
      </trkpt>
      <trkpt lat="43.79964" lon="7.27273">
        <ele>372.66</ele>
        <time>2015-03-01T13:25:36Z</time>
      </trkpt>
      <trkpt lat="43.79967" lon="7.2728">
        <ele>371.71</ele>
        <time>2015-03-01T13:25:40Z</time>
      </trkpt>
      <trkpt lat="43.7997" lon="7.27285">
        <ele>371.47</ele>
        <time>2015-03-01T13:25:49Z</time>
      </trkpt>
    </trkseg>
  </trk>
</gpx>